Darstellungsparameter: Aktuell verwendete Einstellungen:
Skalierung der Graphiken ... ?
xyx+y,   Skalierungsfaktor:      Skalierung: Modus: x, Faktor: 1
Darstellungszeitraum ... ?
Vom - - bis: - -   Zeitraum: 02.12.2008 - 01.06.2009
Min/Max/Avg-Anzeige ... ?
Zeige MMA aktuell
Zeige MMA Monat
Zeige MMA alles
Zeige --A aktuell
Zeige --A Monat
Zeige --A alles
Keine MMA-Anzeige
MMA:
Keine MMA-Graphiken
MMA-Basis: 02.12.2008 - 01.06.2009
Quicknavigation für Darstellung... ?
Tage:      1T, 2T, 3T, 5T -1T -2T -3T -5T +1T +2T +3T +5T
Wochen: 1W, 2W, 3W -1W -2W -3W +1W +2W +3W
Monate: 1M, 3M, 6M -1M -3M -6M +1M +3M +6M
Jahre:    1J, 3J, 5J, 10J -1J -3J -5J -10J +1J +3J +5J +10J
Nutze für die Darstellung ... ?
Originaldaten oder Mittelwerte auf ...
Stundenbasis Tagesbasis Wochenbasis
Monatsbasis Jahresbasis      Datenbasis: Original-Daten
Darstellen als:
Statistik (Auto) Statistik J:M      Darstellung:
Zur Graphik,    zurück zur Übersicht aller Sensoren.
 
Tabellarische Datenbersicht: ?
 
Sensor: Nr:Datum:Temp:Abs-Feuchte:Windchill:Wind:
Aussen-T/F 1 02-12-2008 00:09:02 2.7 C 5.24 g/m*3 2.7 C 0 km/h
2 02-12-2008 00:21:02 2.6 C 5.27 g/m*3 2.6 C 0 km/h
3 02-12-2008 00:33:02 2.5 C 5.23 g/m*3 2.5 C 0 km/h
4 02-12-2008 00:45:02 2.5 C 5.29 g/m*3 2.5 C 0 km/h
5 02-12-2008 00:57:02 2.4 C 5.31 g/m*3 2.4 C 0 km/h
6 02-12-2008 01:09:02 2.4 C 5.31 g/m*3 2.4 C 0 km/h
7 02-12-2008 01:21:02 2.3 C 5.27 g/m*3 2.3 C 0 km/h
8 02-12-2008 01:33:02 2.3 C 5.27 g/m*3 2.3 C 0 km/h
9 02-12-2008 01:45:02 2.3 C 5.27 g/m*3 2.3 C 0 km/h
10 02-12-2008 01:57:02 2.3 C 5.27 g/m*3 2.3 C 0 km/h
11 02-12-2008 02:09:02 2.3 C 5.27 g/m*3 2.3 C 0 km/h
12 02-12-2008 02:21:02 2.3 C 5.27 g/m*3 2.3 C 0 km/h
13 02-12-2008 02:33:03 2.3 C 5.27 g/m*3 2.3 C 0 km/h
14 02-12-2008 02:45:03 2.2 C 5.29 g/m*3 2.2 C 0 km/h
15 02-12-2008 02:57:03 2.2 C 5.29 g/m*3 2.2 C 0 km/h
16 02-12-2008 03:09:03 2.2 C 5.29 g/m*3 2.2 C 0 km/h
17 02-12-2008 03:21:03 2.2 C 5.29 g/m*3 2.2 C 0 km/h
18 02-12-2008 03:33:03 2.2 C 5.29 g/m*3 2.2 C 0 km/h
19 02-12-2008 03:45:03 2.2 C 5.29 g/m*3 2.2 C 0 km/h
20 02-12-2008 03:57:03 2.2 C 5.29 g/m*3 2.2 C 0 km/h
21 02-12-2008 04:09:03 2.2 C 5.29 g/m*3 2.2 C 0 km/h
22 02-12-2008 04:21:03 2.2 C 5.29 g/m*3 2.2 C 0 km/h
23 02-12-2008 04:33:03 2.2 C 5.29 g/m*3 2.2 C 0 km/h
24 02-12-2008 04:45:03 2.2 C 5.29 g/m*3 2.2 C 0 km/h
25 02-12-2008 04:57:03 2.3 C 5.33 g/m*3 2.3 C 0 km/h
Sensor: Nr:Datum:Temp:Abs-Feuchte:Windchill:Wind:
Aussen-T/F 26 02-12-2008 05:09:03 2.3 C 5.33 g/m*3 2.3 C 0 km/h
27 02-12-2008 05:21:03 2.2 C 5.24 g/m*3 2.2 C 0 km/h
28 02-12-2008 05:33:03 2.1 C 5.26 g/m*3 2.1 C 0 km/h
29 02-12-2008 05:45:03 2.2 C 5.29 g/m*3 2.2 C 0 km/h
30 02-12-2008 05:57:03 2.2 C 5.29 g/m*3 2.2 C 0 km/h
31 02-12-2008 06:09:03 2.2 C 5.35 g/m*3 2.2 C 0 km/h
32 02-12-2008 06:21:04 2.3 C 5.39 g/m*3 2.3 C 0 km/h
33 02-12-2008 06:33:04 2.3 C 5.39 g/m*3 2.3 C 0 km/h
34 02-12-2008 06:45:04 2.3 C 5.39 g/m*3 2.3 C 0 km/h
35 02-12-2008 06:57:04 2.4 C 5.42 g/m*3 2.4 C 0 km/h
36 02-12-2008 07:09:01 2.4 C 5.42 g/m*3 2.4 C 0 km/h
37 02-12-2008 07:21:01 2.4 C 5.42 g/m*3 2.4 C 0 km/h
38 02-12-2008 07:33:01 2.3 C 5.39 g/m*3 2.3 C 0 km/h
39 02-12-2008 07:45:02 2.3 C 5.39 g/m*3 2.3 C 0 km/h
40 02-12-2008 07:57:03 2.3 C 5.39 g/m*3 2.3 C 0 km/h
41 02-12-2008 08:09:02 2.4 C 5.42 g/m*3 2.4 C 0 km/h
42 02-12-2008 08:21:02 2.4 C 5.42 g/m*3 2.4 C 0 km/h
43 02-12-2008 08:33:02 2.4 C 5.42 g/m*3 2.4 C 0 km/h
44 02-12-2008 08:45:02 2.4 C 5.42 g/m*3 2.4 C 0 km/h
45 02-12-2008 08:57:02 2.5 C 5.46 g/m*3 2.5 C 0 km/h
46 02-12-2008 09:09:02 2.6 C 5.5 g/m*3 2.6 C 0 km/h
47 02-12-2008 09:21:02 2.6 C 5.5 g/m*3 2.6 C 0 km/h
48 02-12-2008 09:33:02 2.7 C 5.54 g/m*3 2.7 C 0 km/h
49 02-12-2008 09:45:02 2.7 C 5.48 g/m*3 2.7 C 0 km/h
50 02-12-2008 09:57:02 2.8 C 5.51 g/m*3 2.8 C 0 km/h
Sensor: Nr:Datum:Temp:Abs-Feuchte:Windchill:Wind:
Aussen-T/F 51 02-12-2008 10:09:02 3 C 5.53 g/m*3 3 C 0 km/h
52 02-12-2008 10:21:01 3.1 C 5.57 g/m*3 3.1 C 0 km/h
53 02-12-2008 10:33:02 3.3 C 5.64 g/m*3 3.3 C 0 km/h
54 02-12-2008 10:45:02 3.3 C 5.58 g/m*3 3.3 C 0 km/h
55 02-12-2008 10:57:02 3.4 C 5.62 g/m*3 3.4 C 0 km/h
56 02-12-2008 11:09:02 3.4 C 5.56 g/m*3 3.4 C 0 km/h
57 02-12-2008 11:21:02 3.4 C 5.62 g/m*3 3.4 C 0 km/h
58 02-12-2008 11:33:02 3.6 C 5.69 g/m*3 3.6 C 0 km/h
59 02-12-2008 11:45:02 3.7 C 5.67 g/m*3 3.7 C 0 km/h
60 02-12-2008 11:57:02 3.9 C 5.75 g/m*3 3.9 C 0 km/h
61 02-12-2008 12:09:02 4.3 C 5.77 g/m*3 4.3 C 0 km/h
62 02-12-2008 12:21:02 4.3 C 5.71 g/m*3 4.3 C 0 km/h
63 02-12-2008 12:33:02 4.4 C 5.68 g/m*3 4.4 C 0 km/h
64 02-12-2008 12:45:02 4.4 C 5.62 g/m*3 4.4 C 0 km/h
65 02-12-2008 12:57:02 4.4 C 5.55 g/m*3 4.4 C 0 km/h
66 02-12-2008 13:09:02 4.4 C 5.55 g/m*3 4.4 C 0 km/h
67 02-12-2008 13:21:01 4.2 C 5.35 g/m*3 4.2 C 0 km/h
68 02-12-2008 13:33:02 4.1 C 5.18 g/m*3 4.1 C 0 km/h
69 02-12-2008 13:45:03 4.2 C 5.15 g/m*3 4.2 C 0 km/h
70 02-12-2008 13:57:03 4 C 4.96 g/m*3 4 C 0 km/h
71 02-12-2008 14:09:02 3.8 C 4.96 g/m*3 3.8 C 0 km/h
72 02-12-2008 14:21:02 3.7 C 4.92 g/m*3 3.7 C 0 km/h
73 02-12-2008 14:33:03 3.7 C 4.92 g/m*3 3.7 C 0 km/h
74 02-12-2008 14:45:02 3.7 C 4.86 g/m*3 3.7 C 0 km/h
75 02-12-2008 14:57:02 3.9 C 4.8 g/m*3 3.9 C 0 km/h
Sensor: Nr:Datum:Temp:Abs-Feuchte:Windchill:Wind:
Aussen-T/F 76 02-12-2008 15:09:02 4 C 4.64 g/m*3 4 C 0 km/h
77 02-12-2008 15:21:01 3.8 C 4.39 g/m*3 3.8 C 0 km/h
78 02-12-2008 15:33:02 3.7 C 4.36 g/m*3 3.7 C 0 km/h
79 02-12-2008 15:45:02 3.6 C 4.27 g/m*3 3.6 C 0 km/h
80 02-12-2008 15:57:02 3.3 C 4.31 g/m*3 3.3 C 0 km/h
81 02-12-2008 16:09:03 3.3 C 4.37 g/m*3 3.3 C 0 km/h
82 02-12-2008 16:21:03 3.3 C 4.43 g/m*3 3.3 C 0 km/h
83 02-12-2008 16:33:02 3.1 C 4.49 g/m*3 3.1 C 0 km/h
84 02-12-2008 16:45:02 2.9 C 4.55 g/m*3 2.9 C 0 km/h
85 02-12-2008 16:57:02 2.8 C 4.69 g/m*3 2.8 C 0 km/h
86 02-12-2008 17:09:02 2.9 C 4.72 g/m*3 2.9 C 0 km/h
87 02-12-2008 17:21:02 2.9 C 4.78 g/m*3 2.9 C 0 km/h
88 02-12-2008 17:33:01 3 C 4.7 g/m*3 3 C 0 km/h
89 02-12-2008 17:45:02 3.1 C 4.61 g/m*3 3.1 C 0 km/h
90 02-12-2008 17:57:02 3.1 C 4.43 g/m*3 3.1 C 0 km/h
91 02-12-2008 18:09:01 3 C 4.28 g/m*3 3 C 0 km/h
92 02-12-2008 18:21:02 2.9 C 4.31 g/m*3 2.9 C 0 km/h
93 02-12-2008 18:33:02 2.7 C 4.25 g/m*3 2.7 C 0 km/h
94 02-12-2008 18:45:02 2.7 C 4.31 g/m*3 2.7 C 0 km/h
95 02-12-2008 18:57:02 2.6 C 4.28 g/m*3 2.6 C 0 km/h
96 02-12-2008 19:09:03 2.6 C 4.34 g/m*3 2.6 C 0 km/h
97 02-12-2008 19:21:02 2.7 C 4.37 g/m*3 2.7 C 0 km/h
98 02-12-2008 19:33:02 2.8 C 4.4 g/m*3 2.8 C 0 km/h
99 02-12-2008 19:45:02 2.8 C 4.46 g/m*3 2.8 C 0 km/h
100 02-12-2008 19:57:02 3 C 4.4 g/m*3 3 C 0 km/h
Sensor: Nr:Datum:Temp:Abs-Feuchte:Windchill:Wind:
Aussen-T/F 101 02-12-2008 20:09:03 3.1 C 4.37 g/m*3 3.1 C 0 km/h
102 02-12-2008 20:21:02 3.1 C 4.37 g/m*3 3.1 C 0 km/h
103 02-12-2008 20:33:02 3 C 4.34 g/m*3 3 C 0 km/h
104 02-12-2008 20:45:02 3 C 4.22 g/m*3 3 C 0 km/h
105 02-12-2008 20:57:02 2.7 C 4.25 g/m*3 2.7 C 0 km/h
106 02-12-2008 21:09:02 2.5 C 4.2 g/m*3 2.5 C 0 km/h
107 02-12-2008 21:21:02 2.3 C 4.2 g/m*3 2.3 C 0 km/h
108 02-12-2008 21:33:02 2.2 C 4.17 g/m*3 2.2 C 0 km/h
109 02-12-2008 21:45:02 1.8 C 4.11 g/m*3 1.8 C 0 km/h
110 02-12-2008 21:57:02 1.5 C 4.08 g/m*3 1.5 C 0 km/h
111 02-12-2008 22:09:02 1.4 C 4.16 g/m*3 1.4 C 0 km/h
112 02-12-2008 22:22:05 1.8 C 4.22 g/m*3 1.8 C 0 km/h
113 02-12-2008 22:34:05 2.2 C 4.11 g/m*3 2.2 C 0 km/h
114 02-12-2008 22:46:05 2.3 C 4.08 g/m*3 2.3 C 0 km/h
115 02-12-2008 22:58:05 2.2 C 4.11 g/m*3 2.2 C 0 km/h
116 02-12-2008 23:10:05 2.3 C 4.08 g/m*3 2.3 C 0 km/h
117 02-12-2008 23:22:05 2.3 C 4.08 g/m*3 2.3 C 0 km/h
118 02-12-2008 23:34:05 2.5 C 4.02 g/m*3 2.5 C 0 km/h
119 02-12-2008 23:46:05 2.7 C 4.02 g/m*3 2.7 C 0 km/h
120 02-12-2008 23:58:05 2.6 C 3.99 g/m*3 2.6 C 0 km/h
121 03-12-2008 00:10:05 2.6 C 3.99 g/m*3 2.6 C 0 km/h
122 03-12-2008 00:22:05 2.7 C 4.02 g/m*3 2.7 C 0 km/h
123 03-12-2008 00:34:05 2.3 C 4.14 g/m*3 2.3 C 0 km/h
124 03-12-2008 00:46:06 1.9 C 4.36 g/m*3 1.9 C 0 km/h
125 03-12-2008 00:58:06 1.7 C 4.52 g/m*3 1.7 C 0 km/h
Sensor: Nr:Datum:Temp:Abs-Feuchte:Windchill:Wind:
Aussen-T/F 126 03-12-2008 01:10:06 1.8 C 4.66 g/m*3 1.8 C 0 km/h
127 03-12-2008 01:22:06 1.7 C 4.68 g/m*3 1.7 C 0 km/h
128 03-12-2008 01:34:06 1.8 C 4.77 g/m*3 1.8 C 0 km/h
129 03-12-2008 01:46:06 1.9 C 4.8 g/m*3 1.9 C 0 km/h
130 03-12-2008 01:58:06 2 C 4.78 g/m*3 2 C 0 km/h
131 03-12-2008 02:10:06 1.6 C 4.76 g/m*3 1.6 C 0 km/h
132 03-12-2008 02:22:06 1.7 C 4.85 g/m*3 1.7 C 0 km/h
133 03-12-2008 02:34:06 1.7 C 4.85 g/m*3 1.7 C 0 km/h
134 03-12-2008 02:46:06 1.7 C 4.85 g/m*3 1.7 C 0 km/h
135 03-12-2008 02:58:06 2 C 4.95 g/m*3 2 C 0 km/h
136 03-12-2008 03:10:06 1.9 C 4.97 g/m*3 1.9 C 0 km/h
137 03-12-2008 03:22:06 1.9 C 4.97 g/m*3 1.9 C 0 km/h
138 03-12-2008 03:34:06 1.9 C 4.97 g/m*3 1.9 C 0 km/h
139 03-12-2008 03:46:06 2 C 5 g/m*3 2 C 0 km/h
140 03-12-2008 03:58:06 2 C 5 g/m*3 2 C 0 km/h
141 03-12-2008 04:10:07 2 C 5 g/m*3 2 C 0 km/h
142 03-12-2008 04:22:07 2 C 5 g/m*3 2 C 0 km/h
143 03-12-2008 04:34:07 2 C 5.06 g/m*3 2 C 0 km/h
144 03-12-2008 04:46:07 2 C 5.06 g/m*3 2 C 0 km/h
145 03-12-2008 04:58:07 2 C 5.06 g/m*3 2 C 0 km/h
146 03-12-2008 05:10:07 2 C 5.06 g/m*3 2 C 0 km/h
147 03-12-2008 05:22:07 2 C 5.06 g/m*3 2 C 0 km/h
148 03-12-2008 05:34:07 2 C 5.06 g/m*3 2 C 0 km/h
149 03-12-2008 05:46:07 2 C 5.11 g/m*3 2 C 0 km/h
150 03-12-2008 05:58:07 2.2 C 5.18 g/m*3 2.2 C 0 km/h
Sensor: Nr:Datum:Temp:Abs-Feuchte:Windchill:Wind:
Aussen-T/F 151 03-12-2008 06:10:07 2.1 C 5.09 g/m*3 2.1 C 0 km/h
152 03-12-2008 06:22:07 2.1 C 5.09 g/m*3 2.1 C 0 km/h
153 03-12-2008 06:34:05 2.1 C 5.09 g/m*3 2.1 C 0 km/h
154 03-12-2008 06:46:03 2.1 C 5.09 g/m*3 2.1 C 0 km/h
155 03-12-2008 06:58:03 2.1 C 5.09 g/m*3 2.1 C 0 km/h
156 03-12-2008 07:10:03 2.1 C 5.09 g/m*3 2.1 C 0 km/h
157 03-12-2008 07:22:03 2.1 C 5.09 g/m*3 2.1 C 0 km/h
158 03-12-2008 07:34:02 2.1 C 5.09 g/m*3 2.1 C 0 km/h
159 03-12-2008 07:46:02 2.1 C 5.09 g/m*3 2.1 C 0 km/h
160 03-12-2008 07:58:02 2.1 C 5.09 g/m*3 2.1 C 0 km/h
161 03-12-2008 08:10:01 2.1 C 5.09 g/m*3 2.1 C 0 km/h
162 03-12-2008 08:22:02 2 C 5.06 g/m*3 2 C 0 km/h
163 03-12-2008 08:34:01 2 C 5.06 g/m*3 2 C 0 km/h
164 03-12-2008 08:46:01 2.1 C 5.09 g/m*3 2.1 C 0 km/h
165 03-12-2008 08:58:01 2.1 C 5.04 g/m*3 2.1 C 0 km/h
166 03-12-2008 09:10:02 2.1 C 5.04 g/m*3 2.1 C 0 km/h
167 03-12-2008 09:22:02 2.2 C 5.07 g/m*3 2.2 C 0 km/h
168 03-12-2008 09:34:02 2.2 C 5.07 g/m*3 2.2 C 0 km/h
169 03-12-2008 09:46:02 2.2 C 5.07 g/m*3 2.2 C 0 km/h
170 03-12-2008 09:58:02 2.3 C 5.1 g/m*3 2.3 C 0 km/h
171 03-12-2008 10:10:03 2.4 C 5.14 g/m*3 2.4 C 0 km/h
172 03-12-2008 10:22:02 2.4 C 5.08 g/m*3 2.4 C 0 km/h
173 03-12-2008 10:34:02 2.5 C 5.12 g/m*3 2.5 C 0 km/h
174 03-12-2008 10:46:02 2.6 C 5.15 g/m*3 2.6 C 0 km/h
175 03-12-2008 10:58:02 2.6 C 5.15 g/m*3 2.6 C 0 km/h
Sensor: Nr:Datum:Temp:Abs-Feuchte:Windchill:Wind:
Aussen-T/F 176 03-12-2008 11:10:01 2.7 C 5.19 g/m*3 2.7 C 0 km/h
177 03-12-2008 11:22:02 2.7 C 5.19 g/m*3 2.7 C 0 km/h
178 03-12-2008 11:34:01 2.8 C 5.28 g/m*3 2.8 C 0 km/h
179 03-12-2008 11:46:02 2.7 C 5.24 g/m*3 2.7 C 0 km/h
180 03-12-2008 11:58:02 2.7 C 5.24 g/m*3 2.7 C 0 km/h
181 03-12-2008 12:10:01 2.7 C 5.24 g/m*3 2.7 C 0 km/h
182 03-12-2008 12:22:02 2.7 C 5.24 g/m*3 2.7 C 0 km/h
183 03-12-2008 12:34:01 2.7 C 5.3 g/m*3 2.7 C 0 km/h
184 03-12-2008 12:46:01 2.7 C 5.36 g/m*3 2.7 C 0 km/h
185 03-12-2008 12:58:01 2.7 C 5.36 g/m*3 2.7 C 0 km/h
186 03-12-2008 13:10:01 2.6 C 5.32 g/m*3 2.6 C 0 km/h
187 03-12-2008 13:22:01 2.6 C 5.32 g/m*3 2.6 C 0 km/h
188 03-12-2008 13:34:01 2.5 C 5.29 g/m*3 2.5 C 0 km/h
189 03-12-2008 13:46:01 2.6 C 5.32 g/m*3 2.6 C 0 km/h
190 03-12-2008 13:58:01 2.6 C 5.32 g/m*3 2.6 C 0 km/h
191 03-12-2008 14:10:02 2.6 C 5.27 g/m*3 2.6 C 0 km/h
192 03-12-2008 14:22:01 2.6 C 5.32 g/m*3 2.6 C 0 km/h
193 03-12-2008 14:34:01 2.2 C 5.13 g/m*3 2.2 C 0 km/h
194 03-12-2008 14:46:02 1.9 C 5.02 g/m*3 1.9 C 0 km/h
195 03-12-2008 14:58:02 2 C 5.06 g/m*3 2 C 0 km/h
196 03-12-2008 15:10:02 2 C 5.06 g/m*3 2 C 0 km/h
197 03-12-2008 15:22:01 2 C 5.11 g/m*3 2 C 0 km/h
198 03-12-2008 15:34:02 2.1 C 5.15 g/m*3 2.1 C 0 km/h
199 03-12-2008 15:46:02 2 C 5.11 g/m*3 2 C 0 km/h
200 03-12-2008 15:58:03 2 C 5.17 g/m*3 2 C 0 km/h
Sensor: Nr:Datum:Temp:Abs-Feuchte:Windchill:Wind:
Aussen-T/F 201 03-12-2008 16:10:02 2 C 5.17 g/m*3 2 C 0 km/h
202 03-12-2008 16:22:02 1.9 C 5.13 g/m*3 1.9 C 0 km/h
203 03-12-2008 16:34:02 1.9 C 5.13 g/m*3 1.9 C 0 km/h
204 03-12-2008 16:46:02 1.9 C 5.13 g/m*3 1.9 C 0 km/h
205 03-12-2008 16:58:02 1.8 C 5.1 g/m*3 1.8 C 0 km/h
206 03-12-2008 17:10:01 1.8 C 5.1 g/m*3 1.8 C 0 km/h
207 03-12-2008 17:22:02 1.7 C 5.06 g/m*3 1.7 C 0 km/h
208 03-12-2008 17:34:01 1.7 C 5.06 g/m*3 1.7 C 0 km/h
209 03-12-2008 17:46:01 1.7 C 5.06 g/m*3 1.7 C 0 km/h
210 03-12-2008 17:58:01 1.6 C 4.97 g/m*3 1.6 C 0 km/h
211 03-12-2008 18:10:02 1.6 C 4.97 g/m*3 1.6 C 0 km/h
212 03-12-2008 18:22:01 1.6 C 4.97 g/m*3 1.6 C 0 km/h
213 03-12-2008 18:34:01 1.7 C 5.01 g/m*3 1.7 C 0 km/h
214 03-12-2008 18:46:03 1.6 C 4.92 g/m*3 1.6 C 0 km/h
215 03-12-2008 18:58:03 1.5 C 4.83 g/m*3 1.5 C 0 km/h
216 03-12-2008 19:10:02 1.6 C 4.81 g/m*3 1.6 C 0 km/h
217 03-12-2008 19:22:03 1.5 C 4.73 g/m*3 1.5 C 0 km/h
218 03-12-2008 19:34:02 1.4 C 4.64 g/m*3 1.4 C 0 km/h
219 03-12-2008 19:46:02 1.3 C 4.45 g/m*3 1.3 C 0 km/h
220 03-12-2008 19:58:02 1.3 C 4.4 g/m*3 1.3 C 0 km/h
221 03-12-2008 20:10:02 1.4 C 4.43 g/m*3 1.4 C 0 km/h
222 03-12-2008 20:22:02 1.4 C 4.43 g/m*3 1.4 C 0 km/h
223 03-12-2008 20:34:03 0.9 C 4.38 g/m*3 0.9 C 0 km/h
224 03-12-2008 20:46:02 0.6 C 4.34 g/m*3 0.6 C 0 km/h
225 03-12-2008 20:58:02 0.5 C 4.41 g/m*3 0.5 C 0 km/h
Sensor: Nr:Datum:Temp:Abs-Feuchte:Windchill:Wind:
Aussen-T/F 226 03-12-2008 21:10:02 0.2 C 4.32 g/m*3 0.2 C 0 km/h
227 03-12-2008 21:22:02 0.2 C 4.37 g/m*3 0.2 C 0 km/h
228 03-12-2008 21:34:02 0.2 C 4.42 g/m*3 0.2 C 0 km/h
229 03-12-2008 21:46:02 0.3 C 4.5 g/m*3 0.3 C 0 km/h
230 03-12-2008 21:58:02 0.2 C 4.47 g/m*3 0.2 C 0 km/h
231 03-12-2008 22:10:01 0.1 C 4.44 g/m*3 0.1 C 0 km/h
232 03-12-2008 22:22:02 -0.1 C 4.38 g/m*3 -0.1 C 0 km/h
233 03-12-2008 22:34:02 0 C 4.46 g/m*3 0 C 0 km/h
234 03-12-2008 22:47:01 -0.3 C 4.37 g/m*3 -0.3 C 0 km/h
235 03-12-2008 22:59:01 -0.3 C 4.41 g/m*3 -0.3 C 0 km/h
236 03-12-2008 23:11:01 -0.1 C 4.52 g/m*3 -0.1 C 0 km/h
237 03-12-2008 23:23:02 0 C 4.55 g/m*3 0 C 0 km/h
238 03-12-2008 23:35:02 0.2 C 4.67 g/m*3 0.2 C 0 km/h
239 03-12-2008 23:47:02 0.3 C 4.7 g/m*3 0.3 C 0 km/h
240 03-12-2008 23:59:02 0.2 C 4.62 g/m*3 0.2 C 0 km/h
241 04-12-2008 00:11:02 0.2 C 4.62 g/m*3 0.2 C 0 km/h
242 04-12-2008 00:23:02 0.1 C 4.59 g/m*3 0.1 C 0 km/h
243 04-12-2008 00:35:02 -0.2 C 4.44 g/m*3 -0.2 C 0 km/h
244 04-12-2008 00:47:02 -0.1 C 4.47 g/m*3 -0.1 C 0 km/h
245 04-12-2008 00:59:02 -0.2 C 4.44 g/m*3 -0.2 C 0 km/h
246 04-12-2008 01:11:02 -0.3 C 4.41 g/m*3 -0.3 C 0 km/h
247 04-12-2008 01:23:02 -0.2 C 4.44 g/m*3 -0.2 C 0 km/h
248 04-12-2008 01:35:02 -0.4 C 4.34 g/m*3 -0.4 C 0 km/h
249 04-12-2008 01:47:02 -0.4 C 4.34 g/m*3 -0.4 C 0 km/h
250 04-12-2008 01:59:02 -0.3 C 4.37 g/m*3 -0.3 C 0 km/h
Sensor: Nr:Datum:Temp:Abs-Feuchte:Windchill:Wind:
Aussen-T/F 251 04-12-2008 02:11:02 -0.4 C 4.29 g/m*3 -0.4 C 0 km/h
252 04-12-2008 02:23:02 -0.5 C 4.26 g/m*3 -0.5 C 0 km/h
253 04-12-2008 02:35:02 -0.5 C 4.26 g/m*3 -0.5 C 0 km/h
254 04-12-2008 02:47:02 -0.5 C 4.21 g/m*3 -0.5 C 0 km/h
255 04-12-2008 02:59:02 -0.5 C 4.21 g/m*3 -0.5 C 0 km/h
256 04-12-2008 03:11:03 -0.3 C 4.27 g/m*3 -0.3 C 0 km/h
257 04-12-2008 03:23:03 -0.3 C 4.22 g/m*3 -0.3 C 0 km/h
258 04-12-2008 03:35:03 -0.3 C 4.22 g/m*3 -0.3 C 0 km/h
259 04-12-2008 03:47:03 -0.3 C 4.22 g/m*3 -0.3 C 0 km/h
260 04-12-2008 03:59:03 -0.4 C 4.15 g/m*3 -0.4 C 0 km/h
261 04-12-2008 04:11:03 -0.6 C 4.09 g/m*3 -0.6 C 0 km/h
262 04-12-2008 04:23:03 -0.7 C 4.02 g/m*3 -0.7 C 0 km/h
263 04-12-2008 04:35:03 -0.9 C 3.96 g/m*3 -0.9 C 0 km/h
264 04-12-2008 04:47:03 -1 C 3.93 g/m*3 -1 C 0 km/h
265 04-12-2008 04:59:03 -1.1 C 3.91 g/m*3 -1.1 C 0 km/h
266 04-12-2008 05:11:03 -0.9 C 3.96 g/m*3 -0.9 C 0 km/h
267 04-12-2008 05:23:03 -0.9 C 3.96 g/m*3 -0.9 C 0 km/h
268 04-12-2008 05:35:03 -0.8 C 3.99 g/m*3 -0.8 C 0 km/h
269 04-12-2008 05:47:03 -0.8 C 3.99 g/m*3 -0.8 C 0 km/h
270 04-12-2008 05:59:03 -0.8 C 4.03 g/m*3 -0.8 C 0 km/h
271 04-12-2008 06:11:03 -0.6 C 4.09 g/m*3 -0.6 C 0 km/h
272 04-12-2008 06:23:03 -0.6 C 4.09 g/m*3 -0.6 C 0 km/h
273 04-12-2008 06:35:03 -0.5 C 4.12 g/m*3 -0.5 C 0 km/h
274 04-12-2008 06:47:03 -0.4 C 4.15 g/m*3 -0.4 C 0 km/h
275 04-12-2008 06:59:03 -0.4 C 4.15 g/m*3 -0.4 C 0 km/h
Sensor: Nr:Datum:Temp:Abs-Feuchte:Windchill:Wind:
Aussen-T/F 276 04-12-2008 07:11:01 -0.4 C 4.15 g/m*3 -0.4 C 0 km/h
277 04-12-2008 07:23:02 -0.3 C 4.18 g/m*3 -0.3 C 0 km/h
278 04-12-2008 07:35:01 -0.3 C 4.13 g/m*3 -0.3 C 0 km/h
279 04-12-2008 07:47:01 -0.3 C 4.13 g/m*3 -0.3 C 0 km/h
280 04-12-2008 07:59:01 -0.3 C 4.13 g/m*3 -0.3 C 0 km/h
281 04-12-2008 08:11:02 -0.3 C 4.13 g/m*3 -0.3 C 0 km/h
282 04-12-2008 08:23:01 -0.3 C 4.13 g/m*3 -0.3 C 0 km/h
283 04-12-2008 08:35:02 -0.3 C 4.13 g/m*3 -0.3 C 0 km/h
284 04-12-2008 08:47:02 -0.4 C 4.1 g/m*3 -0.4 C 0 km/h
285 04-12-2008 08:59:03 -0.3 C 4.18 g/m*3 -0.3 C 0 km/h
286 04-12-2008 09:11:02 -0.1 C 4.23 g/m*3 -0.1 C 0 km/h
287 04-12-2008 09:23:02 0.1 C 4.29 g/m*3 0.1 C 0 km/h
288 04-12-2008 09:35:02 0.3 C 4.35 g/m*3 0.3 C 0 km/h
289 04-12-2008 09:47:02 0.6 C 4.49 g/m*3 0.6 C 0 km/h
290 04-12-2008 09:59:02 0.8 C 4.56 g/m*3 0.8 C 0 km/h
291 04-12-2008 10:11:02 1 C 4.57 g/m*3 1 C 0 km/h
292 04-12-2008 10:23:02 1.2 C 4.63 g/m*3 1.2 C 0 km/h
293 04-12-2008 10:35:02 1.2 C 4.68 g/m*3 1.2 C 0 km/h
294 04-12-2008 10:47:02 1.5 C 4.78 g/m*3 1.5 C 0 km/h
295 04-12-2008 10:59:02 1.9 C 4.91 g/m*3 1.9 C 0 km/h
296 04-12-2008 11:11:02 2.3 C 5.05 g/m*3 2.3 C 0 km/h
297 04-12-2008 11:23:02 2.8 C 5.22 g/m*3 2.8 C 0 km/h
298 04-12-2008 11:35:02 2.8 C 5.16 g/m*3 2.8 C 0 km/h
299 04-12-2008 11:47:02 2.9 C 5.26 g/m*3 2.9 C 0 km/h
300 04-12-2008 11:59:02 3.1 C 5.33 g/m*3 3.1 C 0 km/h
Sensor: Nr:Datum:Temp:Abs-Feuchte:Windchill:Wind:
Aussen-T/F 301 04-12-2008 12:11:02 3.4 C 5.5 g/m*3 3.4 C 0 km/h
302 04-12-2008 12:23:02 3.6 C 5.63 g/m*3 3.6 C 0 km/h
303 04-12-2008 12:35:02 3.7 C 5.67 g/m*3 3.7 C 0 km/h
304 04-12-2008 12:47:02 3.7 C 5.67 g/m*3 3.7 C 0 km/h
305 04-12-2008 12:59:02 3.5 C 5.6 g/m*3 3.5 C 0 km/h
306 04-12-2008 13:11:03 3.1 C 5.45 g/m*3 3.1 C 0 km/h
307 04-12-2008 13:23:02 3.1 C 5.51 g/m*3 3.1 C 0 km/h
308 04-12-2008 13:35:03 3.1 C 5.57 g/m*3 3.1 C 0 km/h
309 04-12-2008 13:47:02 3.1 C 5.57 g/m*3 3.1 C 0 km/h
310 04-12-2008 13:59:02 3.1 C 5.57 g/m*3 3.1 C 0 km/h
311 04-12-2008 14:11:02 3.2 C 5.66 g/m*3 3.2 C 0 km/h
312 04-12-2008 14:23:02 3.2 C 5.66 g/m*3 3.2 C 0 km/h
313 04-12-2008 14:35:02 3.5 C 5.78 g/m*3 3.5 C 0 km/h
314 04-12-2008 14:47:02 3.5 C 5.78 g/m*3 3.5 C 0 km/h
315 04-12-2008 14:59:03 3.5 C 5.72 g/m*3 3.5 C 0 km/h
316 04-12-2008 15:11:01 3.6 C 5.76 g/m*3 3.6 C 0 km/h
317 04-12-2008 15:23:02 3.5 C 5.66 g/m*3 3.5 C 0 km/h
318 04-12-2008 15:35:01 3.5 C 5.66 g/m*3 3.5 C 0 km/h
319 04-12-2008 15:47:03 3.5 C 5.66 g/m*3 3.5 C 0 km/h
320 04-12-2008 15:59:03 3.5 C 5.66 g/m*3 3.5 C 0 km/h
321 04-12-2008 16:11:02 3.6 C 5.69 g/m*3 3.6 C 0 km/h
322 04-12-2008 16:23:03 3.5 C 5.72 g/m*3 3.5 C 0 km/h
323 04-12-2008 16:35:02 3.6 C 5.76 g/m*3 3.6 C 0 km/h
324 04-12-2008 16:47:03 3.5 C 5.78 g/m*3 3.5 C 0 km/h
325 04-12-2008 16:59:03 3.6 C 5.82 g/m*3 3.6 C 0 km/h
Sensor: Nr:Datum:Temp:Abs-Feuchte:Windchill:Wind:
Aussen-T/F 326 04-12-2008 17:11:02 3.6 C 5.82 g/m*3 3.6 C 0 km/h
327 04-12-2008 17:23:03 3.6 C 5.82 g/m*3 3.6 C 0 km/h
328 04-12-2008 17:35:02 3.5 C 5.78 g/m*3 3.5 C 0 km/h
329 04-12-2008 17:47:01 3.6 C 5.82 g/m*3 3.6 C 0 km/h
330 04-12-2008 17:59:01 3.5 C 5.78 g/m*3 3.5 C 0 km/h
331 04-12-2008 18:11:01 3.5 C 5.78 g/m*3 3.5 C 0 km/h
332 04-12-2008 18:23:01 3.6 C 5.88 g/m*3 3.6 C 0 km/h
333 04-12-2008 18:35:01 3.6 C 5.88 g/m*3 3.6 C 0 km/h
334 04-12-2008 18:47:02 3.7 C 5.92 g/m*3 3.7 C 0 km/h
335 04-12-2008 18:59:02 3.7 C 5.92 g/m*3 3.7 C 0 km/h
336 04-12-2008 19:11:02 3.8 C 5.96 g/m*3 3.8 C 0 km/h
337 04-12-2008 19:23:02 3.8 C 5.96 g/m*3 3.8 C 0 km/h
338 04-12-2008 19:35:02 3.9 C 5.94 g/m*3 3.9 C 0 km/h
339 04-12-2008 19:47:02 4.1 C 6.02 g/m*3 4.1 C 0 km/h
340 04-12-2008 19:59:02 4.1 C 6.02 g/m*3 4.1 C 0 km/h
341 04-12-2008 20:11:02 4 C 5.98 g/m*3 4 C 0 km/h
342 04-12-2008 20:23:02 4 C 5.98 g/m*3 4 C 0 km/h
343 04-12-2008 20:35:02 4.1 C 6.02 g/m*3 4.1 C 0 km/h
344 04-12-2008 20:47:02 4.1 C 6.02 g/m*3 4.1 C 0 km/h
345 04-12-2008 20:59:02 4.2 C 6.06 g/m*3 4.2 C 0 km/h
346 04-12-2008 21:11:02 4.3 C 6.16 g/m*3 4.3 C 0 km/h
347 04-12-2008 21:23:02 4.2 C 6.12 g/m*3 4.2 C 0 km/h
348 04-12-2008 21:35:02 4.3 C 6.16 g/m*3 4.3 C 0 km/h
349 04-12-2008 21:47:02 4.4 C 6.2 g/m*3 4.4 C 0 km/h
350 04-12-2008 21:59:02 4.4 C 6.2 g/m*3 4.4 C 0 km/h
Sensor: Nr:Datum:Temp:Abs-Feuchte:Windchill:Wind:
Aussen-T/F 351 04-12-2008 22:12:03 4.6 C 6.29 g/m*3 4.6 C 0 km/h
352 04-12-2008 22:24:03 4.7 C 6.33 g/m*3 4.7 C 0 km/h
353 04-12-2008 22:36:03 4.8 C 6.37 g/m*3 4.8 C 0 km/h
354 04-12-2008 22:48:03 4.5 C 6.18 g/m*3 4.5 C 0 km/h
355 04-12-2008 23:00:03 4.6 C 6.22 g/m*3 4.6 C 0 km/h
356 04-12-2008 23:12:03 5 C 6.39 g/m*3 5 C 0 km/h
357 04-12-2008 23:24:03 5 C 6.39 g/m*3 5 C 0 km/h
358 04-12-2008 23:36:04 5 C 6.32 g/m*3 5 C 0 km/h
359 04-12-2008 23:48:04 5 C 6.32 g/m*3 5 C 0 km/h
360 05-12-2008 00:00:04 5 C 6.25 g/m*3 5 C 0 km/h
361 05-12-2008 00:12:04 5 C 6.25 g/m*3 5 C 0 km/h
362 05-12-2008 00:24:04 5 C 6.18 g/m*3 5 C 0 km/h
363 05-12-2008 00:36:04 5 C 6.18 g/m*3 5 C 0 km/h
364 05-12-2008 00:48:04 4.9 C 6.21 g/m*3 4.9 C 0 km/h
365 05-12-2008 01:00:04 4.8 C 6.17 g/m*3 4.8 C 0 km/h
366 05-12-2008 01:12:04 4.8 C 6.17 g/m*3 4.8 C 0 km/h
367 05-12-2008 01:24:04 4.4 C 6.01 g/m*3 4.4 C 0 km/h
368 05-12-2008 01:36:04 4.4 C 6.01 g/m*3 4.4 C 0 km/h
369 05-12-2008 01:48:04 4.6 C 6.15 g/m*3 4.6 C 0 km/h
370 05-12-2008 02:00:04 4.7 C 6.19 g/m*3 4.7 C 0 km/h
371 05-12-2008 02:12:04 4.7 C 6.26 g/m*3 4.7 C 0 km/h
372 05-12-2008 02:24:04 4.9 C 6.35 g/m*3 4.9 C 0 km/h
373 05-12-2008 02:36:04 5 C 6.32 g/m*3 5 C 0 km/h
374 05-12-2008 02:48:04 5.2 C 6.4 g/m*3 5.2 C 0 km/h
375 05-12-2008 03:00:04 4.7 C 6.19 g/m*3 4.7 C 0 km/h
Sensor: Nr:Datum:Temp:Abs-Feuchte:Windchill:Wind:
Aussen-T/F 376 05-12-2008 03:12:04 4.8 C 6.24 g/m*3 4.8 C 0 km/h
377 05-12-2008 03:24:04 5 C 6.32 g/m*3 5 C 0 km/h
378 05-12-2008 03:36:04 5.4 C 6.42 g/m*3 5.4 C 0 km/h
379 05-12-2008 03:48:05 5.5 C 6.39 g/m*3 5.5 C 0 km/h
380 05-12-2008 04:00:05 5.5 C 6.32 g/m*3 5.5 C 0 km/h
381 05-12-2008 04:12:05 5.2 C 6.13 g/m*3 5.2 C 0 km/h
382 05-12-2008 04:24:05 5.2 C 6.13 g/m*3 5.2 C 0 km/h
383 05-12-2008 04:36:05 4.9 C 6.08 g/m*3 4.9 C 0 km/h
384 05-12-2008 04:48:05 4.6 C 5.96 g/m*3 4.6 C 0 km/h
385 05-12-2008 05:00:05 4.4 C 5.94 g/m*3 4.4 C 0 km/h
386 05-12-2008 05:12:05 4.4 C 5.94 g/m*3 4.4 C 0 km/h
387 05-12-2008 05:24:05 4.3 C 5.9 g/m*3 4.3 C 0 km/h
388 05-12-2008 05:36:05 4.3 C 5.97 g/m*3 4.3 C 0 km/h
389 05-12-2008 05:48:05 4.4 C 6.01 g/m*3 4.4 C 0 km/h
390 05-12-2008 06:00:05 4.5 C 6.05 g/m*3 4.5 C 0 km/h
391 05-12-2008 06:12:05 4.6 C 6.09 g/m*3 4.6 C 0 km/h
392 05-12-2008 06:24:05 4.6 C 6.15 g/m*3 4.6 C 0 km/h
393 05-12-2008 06:36:04 4.5 C 6.11 g/m*3 4.5 C 0 km/h
394 05-12-2008 06:48:03 4.4 C 6.07 g/m*3 4.4 C 0 km/h
395 05-12-2008 07:00:03 4.4 C 6.07 g/m*3 4.4 C 0 km/h
396 05-12-2008 07:12:02 4.4 C 6.07 g/m*3 4.4 C 0 km/h
397 05-12-2008 07:24:03 4.3 C 6.03 g/m*3 4.3 C 0 km/h
398 05-12-2008 07:36:02 4.1 C 5.95 g/m*3 4.1 C 0 km/h
399 05-12-2008 07:48:02 4.1 C 5.95 g/m*3 4.1 C 0 km/h
400 05-12-2008 08:00:02 4.2 C 5.99 g/m*3 4.2 C 0 km/h
Sensor: Nr:Datum:Temp:Abs-Feuchte:Windchill:Wind:
Aussen-T/F 401 05-12-2008 08:12:02 4.3 C 6.03 g/m*3 4.3 C 0 km/h
402 05-12-2008 08:24:02 4.4 C 6.07 g/m*3 4.4 C 0 km/h
403 05-12-2008 08:36:02 4.3 C 6.03 g/m*3 4.3 C 0 km/h
404 05-12-2008 08:48:01 4.4 C 6.07 g/m*3 4.4 C 0 km/h
405 05-12-2008 09:00:01 4.5 C 6.11 g/m*3 4.5 C 0 km/h
406 05-12-2008 09:12:02 4.6 C 6.15 g/m*3 4.6 C 0 km/h
407 05-12-2008 09:24:01 5 C 6.18 g/m*3 5 C 0 km/h
408 05-12-2008 09:36:02 5.2 C 6.2 g/m*3 5.2 C 0 km/h
409 05-12-2008 09:48:02 5.3 C 6.17 g/m*3 5.3 C 0 km/h
410 05-12-2008 10:00:02 5.6 C 6.22 g/m*3 5.6 C 0 km/h
411 05-12-2008 10:12:02 5.7 C 6.26 g/m*3 5.7 C 0 km/h
412 05-12-2008 10:24:02 6 C 6.17 g/m*3 6 C 0 km/h
413 05-12-2008 10:36:02 6.2 C 6.03 g/m*3 6.2 C 0 km/h
414 05-12-2008 10:48:02 6.3 C 6 g/m*3 6.3 C 0 km/h
415 05-12-2008 11:00:02 6.5 C 5.85 g/m*3 6.5 C 0 km/h
416 05-12-2008 11:12:02 6.5 C 5.85 g/m*3 6.5 C 0 km/h
417 05-12-2008 11:24:02 6.5 C 5.85 g/m*3 6.5 C 0 km/h
418 05-12-2008 11:36:02 6.3 C 5.85 g/m*3 6.3 C 0 km/h
419 05-12-2008 11:48:01 6.1 C 5.84 g/m*3 6.1 C 0 km/h
420 05-12-2008 12:00:01 5.8 C 5.8 g/m*3 5.8 C 0 km/h
421 05-12-2008 12:12:02 5.7 C 5.84 g/m*3 5.7 C 0 km/h
422 05-12-2008 12:24:01 5.7 C 5.69 g/m*3 5.7 C 0 km/h
423 05-12-2008 12:36:02 6 C 5.66 g/m*3 6 C 0 km/h
424 05-12-2008 12:48:02 6.3 C 5.63 g/m*3 6.3 C 0 km/h
425 05-12-2008 13:00:02 6.5 C 5.62 g/m*3 6.5 C 0 km/h
Sensor: Nr:Datum:Temp:Abs-Feuchte:Windchill:Wind:
Aussen-T/F 426 05-12-2008 13:12:02 6.9 C 5.7 g/m*3 6.9 C 0 km/h
427 05-12-2008 13:24:02 7 C 5.58 g/m*3 7 C 0 km/h
428 05-12-2008 13:36:02 7.1 C 5.54 g/m*3 7.1 C 0 km/h
429 05-12-2008 13:48:02 7.1 C 5.46 g/m*3 7.1 C 0 km/h
430 05-12-2008 14:00:02 7.5 C 5.6 g/m*3 7.5 C 0 km/h
431 05-12-2008 14:12:02 7.5 C 5.44 g/m*3 7.5 C 0 km/h
432 05-12-2008 14:24:02 7.4 C 5.49 g/m*3 7.4 C 0 km/h
433 05-12-2008 14:36:02 7.4 C 5.49 g/m*3 7.4 C 0 km/h
434 05-12-2008 14:48:01 7.3 C 5.53 g/m*3 7.3 C 0 km/h
435 05-12-2008 15:00:01 7.4 C 5.57 g/m*3 7.4 C 0 km/h
436 05-12-2008 15:12:02 7.2 C 5.49 g/m*3 7.2 C 0 km/h
437 05-12-2008 15:24:01 7.3 C 5.53 g/m*3 7.3 C 0 km/h
438 05-12-2008 15:36:02 7.5 C 5.6 g/m*3 7.5 C 0 km/h
439 05-12-2008 15:48:02 7.4 C 5.49 g/m*3 7.4 C 0 km/h
440 05-12-2008 16:00:03 7.2 C 5.42 g/m*3 7.2 C 0 km/h
441 05-12-2008 16:12:02 7.1 C 5.46 g/m*3 7.1 C 0 km/h
442 05-12-2008 16:24:02 6.7 C 5.55 g/m*3 6.7 C 0 km/h
443 05-12-2008 16:36:02 6.4 C 5.59 g/m*3 6.4 C 0 km/h
444 05-12-2008 16:48:02 6.3 C 5.7 g/m*3 6.3 C 0 km/h
445 05-12-2008 17:00:02 5.9 C 5.7 g/m*3 5.9 C 0 km/h
446 05-12-2008 17:12:02 5.6 C 5.8 g/m*3 5.6 C 0 km/h
447 05-12-2008 17:24:02 5.5 C 5.97 g/m*3 5.5 C 0 km/h
448 05-12-2008 17:36:02 5.2 C 5.99 g/m*3 5.2 C 0 km/h
449 05-12-2008 17:48:03 5 C 5.98 g/m*3 5 C 0 km/h
450 05-12-2008 18:00:03 4.9 C 6.01 g/m*3 4.9 C 0 km/h
Sensor: Nr:Datum:Temp:Abs-Feuchte:Windchill:Wind:
Aussen-T/F 451 05-12-2008 18:12:06 4.8 C 6.04 g/m*3 4.8 C 0 km/h
452 05-12-2008 18:24:03 4.7 C 6.06 g/m*3 4.7 C 0 km/h
453 05-12-2008 18:36:06 4.6 C 6.09 g/m*3 4.6 C 0 km/h
454 05-12-2008 18:48:16 4.8 C 6.24 g/m*3 4.8 C 0 km/h
455 05-12-2008 19:00:16 5 C 6.25 g/m*3 5 C 0 km/h
456 05-12-2008 19:12:02 5 C 6.25 g/m*3 5 C 0 km/h
457 05-12-2008 19:24:02 5 C 6.25 g/m*3 5 C 0 km/h
458 05-12-2008 19:36:04 5 C 6.25 g/m*3 5 C 0 km/h
459 05-12-2008 19:48:03 5 C 6.25 g/m*3 5 C 0 km/h
460 05-12-2008 20:00:03 5 C 6.25 g/m*3 5 C 0 km/h
461 05-12-2008 20:12:03 4.7 C 6.06 g/m*3 4.7 C 0 km/h
462 05-12-2008 20:24:03 4.7 C 6.06 g/m*3 4.7 C 0 km/h
463 05-12-2008 20:36:02 4.8 C 6.1 g/m*3 4.8 C 0 km/h
464 05-12-2008 20:48:02 5 C 6.05 g/m*3 5 C 0 km/h
465 05-12-2008 21:00:03 5.1 C 6.09 g/m*3 5.1 C 0 km/h
466 05-12-2008 21:12:02 5.2 C 6.06 g/m*3 5.2 C 0 km/h
467 05-12-2008 21:24:02 5.1 C 6.02 g/m*3 5.1 C 0 km/h
468 05-12-2008 21:36:02 5 C 5.98 g/m*3 5 C 0 km/h
469 05-12-2008 21:48:02 4.9 C 6.01 g/m*3 4.9 C 0 km/h
470 05-12-2008 22:00:02 4.9 C 6.01 g/m*3 4.9 C 0 km/h
471 05-12-2008 22:12:02 4.9 C 6.08 g/m*3 4.9 C 0 km/h
472 05-12-2008 22:24:02 4.8 C 6.04 g/m*3 4.8 C 0 km/h
473 05-12-2008 22:37:02 4.9 C 6.14 g/m*3 4.9 C 0 km/h
474 05-12-2008 22:49:02 4.9 C 6.14 g/m*3 4.9 C 0 km/h
475 05-12-2008 23:01:02 5 C 6.12 g/m*3 5 C 0 km/h
Sensor: Nr:Datum:Temp:Abs-Feuchte:Windchill:Wind:
Aussen-T/F 476 05-12-2008 23:13:02 4.9 C 6.14 g/m*3 4.9 C 0 km/h
477 05-12-2008 23:25:02 4.9 C 6.14 g/m*3 4.9 C 0 km/h
478 05-12-2008 23:37:02 5 C 6.12 g/m*3 5 C 0 km/h
479 05-12-2008 23:49:02 5 C 6.05 g/m*3 5 C 0 km/h
480 06-12-2008 00:01:02 4.8 C 5.97 g/m*3 4.8 C 0 km/h
481 06-12-2008 00:13:02 4.6 C 5.89 g/m*3 4.6 C 0 km/h
482 06-12-2008 00:25:02 4.6 C 5.96 g/m*3 4.6 C 0 km/h
483 06-12-2008 00:37:02 4.6 C 6.02 g/m*3 4.6 C 0 km/h
484 06-12-2008 00:49:02 4.5 C 5.98 g/m*3 4.5 C 0 km/h
485 06-12-2008 01:01:02 4.4 C 5.88 g/m*3 4.4 C 0 km/h
486 06-12-2008 01:13:02 4.2 C 5.8 g/m*3 4.2 C 0 km/h
487 06-12-2008 01:25:02 4.1 C 5.76 g/m*3 4.1 C 0 km/h
488 06-12-2008 01:37:02 4 C 5.66 g/m*3 4 C 0 km/h
489 06-12-2008 01:49:02 4 C 5.72 g/m*3 4 C 0 km/h
490 06-12-2008 02:01:02 4.1 C 5.76 g/m*3 4.1 C 0 km/h
491 06-12-2008 02:13:02 4.1 C 5.76 g/m*3 4.1 C 0 km/h
492 06-12-2008 02:25:03 4.3 C 5.77 g/m*3 4.3 C 0 km/h
493 06-12-2008 02:37:03 4.4 C 5.75 g/m*3 4.4 C 0 km/h
494 06-12-2008 02:49:03 4.5 C 5.65 g/m*3 4.5 C 0 km/h
495 06-12-2008 03:01:03 4.6 C 5.62 g/m*3 4.6 C 0 km/h
496 06-12-2008 03:13:03 4.4 C 5.48 g/m*3 4.4 C 0 km/h
497 06-12-2008 03:25:03 4.2 C 5.48 g/m*3 4.2 C 0 km/h
498 06-12-2008 03:37:03 4.4 C 5.62 g/m*3 4.4 C 0 km/h
499 06-12-2008 03:49:03 4.5 C 5.59 g/m*3 4.5 C 0 km/h
500 06-12-2008 04:01:03 4.5 C 5.65 g/m*3 4.5 C 0 km/h
Sensor: Nr:Datum:Temp:Abs-Feuchte:Windchill:Wind:
Aussen-T/F 501 06-12-2008 04:13:03 4.5 C 5.65 g/m*3 4.5 C 0 km/h
502 06-12-2008 04:25:03 4.5 C 5.72 g/m*3 4.5 C 0 km/h
503 06-12-2008 04:37:03 4.6 C 5.69 g/m*3 4.6 C 0 km/h
504 06-12-2008 04:49:03 4.7 C 5.73 g/m*3 4.7 C 0 km/h
505 06-12-2008 05:01:03 4.7 C 5.66 g/m*3 4.7 C 0 km/h
506 06-12-2008 05:13:03 4.7 C 5.66 g/m*3 4.7 C 0 km/h
507 06-12-2008 05:25:03 4.6 C 5.62 g/m*3 4.6 C 0 km/h
508 06-12-2008 05:37:03 4.5 C 5.59 g/m*3 4.5 C 0 km/h
509 06-12-2008 05:49:03 4.8 C 5.63 g/m*3 4.8 C 0 km/h
510 06-12-2008 06:01:03 4.7 C 5.6 g/m*3 4.7 C 0 km/h
511 06-12-2008 06:13:03 4.8 C 5.63 g/m*3 4.8 C 0 km/h
512 06-12-2008 06:25:03 5 C 5.64 g/m*3 5 C 0 km/h
513 06-12-2008 06:37:04 4.8 C 5.63 g/m*3 4.8 C 0 km/h
514 06-12-2008 06:49:04 4.8 C 5.63 g/m*3 4.8 C 0 km/h
515 06-12-2008 07:01:04 4.8 C 5.63 g/m*3 4.8 C 0 km/h
516 06-12-2008 07:13:04 4.7 C 5.66 g/m*3 4.7 C 0 km/h
517 06-12-2008 07:25:04 4.8 C 5.7 g/m*3 4.8 C 0 km/h
518 06-12-2008 07:37:04 4.7 C 5.73 g/m*3 4.7 C 0 km/h
519 06-12-2008 07:49:04 4.6 C 5.69 g/m*3 4.6 C 0 km/h
520 06-12-2008 08:01:04 4.6 C 5.82 g/m*3 4.6 C 0 km/h
521 06-12-2008 08:13:04 4.5 C 5.78 g/m*3 4.5 C 0 km/h
522 06-12-2008 08:25:02 4.4 C 5.81 g/m*3 4.4 C 0 km/h
523 06-12-2008 08:37:02 4.4 C 5.88 g/m*3 4.4 C 0 km/h
524 06-12-2008 08:49:02 4.4 C 5.94 g/m*3 4.4 C 0 km/h
525 06-12-2008 09:01:37 4.5 C 5.98 g/m*3 4.5 C 0 km/h
Sensor: Nr:Datum:Temp:Abs-Feuchte:Windchill:Wind:
Aussen-T/F 526 06-12-2008 09:13:37 4.5 C 5.98 g/m*3 4.5 C 0 km/h
527 06-12-2008 09:25:37 4.5 C 5.98 g/m*3 4.5 C 0 km/h
528 06-12-2008 09:37:37 4.6 C 6.02 g/m*3 4.6 C 0 km/h
529 06-12-2008 09:49:37 4.6 C 6.02 g/m*3 4.6 C 0 km/h
530 06-12-2008 10:01:37 4.8 C 6.1 g/m*3 4.8 C 0 km/h
531 06-12-2008 10:13:37 5 C 6.12 g/m*3 5 C 0 km/h
532 06-12-2008 10:25:37 5.3 C 6.17 g/m*3 5.3 C 0 km/h
533 06-12-2008 10:37:37 5.4 C 6.07 g/m*3 5.4 C 0 km/h
534 06-12-2008 10:49:37 5.4 C 5.93 g/m*3 5.4 C 0 km/h
535 06-12-2008 11:01:37 5.4 C 5.79 g/m*3 5.4 C 0 km/h
536 06-12-2008 11:13:37 5.5 C 5.76 g/m*3 5.5 C 0 km/h
537 06-12-2008 11:25:38 5.7 C 5.84 g/m*3 5.7 C 0 km/h
538 06-12-2008 11:37:38 5.9 C 5.84 g/m*3 5.9 C 0 km/h
539 06-12-2008 11:49:38 6 C 5.66 g/m*3 6 C 0 km/h
540 06-12-2008 12:01:38 5.9 C 5.7 g/m*3 5.9 C 0 km/h
541 06-12-2008 12:13:38 5.7 C 5.62 g/m*3 5.7 C 0 km/h
542 06-12-2008 12:25:38 5.7 C 5.62 g/m*3 5.7 C 0 km/h
543 06-12-2008 12:37:38 5.5 C 5.62 g/m*3 5.5 C 0 km/h
544 06-12-2008 12:49:38 5.3 C 5.61 g/m*3 5.3 C 0 km/h
545 06-12-2008 13:01:38 5.2 C 5.71 g/m*3 5.2 C 0 km/h
546 06-12-2008 13:13:38 5.2 C 5.85 g/m*3 5.2 C 0 km/h
547 06-12-2008 13:25:38 5.1 C 5.75 g/m*3 5.1 C 0 km/h
548 06-12-2008 13:37:38 4.9 C 5.87 g/m*3 4.9 C 0 km/h
549 06-12-2008 13:49:38 4.9 C 5.94 g/m*3 4.9 C 0 km/h
550 06-12-2008 14:01:38 4.9 C 5.87 g/m*3 4.9 C 0 km/h
Sensor: Nr:Datum:Temp:Abs-Feuchte:Windchill:Wind:
Aussen-T/F 551 06-12-2008 14:13:38 5.1 C 5.95 g/m*3 5.1 C 0 km/h
552 06-12-2008 14:25:38 5.2 C 5.92 g/m*3 5.2 C 0 km/h
553 06-12-2008 14:37:38 5.3 C 5.96 g/m*3 5.3 C 0 km/h
554 06-12-2008 14:49:38 5.3 C 5.89 g/m*3 5.3 C 0 km/h
555 06-12-2008 15:01:01 5.3 C 5.89 g/m*3 5.3 C 0 km/h
556 06-12-2008 15:13:01 5.2 C 5.85 g/m*3 5.2 C 0 km/h
557 06-12-2008 15:25:02 5.2 C 5.92 g/m*3 5.2 C 0 km/h
558 06-12-2008 15:37:03 5.2 C 5.92 g/m*3 5.2 C 0 km/h
559 06-12-2008 15:49:02 5.2 C 5.92 g/m*3 5.2 C 0 km/h
560 06-12-2008 16:01:08 5 C 5.84 g/m*3 5 C 0 km/h
561 06-12-2008 16:13:08 5 C 5.91 g/m*3 5 C 0 km/h
562 06-12-2008 16:25:02 5 C 5.98 g/m*3 5 C 0 km/h
563 06-12-2008 16:37:01 5 C 5.98 g/m*3 5 C 0 km/h
564 06-12-2008 16:49:02 5 C 5.98 g/m*3 5 C 0 km/h
565 06-12-2008 17:01:01 5 C 6.05 g/m*3 5 C 0 km/h
566 06-12-2008 17:13:01 5 C 6.05 g/m*3 5 C 0 km/h
567 06-12-2008 17:25:01 5 C 6.05 g/m*3 5 C 0 km/h
568 06-12-2008 17:37:01 5 C 6.12 g/m*3 5 C 0 km/h
569 06-12-2008 17:49:01 5 C 6.12 g/m*3 5 C 0 km/h
570 06-12-2008 18:01:00 5 C 6.12 g/m*3 5 C 0 km/h
571 06-12-2008 18:13:00 4.9 C 6.14 g/m*3 4.9 C 0 km/h
572 06-12-2008 18:25:00 4.9 C 6.21 g/m*3 4.9 C 0 km/h
573 06-12-2008 18:37:01 4.9 C 6.21 g/m*3 4.9 C 0 km/h
574 06-12-2008 18:49:01 4.8 C 6.17 g/m*3 4.8 C 0 km/h
575 06-12-2008 19:01:00 4.7 C 6.13 g/m*3 4.7 C 0 km/h
Sensor: Nr:Datum:Temp:Abs-Feuchte:Windchill:Wind:
Aussen-T/F 576 06-12-2008 19:13:00 4.5 C 6.05 g/m*3 4.5 C 0 km/h
577 06-12-2008 19:25:00 4.3 C 6.03 g/m*3 4.3 C 0 km/h
578 06-12-2008 19:37:00 4 C 5.85 g/m*3 4 C 0 km/h
579 06-12-2008 19:49:00 4 C 5.85 g/m*3 4 C 0 km/h
580 06-12-2008 20:01:00 4.3 C 6.03 g/m*3 4.3 C 0 km/h
581 06-12-2008 20:13:00 4.4 C 6.14 g/m*3 4.4 C 0 km/h
582 06-12-2008 20:25:59 4.4 C 6.14 g/m*3 4.4 C 0 km/h
583 06-12-2008 20:37:00 4.4 C 6.14 g/m*3 4.4 C 0 km/h
584 06-12-2008 20:49:59 4.1 C 6.02 g/m*3 4.1 C 0 km/h
585 06-12-2008 21:01:59 3.9 C 6 g/m*3 3.9 C 0 km/h
586 06-12-2008 21:13:59 4 C 5.98 g/m*3 4 C 0 km/h
587 06-12-2008 21:25:59 4.1 C 6.08 g/m*3 4.1 C 0 km/h
588 06-12-2008 21:37:59 4.2 C 6.12 g/m*3 4.2 C 0 km/h
589 06-12-2008 21:49:58 4.3 C 6.16 g/m*3 4.3 C 0 km/h
590 06-12-2008 22:01:58 4.3 C 6.16 g/m*3 4.3 C 0 km/h
591 06-12-2008 22:13:58 4.4 C 6.2 g/m*3 4.4 C 0 km/h
592 06-12-2008 22:25:58 4.4 C 6.2 g/m*3 4.4 C 0 km/h
593 06-12-2008 22:37:58 4.4 C 6.2 g/m*3 4.4 C 0 km/h
594 06-12-2008 22:49:58 4.4 C 6.2 g/m*3 4.4 C 0 km/h
595 06-12-2008 23:02:58 4.4 C 6.2 g/m*3 4.4 C 0 km/h
596 06-12-2008 23:14:58 4.4 C 6.2 g/m*3 4.4 C 0 km/h
597 06-12-2008 23:26:58 4.4 C 6.2 g/m*3 4.4 C 0 km/h
598 06-12-2008 23:38:58 4.3 C 6.16 g/m*3 4.3 C 0 km/h
599 06-12-2008 23:50:58 4.3 C 6.16 g/m*3 4.3 C 0 km/h
600 07-12-2008 00:02:58 4.4 C 6.2 g/m*3 4.4 C 0 km/h
Sensor: Nr:Datum:Temp:Abs-Feuchte:Windchill:Wind:
Aussen-T/F 601 07-12-2008 00:14:58 4.4 C 6.2 g/m*3 4.4 C 0 km/h
602 07-12-2008 00:26:59 4.4 C 6.2 g/m*3 4.4 C 0 km/h
603 07-12-2008 00:38:59 4.4 C 6.2 g/m*3 4.4 C 0 km/h
604 07-12-2008 00:50:59 4.4 C 6.2 g/m*3 4.4 C 0 km/h
605 07-12-2008 01:02:59 4.5 C 6.24 g/m*3 4.5 C 0 km/h
606 07-12-2008 01:14:59 4.5 C 6.24 g/m*3 4.5 C 0 km/h
607 07-12-2008 01:26:59 4.5 C 6.24 g/m*3 4.5 C 0 km/h
608 07-12-2008 01:38:59 4.5 C 6.24 g/m*3 4.5 C 0 km/h
609 07-12-2008 01:50:59 4.5 C 6.24 g/m*3 4.5 C 0 km/h
610 07-12-2008 02:02:59 4.4 C 6.2 g/m*3 4.4 C 0 km/h
611 07-12-2008 02:14:59 4.4 C 6.2 g/m*3 4.4 C 0 km/h
612 07-12-2008 02:26:59 4.4 C 6.2 g/m*3 4.4 C 0 km/h
613 07-12-2008 02:38:59 4.4 C 6.2 g/m*3 4.4 C 0 km/h
614 07-12-2008 02:50:59 4.4 C 6.14 g/m*3 4.4 C 0 km/h
615 07-12-2008 03:02:59 4.4 C 6.14 g/m*3 4.4 C 0 km/h
616 07-12-2008 03:14:59 4.4 C 6.07 g/m*3 4.4 C 0 km/h
617 07-12-2008 03:26:59 4.3 C 6.03 g/m*3 4.3 C 0 km/h
618 07-12-2008 03:38:59 4.2 C 5.93 g/m*3 4.2 C 0 km/h
619 07-12-2008 03:50:59 4.1 C 5.95 g/m*3 4.1 C 0 km/h
620 07-12-2008 04:13:59 4.1 C 5.95 g/m*3 4.1 C 0 km/h
621 07-12-2008 04:26:00 4.1 C 6.02 g/m*3 4.1 C 0 km/h
622 07-12-2008 04:38:00 4.1 C 6.02 g/m*3 4.1 C 0 km/h
623 07-12-2008 04:50:00 4.2 C 6.06 g/m*3 4.2 C 0 km/h
624 07-12-2008 05:02:00 4.2 C 6.12 g/m*3 4.2 C 0 km/h
625 07-12-2008 05:14:00 4.2 C 6.12 g/m*3 4.2 C 0 km/h
Sensor: Nr:Datum:Temp:Abs-Feuchte:Windchill:Wind:
Aussen-T/F 626 07-12-2008 05:26:00 4.3 C 6.16 g/m*3 4.3 C 0 km/h
627 07-12-2008 05:38:00 4.3 C 6.16 g/m*3 4.3 C 0 km/h
628 07-12-2008 05:50:00 4.4 C 6.2 g/m*3 4.4 C 0 km/h
629 07-12-2008 06:02:00 4.4 C 6.2 g/m*3 4.4 C 0 km/h
630 07-12-2008 06:14:00 4.4 C 6.2 g/m*3 4.4 C 0 km/h
631 07-12-2008 06:26:00 4.3 C 6.16 g/m*3 4.3 C 0 km/h
632 07-12-2008 06:38:00 4.4 C 6.2 g/m*3 4.4 C 0 km/h
633 07-12-2008 06:50:00 4.4 C 6.2 g/m*3 4.4 C 0 km/h
634 07-12-2008 07:02:00 4.4 C 6.2 g/m*3 4.4 C 0 km/h
635 07-12-2008 07:14:00 4.4 C 6.2 g/m*3 4.4 C 0 km/h
636 07-12-2008 07:26:00 4.5 C 6.24 g/m*3 4.5 C 0 km/h
637 07-12-2008 07:38:00 4.5 C 6.24 g/m*3 4.5 C 0 km/h
638 07-12-2008 07:50:00 4.6 C 6.29 g/m*3 4.6 C 0 km/h
639 07-12-2008 08:02:00 4.6 C 6.29 g/m*3 4.6 C 0 km/h
640 07-12-2008 08:14:00 4.6 C 6.29 g/m*3 4.6 C 0 km/h
641 07-12-2008 08:14:02 4.7 C 6.33 g/m*3 4.7 C 0 km/h
642 07-12-2008 08:26:02 4.7 C 6.33 g/m*3 4.7 C 0 km/h
643 07-12-2008 08:38:03 4.7 C 6.33 g/m*3 4.7 C 0 km/h
644 07-12-2008 08:50:02 4.7 C 6.33 g/m*3 4.7 C 0 km/h
645 07-12-2008 09:02:03 4.8 C 6.3 g/m*3 4.8 C 0 km/h
646 07-12-2008 09:14:03 4.8 C 6.3 g/m*3 4.8 C 0 km/h
647 07-12-2008 09:26:02 4.8 C 6.3 g/m*3 4.8 C 0 km/h
648 07-12-2008 09:38:02 4.8 C 6.3 g/m*3 4.8 C 0 km/h
649 07-12-2008 09:50:01 4.8 C 6.3 g/m*3 4.8 C 0 km/h
650 07-12-2008 10:02:02 4.8 C 6.3 g/m*3 4.8 C 0 km/h
Sensor: Nr:Datum:Temp:Abs-Feuchte:Windchill:Wind:
Aussen-T/F 651 07-12-2008 10:14:02 4.8 C 6.3 g/m*3 4.8 C 0 km/h
652 07-12-2008 10:26:02 4.8 C 6.3 g/m*3 4.8 C 0 km/h
653 07-12-2008 10:38:01 4.8 C 6.3 g/m*3 4.8 C 0 km/h
654 07-12-2008 10:50:01 5 C 6.32 g/m*3 5 C 0 km/h
655 07-12-2008 11:02:01 5 C 6.32 g/m*3 5 C 0 km/h
656 07-12-2008 11:14:01 5.1 C 6.36 g/m*3 5.1 C 0 km/h
657 07-12-2008 11:26:01 5.3 C 6.45 g/m*3 5.3 C 0 km/h
658 07-12-2008 11:38:01 5.3 C 6.45 g/m*3 5.3 C 0 km/h
659 07-12-2008 11:50:01 5.7 C 6.62 g/m*3 5.7 C 0 km/h
660 07-12-2008 12:02:01 5.6 C 6.43 g/m*3 5.6 C 0 km/h
661 07-12-2008 12:14:01 5.8 C 6.38 g/m*3 5.8 C 0 km/h
662 07-12-2008 12:26:00 5.7 C 6.26 g/m*3 5.7 C 0 km/h
663 07-12-2008 12:38:01 5.9 C 6.2 g/m*3 5.9 C 0 km/h
664 07-12-2008 12:50:00 6.1 C 6.14 g/m*3 6.1 C 0 km/h
665 07-12-2008 13:02:00 6.1 C 6.06 g/m*3 6.1 C 0 km/h
666 07-12-2008 13:14:00 6 C 6.02 g/m*3 6 C 0 km/h
667 07-12-2008 13:26:00 6 C 6.02 g/m*3 6 C 0 km/h
668 07-12-2008 13:38:01 5.8 C 6.09 g/m*3 5.8 C 0 km/h
669 07-12-2008 13:50:00 6 C 6.02 g/m*3 6 C 0 km/h
670 07-12-2008 14:02:00 5.7 C 5.91 g/m*3 5.7 C 0 km/h
671 07-12-2008 14:14:00 5.6 C 5.94 g/m*3 5.6 C 0 km/h
672 07-12-2008 14:26:00 5.7 C 5.98 g/m*3 5.7 C 0 km/h
673 07-12-2008 14:38:00 5.8 C 5.8 g/m*3 5.8 C 0 km/h
674 07-12-2008 14:50:59 5.8 C 5.73 g/m*3 5.8 C 0 km/h
675 07-12-2008 15:02:00 5.9 C 5.7 g/m*3 5.9 C 0 km/h
Sensor: Nr:Datum:Temp:Abs-Feuchte:Windchill:Wind:
Aussen-T/F 676 07-12-2008 15:14:00 5.8 C 5.66 g/m*3 5.8 C 0 km/h
677 07-12-2008 15:26:59 5.8 C 5.66 g/m*3 5.8 C 0 km/h
678 07-12-2008 15:38:59 5.4 C 5.58 g/m*3 5.4 C 0 km/h
679 07-12-2008 15:50:00 5 C 5.5 g/m*3 5 C 0 km/h
680 07-12-2008 16:02:59 4.7 C 5.6 g/m*3 4.7 C 0 km/h
681 07-12-2008 16:14:59 4.3 C 5.51 g/m*3 4.3 C 0 km/h
682 07-12-2008 16:26:59 4.1 C 5.5 g/m*3 4.1 C 0 km/h
683 07-12-2008 16:38:59 3.7 C 5.42 g/m*3 3.7 C 0 km/h
684 07-12-2008 16:50:59 3.5 C 5.41 g/m*3 3.5 C 0 km/h
685 07-12-2008 17:02:58 3.3 C 5.34 g/m*3 3.3 C 0 km/h
686 07-12-2008 17:14:59 3.1 C 5.33 g/m*3 3.1 C 0 km/h
687 07-12-2008 17:26:59 2.9 C 5.32 g/m*3 2.9 C 0 km/h
688 07-12-2008 17:38:59 2.8 C 5.28 g/m*3 2.8 C 0 km/h
689 07-12-2008 17:50:58 2.5 C 5.17 g/m*3 2.5 C 0 km/h
690 07-12-2008 18:02:59 2.4 C 5.14 g/m*3 2.4 C 0 km/h
691 07-12-2008 18:14:58 2.3 C 5.16 g/m*3 2.3 C 0 km/h
692 07-12-2008 18:26:59 2.3 C 5.16 g/m*3 2.3 C 0 km/h
693 07-12-2008 18:38:58 2.1 C 5.15 g/m*3 2.1 C 0 km/h
694 07-12-2008 18:50:58 1.9 C 5.08 g/m*3 1.9 C 0 km/h
695 07-12-2008 19:02:58 1.8 C 5.04 g/m*3 1.8 C 0 km/h
696 07-12-2008 19:14:58 1.8 C 5.1 g/m*3 1.8 C 0 km/h
697 07-12-2008 19:26:58 1.7 C 5.06 g/m*3 1.7 C 0 km/h
698 07-12-2008 19:38:59 1.6 C 5.03 g/m*3 1.6 C 0 km/h
699 07-12-2008 19:50:58 1.6 C 5.03 g/m*3 1.6 C 0 km/h
700 07-12-2008 20:02:57 1.4 C 4.96 g/m*3 1.4 C 0 km/h
Sensor: Nr:Datum:Temp:Abs-Feuchte:Windchill:Wind:
Aussen-T/F 701 07-12-2008 20:14:57 1.4 C 4.96 g/m*3 1.4 C 0 km/h
702 07-12-2008 20:26:57 1.2 C 4.89 g/m*3 1.2 C 0 km/h
703 07-12-2008 20:37:59 1.7 C 5.12 g/m*3 1.7 C 0 km/h
704 07-12-2008 20:50:58 1.8 C 5.15 g/m*3 1.8 C 0 km/h
705 07-12-2008 21:02:57 1.7 C 5.12 g/m*3 1.7 C 0 km/h
706 07-12-2008 21:14:57 1.5 C 5.05 g/m*3 1.5 C 0 km/h
707 07-12-2008 21:26:58 1.3 C 4.98 g/m*3 1.3 C 0 km/h
708 07-12-2008 21:38:57 1.2 C 4.95 g/m*3 1.2 C 0 km/h
709 07-12-2008 21:50:57 0.8 C 4.86 g/m*3 0.8 C 0 km/h
710 07-12-2008 22:02:56 0.7 C 4.83 g/m*3 0.7 C 0 km/h
711 07-12-2008 22:14:57 0.5 C 4.76 g/m*3 0.5 C 0 km/h
712 07-12-2008 22:26:57 0.5 C 4.76 g/m*3 0.5 C 0 km/h
713 07-12-2008 22:38:57 0.5 C 4.76 g/m*3 0.5 C 0 km/h
714 07-12-2008 22:50:57 0.5 C 4.76 g/m*3 0.5 C 0 km/h
715 07-12-2008 23:03:57 0.8 C 4.86 g/m*3 0.8 C 0 km/h
716 07-12-2008 23:15:57 0.8 C 4.86 g/m*3 0.8 C 0 km/h
717 07-12-2008 23:27:57 0.5 C 4.76 g/m*3 0.5 C 0 km/h
718 07-12-2008 23:39:57 0.5 C 4.76 g/m*3 0.5 C 0 km/h
719 07-12-2008 23:51:57 0.5 C 4.76 g/m*3 0.5 C 0 km/h
720 08-12-2008 00:03:57 0.4 C 4.73 g/m*3 0.4 C 0 km/h
721 08-12-2008 00:15:57 0.4 C 4.73 g/m*3 0.4 C 0 km/h
722 08-12-2008 00:27:57 0.3 C 4.7 g/m*3 0.3 C 0 km/h
723 08-12-2008 00:39:57 0.4 C 4.73 g/m*3 0.4 C 0 km/h
724 08-12-2008 00:51:57 0.5 C 4.76 g/m*3 0.5 C 0 km/h
725 08-12-2008 01:03:57 0.6 C 4.8 g/m*3 0.6 C 0 km/h
Sensor: Nr:Datum:Temp:Abs-Feuchte:Windchill:Wind:
Aussen-T/F 726 08-12-2008 01:15:57 0.6 C 4.8 g/m*3 0.6 C 0 km/h
727 08-12-2008 01:27:57 0.5 C 4.76 g/m*3 0.5 C 0 km/h
728 08-12-2008 01:39:58 0.4 C 4.73 g/m*3 0.4 C 0 km/h
729 08-12-2008 01:51:58 0.2 C 4.67 g/m*3 0.2 C 0 km/h
730 08-12-2008 02:03:58 0 C 4.6 g/m*3 0 C 0 km/h
731 08-12-2008 02:15:58 -0.1 C 4.57 g/m*3 -0.1 C 0 km/h
732 08-12-2008 02:27:58 -0.1 C 4.57 g/m*3 -0.1 C 0 km/h
733 08-12-2008 02:39:58 -0.1 C 4.57 g/m*3 -0.1 C 0 km/h
734 08-12-2008 02:51:58 -0.2 C 4.54 g/m*3 -0.2 C 0 km/h
735 08-12-2008 03:03:58 -0.2 C 4.54 g/m*3 -0.2 C 0 km/h
736 08-12-2008 03:15:58 -0.3 C 4.51 g/m*3 -0.3 C 0 km/h
737 08-12-2008 03:27:58 -0.3 C 4.51 g/m*3 -0.3 C 0 km/h
738 08-12-2008 03:39:58 -0.2 C 4.54 g/m*3 -0.2 C 0 km/h
739 08-12-2008 03:51:58 -0.1 C 4.57 g/m*3 -0.1 C 0 km/h
740 08-12-2008 04:03:58 0 C 4.6 g/m*3 0 C 0 km/h
741 08-12-2008 04:15:58 0 C 4.6 g/m*3 0 C 0 km/h
742 08-12-2008 04:27:58 0 C 4.6 g/m*3 0 C 0 km/h
743 08-12-2008 04:39:58 0 C 4.6 g/m*3 0 C 0 km/h
744 08-12-2008 04:51:58 -0.1 C 4.57 g/m*3 -0.1 C 0 km/h
745 08-12-2008 05:03:58 -0.2 C 4.54 g/m*3 -0.2 C 0 km/h
746 08-12-2008 05:15:58 -0.3 C 4.51 g/m*3 -0.3 C 0 km/h
747 08-12-2008 05:27:58 -0.5 C 4.45 g/m*3 -0.5 C 0 km/h
748 08-12-2008 05:39:59 -0.5 C 4.45 g/m*3 -0.5 C 0 km/h
749 08-12-2008 05:51:59 -0.5 C 4.45 g/m*3 -0.5 C 0 km/h
750 08-12-2008 06:03:59 -0.5 C 4.45 g/m*3 -0.5 C 0 km/h
Sensor: Nr:Datum:Temp:Abs-Feuchte:Windchill:Wind:
Aussen-T/F 751 08-12-2008 06:15:59 -0.4 C 4.48 g/m*3 -0.4 C 0 km/h
752 08-12-2008 06:27:59 -0.4 C 4.48 g/m*3 -0.4 C 0 km/h
753 08-12-2008 06:39:59 -0.4 C 4.48 g/m*3 -0.4 C 0 km/h
754 08-12-2008 06:51:59 -0.7 C 4.39 g/m*3 -0.7 C 0 km/h
755 08-12-2008 07:03:57 -0.6 C 4.42 g/m*3 -0.6 C 0 km/h
756 08-12-2008 07:15:57 -0.7 C 4.39 g/m*3 -0.7 C 0 km/h
757 08-12-2008 07:27:57 -0.7 C 4.39 g/m*3 -0.7 C 0 km/h
758 08-12-2008 07:39:57 -0.6 C 4.42 g/m*3 -0.6 C 0 km/h
759 08-12-2008 07:51:57 -0.6 C 4.42 g/m*3 -0.6 C 0 km/h
760 08-12-2008 08:03:56 -0.6 C 4.42 g/m*3 -0.6 C 0 km/h
761 08-12-2008 08:15:57 -0.7 C 4.39 g/m*3 -0.7 C 0 km/h
762 08-12-2008 08:27:58 -0.7 C 4.39 g/m*3 -0.7 C 0 km/h
763 08-12-2008 08:39:56 -0.7 C 4.39 g/m*3 -0.7 C 0 km/h
764 08-12-2008 08:51:56 -0.7 C 4.39 g/m*3 -0.7 C 0 km/h
765 08-12-2008 09:03:56 -0.5 C 4.45 g/m*3 -0.5 C 0 km/h
766 08-12-2008 09:15:57 -0.5 C 4.4 g/m*3 -0.5 C 0 km/h
767 08-12-2008 09:27:57 -0.6 C 4.37 g/m*3 -0.6 C 0 km/h
768 08-12-2008 09:39:56 -0.6 C 4.37 g/m*3 -0.6 C 0 km/h
769 08-12-2008 09:51:56 -0.3 C 4.41 g/m*3 -0.3 C 0 km/h
770 08-12-2008 10:03:56 -0.3 C 4.41 g/m*3 -0.3 C 0 km/h
771 08-12-2008 10:15:56 0 C 4.51 g/m*3 0 C 0 km/h
772 08-12-2008 10:27:56 0.2 C 4.52 g/m*3 0.2 C 0 km/h
773 08-12-2008 10:39:55 0.3 C 4.5 g/m*3 0.3 C 0 km/h
774 08-12-2008 10:51:56 0.3 C 4.4 g/m*3 0.3 C 0 km/h
775 08-12-2008 11:03:55 0.3 C 4.4 g/m*3 0.3 C 0 km/h
Sensor: Nr:Datum:Temp:Abs-Feuchte:Windchill:Wind:
Aussen-T/F 776 08-12-2008 11:15:55 0.4 C 4.38 g/m*3 0.4 C 0 km/h
777 08-12-2008 11:27:55 0.7 C 4.47 g/m*3 0.7 C 0 km/h
778 08-12-2008 11:39:56 0.9 C 4.54 g/m*3 0.9 C 0 km/h
779 08-12-2008 11:51:55 0.8 C 4.45 g/m*3 0.8 C 0 km/h
780 08-12-2008 12:03:55 0.7 C 4.42 g/m*3 0.7 C 0 km/h
781 08-12-2008 12:15:55 0.8 C 4.51 g/m*3 0.8 C 0 km/h
782 08-12-2008 12:27:55 0.8 C 4.51 g/m*3 0.8 C 0 km/h
783 08-12-2008 12:39:55 1 C 4.57 g/m*3 1 C 0 km/h
784 08-12-2008 12:51:55 1.1 C 4.6 g/m*3 1.1 C 0 km/h
785 08-12-2008 13:03:55 1.1 C 4.6 g/m*3 1.1 C 0 km/h
786 08-12-2008 13:15:54 1.2 C 4.63 g/m*3 1.2 C 0 km/h
787 08-12-2008 13:27:54 1.2 C 4.63 g/m*3 1.2 C 0 km/h
788 08-12-2008 13:39:54 1.5 C 4.73 g/m*3 1.5 C 0 km/h
789 08-12-2008 13:51:54 1.7 C 4.79 g/m*3 1.7 C 0 km/h
790 08-12-2008 14:03:54 1.8 C 4.77 g/m*3 1.8 C 0 km/h
791 08-12-2008 14:15:54 2 C 4.78 g/m*3 2 C 0 km/h
792 08-12-2008 14:27:54 1.9 C 4.75 g/m*3 1.9 C 0 km/h
793 08-12-2008 14:39:54 2.1 C 4.81 g/m*3 2.1 C 0 km/h
794 08-12-2008 14:51:54 2.1 C 4.81 g/m*3 2.1 C 0 km/h
795 08-12-2008 15:03:54 2.1 C 4.81 g/m*3 2.1 C 0 km/h
796 08-12-2008 15:15:54 2.1 C 4.87 g/m*3 2.1 C 0 km/h
797 08-12-2008 15:27:54 2 C 4.83 g/m*3 2 C 0 km/h
798 08-12-2008 15:39:54 1.8 C 4.77 g/m*3 1.8 C 0 km/h
799 08-12-2008 15:51:54 1.7 C 4.74 g/m*3 1.7 C 0 km/h
800 08-12-2008 16:03:54 1.4 C 4.69 g/m*3 1.4 C 0 km/h
Sensor: Nr:Datum:Temp:Abs-Feuchte:Windchill:Wind:
Aussen-T/F 801 08-12-2008 16:15:53 1.4 C 4.69 g/m*3 1.4 C 0 km/h
802 08-12-2008 16:27:53 1.3 C 4.72 g/m*3 1.3 C 0 km/h
803 08-12-2008 16:39:54 1.2 C 4.68 g/m*3 1.2 C 0 km/h
804 08-12-2008 16:51:02 1.1 C 4.7 g/m*3 1.1 C 0 km/h
805 08-12-2008 17:03:02 1 C 4.72 g/m*3 1 C 0 km/h
806 08-12-2008 17:15:02 1 C 4.78 g/m*3 1 C 0 km/h
807 08-12-2008 17:27:02 0.8 C 4.76 g/m*3 0.8 C 0 km/h
808 08-12-2008 17:39:01 0.6 C 4.7 g/m*3 0.6 C 0 km/h
809 08-12-2008 17:51:01 0.6 C 4.75 g/m*3 0.6 C 0 km/h
810 08-12-2008 18:03:01 0.6 C 4.75 g/m*3 0.6 C 0 km/h
811 08-12-2008 18:15:01 0.4 C 4.68 g/m*3 0.4 C 0 km/h
812 08-12-2008 18:27:01 0.4 C 4.68 g/m*3 0.4 C 0 km/h
813 08-12-2008 18:39:01 0.5 C 4.71 g/m*3 0.5 C 0 km/h
814 08-12-2008 18:51:01 0.5 C 4.71 g/m*3 0.5 C 0 km/h
815 08-12-2008 19:03:00 0.5 C 4.71 g/m*3 0.5 C 0 km/h
816 08-12-2008 19:15:00 0.2 C 4.62 g/m*3 0.2 C 0 km/h
817 08-12-2008 19:27:00 0.2 C 4.62 g/m*3 0.2 C 0 km/h
818 08-12-2008 19:39:01 0.1 C 4.59 g/m*3 0.1 C 0 km/h
819 08-12-2008 19:51:00 0.1 C 4.59 g/m*3 0.1 C 0 km/h
820 08-12-2008 20:03:00 0.2 C 4.67 g/m*3 0.2 C 0 km/h
821 08-12-2008 20:15:00 0.1 C 4.63 g/m*3 0.1 C 0 km/h
822 08-12-2008 20:27:00 0.1 C 4.59 g/m*3 0.1 C 0 km/h
823 08-12-2008 20:38:59 0.1 C 4.63 g/m*3 0.1 C 0 km/h
824 08-12-2008 20:51:00 0.1 C 4.63 g/m*3 0.1 C 0 km/h
825 08-12-2008 21:03:00 0 C 4.55 g/m*3 0 C 0 km/h
Sensor: Nr:Datum:Temp:Abs-Feuchte:Windchill:Wind:
Aussen-T/F 826 08-12-2008 21:15:00 0 C 4.55 g/m*3 0 C 0 km/h
827 08-12-2008 21:27:00 -0.1 C 4.52 g/m*3 -0.1 C 0 km/h
828 08-12-2008 21:39:59 -0.3 C 4.46 g/m*3 -0.3 C 0 km/h
829 08-12-2008 21:51:59 -0.4 C 4.43 g/m*3 -0.4 C 0 km/h
830 08-12-2008 22:02:59 -0.6 C 4.37 g/m*3 -0.6 C 0 km/h
831 08-12-2008 22:14:59 -0.6 C 4.37 g/m*3 -0.6 C 0 km/h
832 08-12-2008 22:26:59 -0.7 C 4.34 g/m*3 -0.7 C 0 km/h
833 08-12-2008 22:39:59 -0.7 C 4.34 g/m*3 -0.7 C 0 km/h
834 08-12-2008 22:51:59 -0.5 C 4.4 g/m*3 -0.5 C 0 km/h
835 08-12-2008 23:03:00 -0.3 C 4.51 g/m*3 -0.3 C 0 km/h
836 08-12-2008 23:15:58 -0.3 C 4.51 g/m*3 -0.3 C 0 km/h
837 08-12-2008 23:27:58 -0.3 C 4.51 g/m*3 -0.3 C 0 km/h
838 08-12-2008 23:39:59 -0.4 C 4.48 g/m*3 -0.4 C 0 km/h
839 08-12-2008 23:51:58 -0.4 C 4.48 g/m*3 -0.4 C 0 km/h
840 09-12-2008 00:03:59 -0.3 C 4.51 g/m*3 -0.3 C 0 km/h
841 09-12-2008 00:15:59 -0.3 C 4.51 g/m*3 -0.3 C 0 km/h
842 09-12-2008 00:27:59 -0.2 C 4.54 g/m*3 -0.2 C 0 km/h
843 09-12-2008 00:40:59 -0.1 C 4.57 g/m*3 -0.1 C 0 km/h
844 09-12-2008 00:52:59 -0.1 C 4.57 g/m*3 -0.1 C 0 km/h
845 09-12-2008 01:04:59 -0.1 C 4.57 g/m*3 -0.1 C 0 km/h
846 09-12-2008 01:16:59 -0.1 C 4.57 g/m*3 -0.1 C 0 km/h
847 09-12-2008 01:27:59 -0.2 C 4.54 g/m*3 -0.2 C 0 km/h
848 09-12-2008 01:39:59 -0.2 C 4.49 g/m*3 -0.2 C 0 km/h
849 09-12-2008 01:51:59 -0.2 C 4.49 g/m*3 -0.2 C 0 km/h
850 09-12-2008 02:03:59 -0.3 C 4.46 g/m*3 -0.3 C 0 km/h
Sensor: Nr:Datum:Temp:Abs-Feuchte:Windchill:Wind:
Aussen-T/F 851 09-12-2008 02:15:59 -0.4 C 4.43 g/m*3 -0.4 C 0 km/h
852 09-12-2008 02:27:59 -0.3 C 4.41 g/m*3 -0.3 C 0 km/h
853 09-12-2008 02:39:59 -0.4 C 4.38 g/m*3 -0.4 C 0 km/h
854 09-12-2008 02:51:59 -0.4 C 4.38 g/m*3 -0.4 C 0 km/h
855 09-12-2008 03:03:59 -0.3 C 4.41 g/m*3 -0.3 C 0 km/h
856 09-12-2008 03:15:59 -0.4 C 4.34 g/m*3 -0.4 C 0 km/h
857 09-12-2008 03:27:59 -0.6 C 4.28 g/m*3 -0.6 C 0 km/h
858 09-12-2008 03:39:59 -0.6 C 4.28 g/m*3 -0.6 C 0 km/h
859 09-12-2008 03:51:59 -0.7 C 4.25 g/m*3 -0.7 C 0 km/h
860 09-12-2008 04:03:59 -0.8 C 4.22 g/m*3 -0.8 C 0 km/h
861 09-12-2008 04:15:59 -0.9 C 4.14 g/m*3 -0.9 C 0 km/h
862 09-12-2008 04:28:00 -0.9 C 4.14 g/m*3 -0.9 C 0 km/h
863 09-12-2008 04:40:00 -0.8 C 4.17 g/m*3 -0.8 C 0 km/h
864 09-12-2008 04:52:00 -1 C 4.11 g/m*3 -1 C 0 km/h
865 09-12-2008 05:04:00 -1.1 C 4.09 g/m*3 -1.1 C 0 km/h
866 09-12-2008 05:16:00 -1.2 C 4.06 g/m*3 -1.2 C 0 km/h
867 09-12-2008 05:28:00 -1.3 C 4.03 g/m*3 -1.3 C 0 km/h
868 09-12-2008 05:40:00 -1.5 C 3.97 g/m*3 -1.5 C 0 km/h
869 09-12-2008 05:52:00 -1.4 C 4 g/m*3 -1.4 C 0 km/h
870 09-12-2008 06:04:00 -1.3 C 4.03 g/m*3 -1.3 C 0 km/h
871 09-12-2008 06:16:00 -1.1 C 4.09 g/m*3 -1.1 C 0 km/h
872 09-12-2008 06:28:00 -1 C 4.11 g/m*3 -1 C 0 km/h
873 09-12-2008 06:40:00 -0.8 C 4.13 g/m*3 -0.8 C 0 km/h
874 09-12-2008 06:52:00 -0.7 C 4.15 g/m*3 -0.7 C 0 km/h
875 09-12-2008 07:04:59 -0.6 C 4.14 g/m*3 -0.6 C 0 km/h
Sensor: Nr:Datum:Temp:Abs-Feuchte:Windchill:Wind:
Aussen-T/F 876 09-12-2008 07:16:59 -0.5 C 4.12 g/m*3 -0.5 C 0 km/h
877 09-12-2008 07:28:59 -0.4 C 4.1 g/m*3 -0.4 C 0 km/h
878 09-12-2008 07:40:59 -0.3 C 4.08 g/m*3 -0.3 C 0 km/h
879 09-12-2008 07:52:59 -0.2 C 4.11 g/m*3 -0.2 C 0 km/h
880 09-12-2008 08:04:58 -0.1 C 4.14 g/m*3 -0.1 C 0 km/h
881 09-12-2008 08:16:59 0 C 4.12 g/m*3 0 C 0 km/h
882 09-12-2008 08:28:59 0.1 C 4.15 g/m*3 0.1 C 0 km/h
883 09-12-2008 08:40:59 0.2 C 4.13 g/m*3 0.2 C 0 km/h
884 09-12-2008 08:52:58 0.2 C 4.08 g/m*3 0.2 C 0 km/h
885 09-12-2008 09:04:58 0.3 C 4.11 g/m*3 0.3 C 0 km/h
886 09-12-2008 09:16:58 0.4 C 4.13 g/m*3 0.4 C 0 km/h
887 09-12-2008 09:28:58 0.5 C 4.16 g/m*3 0.5 C 0 km/h
888 09-12-2008 09:40:58 0.6 C 4.14 g/m*3 0.6 C 0 km/h
889 09-12-2008 09:52:57 0.8 C 4.2 g/m*3 0.8 C 0 km/h
890 09-12-2008 10:04:58 0.8 C 4.2 g/m*3 0.8 C 0 km/h
891 09-12-2008 10:16:57 1 C 4.2 g/m*3 1 C 0 km/h
892 09-12-2008 10:28:57 1.2 C 4.26 g/m*3 1.2 C 0 km/h
893 09-12-2008 10:40:57 1.4 C 4.27 g/m*3 1.4 C 0 km/h
894 09-12-2008 10:52:57 1.6 C 4.27 g/m*3 1.6 C 0 km/h
895 09-12-2008 11:04:57 1.9 C 4.25 g/m*3 1.9 C 0 km/h
896 09-12-2008 11:16:57 1.7 C 4.19 g/m*3 1.7 C 0 km/h
897 09-12-2008 11:28:57 1.9 C 4.25 g/m*3 1.9 C 0 km/h
898 09-12-2008 11:40:57 1.8 C 4.22 g/m*3 1.8 C 0 km/h
899 09-12-2008 11:52:57 1.9 C 4.3 g/m*3 1.9 C 0 km/h
900 09-12-2008 12:04:56 1.8 C 4.28 g/m*3 1.8 C 0 km/h
Sensor: Nr:Datum:Temp:Abs-Feuchte:Windchill:Wind:
Aussen-T/F 901 09-12-2008 12:16:57 1.7 C 4.25 g/m*3 1.7 C 0 km/h
902 09-12-2008 12:28:57 1.7 C 4.25 g/m*3 1.7 C 0 km/h
903 09-12-2008 12:40:56 1.6 C 4.22 g/m*3 1.6 C 0 km/h
904 09-12-2008 12:52:56 1.7 C 4.3 g/m*3 1.7 C 0 km/h
905 09-12-2008 13:04:56 1.7 C 4.25 g/m*3 1.7 C 0 km/h
906 09-12-2008 13:16:56 1.6 C 4.22 g/m*3 1.6 C 0 km/h
907 09-12-2008 13:28:56 1.7 C 4.25 g/m*3 1.7 C 0 km/h
908 09-12-2008 13:40:56 1.6 C 4.22 g/m*3 1.6 C 0 km/h
909 09-12-2008 13:52:56 1.6 C 4.22 g/m*3 1.6 C 0 km/h
910 09-12-2008 14:04:55 1.6 C 4.27 g/m*3 1.6 C 0 km/h
911 09-12-2008 14:16:56 1.6 C 4.27 g/m*3 1.6 C 0 km/h
912 09-12-2008 14:28:56 1.6 C 4.27 g/m*3 1.6 C 0 km/h
913 09-12-2008 14:40:55 1.6 C 4.27 g/m*3 1.6 C 0 km/h
914 09-12-2008 14:52:56 1.7 C 4.3 g/m*3 1.7 C 0 km/h
915 09-12-2008 15:04:55 1.7 C 4.25 g/m*3 1.7 C 0 km/h
916 09-12-2008 15:16:55 1.8 C 4.22 g/m*3 1.8 C 0 km/h
917 09-12-2008 15:28:56 1.7 C 4.14 g/m*3 1.7 C 0 km/h
918 09-12-2008 15:40:55 1.7 C 4.14 g/m*3 1.7 C 0 km/h
919 09-12-2008 15:52:55 1.7 C 4.14 g/m*3 1.7 C 0 km/h
920 09-12-2008 16:04:54 1.7 C 4.14 g/m*3 1.7 C 0 km/h
921 09-12-2008 16:16:38 1.6 C 4.11 g/m*3 1.6 C 0 km/h
922 09-12-2008 16:28:38 1.6 C 4.16 g/m*3 1.6 C 0 km/h
923 09-12-2008 16:40:37 1.6 C 4.16 g/m*3 1.6 C 0 km/h
924 09-12-2008 16:52:37 1.5 C 4.19 g/m*3 1.5 C 0 km/h
925 09-12-2008 17:04:37 1.5 C 4.24 g/m*3 1.5 C 0 km/h
Sensor: Nr:Datum:Temp:Abs-Feuchte:Windchill:Wind:
Aussen-T/F 926 09-12-2008 17:16:37 1.5 C 4.24 g/m*3 1.5 C 0 km/h
927 09-12-2008 17:28:37 1.5 C 4.3 g/m*3 1.5 C 0 km/h
928 09-12-2008 17:40:37 1.2 C 4.31 g/m*3 1.2 C 0 km/h
929 09-12-2008 17:52:37 1 C 4.36 g/m*3 1 C 0 km/h
930 09-12-2008 18:04:38 0.9 C 4.48 g/m*3 0.9 C 0 km/h
931 09-12-2008 18:16:37 0.8 C 4.51 g/m*3 0.8 C 0 km/h
932 09-12-2008 18:28:37 0.7 C 4.53 g/m*3 0.7 C 0 km/h
933 09-12-2008 18:40:37 0.8 C 4.61 g/m*3 0.8 C 0 km/h
934 09-12-2008 18:52:36 0.7 C 4.58 g/m*3 0.7 C 0 km/h
935 09-12-2008 19:04:37 0.6 C 4.6 g/m*3 0.6 C 0 km/h
936 09-12-2008 19:16:36 0.6 C 4.65 g/m*3 0.6 C 0 km/h
937 09-12-2008 19:28:36 0.6 C 4.65 g/m*3 0.6 C 0 km/h
938 09-12-2008 19:40:36 0.6 C 4.65 g/m*3 0.6 C 0 km/h
939 09-12-2008 19:52:36 0.6 C 4.65 g/m*3 0.6 C 0 km/h
940 09-12-2008 20:04:36 0.6 C 4.7 g/m*3 0.6 C 0 km/h
941 09-12-2008 20:16:36 0.7 C 4.73 g/m*3 0.7 C 0 km/h
942 09-12-2008 20:28:37 0.8 C 4.76 g/m*3 0.8 C 0 km/h
943 09-12-2008 20:40:35 0.8 C 4.76 g/m*3 0.8 C 0 km/h
944 09-12-2008 20:52:35 0.9 C 4.74 g/m*3 0.9 C 0 km/h
945 09-12-2008 21:04:35 0.9 C 4.74 g/m*3 0.9 C 0 km/h
946 09-12-2008 21:16:35 0.9 C 4.74 g/m*3 0.9 C 0 km/h
947 09-12-2008 21:28:35 0.9 C 4.74 g/m*3 0.9 C 0 km/h
948 09-12-2008 21:40:35 1 C 4.72 g/m*3 1 C 0 km/h
949 09-12-2008 21:52:34 1 C 4.67 g/m*3 1 C 0 km/h
950 09-12-2008 22:04:35 1 C 4.67 g/m*3 1 C 0 km/h
Sensor: Nr:Datum:Temp:Abs-Feuchte:Windchill:Wind:
Aussen-T/F 951 09-12-2008 22:17:36 1 C 4.72 g/m*3 1 C 0 km/h
952 09-12-2008 22:29:36 1 C 4.72 g/m*3 1 C 0 km/h
953 09-12-2008 22:41:36 1 C 4.72 g/m*3 1 C 0 km/h
954 09-12-2008 22:53:36 1 C 4.72 g/m*3 1 C 0 km/h
955 09-12-2008 23:05:36 1 C 4.78 g/m*3 1 C 0 km/h
956 09-12-2008 23:17:36 1 C 4.78 g/m*3 1 C 0 km/h
957 09-12-2008 23:29:36 1.1 C 4.81 g/m*3 1.1 C 0 km/h
958 09-12-2008 23:41:36 1.1 C 4.86 g/m*3 1.1 C 0 km/h
959 09-12-2008 23:53:36 1.1 C 4.86 g/m*3 1.1 C 0 km/h
960 10-12-2008 00:05:36 1.1 C 4.86 g/m*3 1.1 C 0 km/h
961 10-12-2008 00:17:36 1.1 C 4.86 g/m*3 1.1 C 0 km/h
962 10-12-2008 00:29:36 1.1 C 4.91 g/m*3 1.1 C 0 km/h
963 10-12-2008 00:41:37 1.2 C 4.95 g/m*3 1.2 C 0 km/h
964 10-12-2008 00:53:37 1 C 4.88 g/m*3 1 C 0 km/h
965 10-12-2008 01:05:37 0.9 C 4.85 g/m*3 0.9 C 0 km/h
966 10-12-2008 01:17:37 1 C 4.88 g/m*3 1 C 0 km/h
967 10-12-2008 01:29:37 1 C 4.88 g/m*3 1 C 0 km/h
968 10-12-2008 01:41:37 1 C 4.93 g/m*3 1 C 0 km/h
969 10-12-2008 01:53:37 1 C 4.93 g/m*3 1 C 0 km/h
970 10-12-2008 02:05:37 1 C 4.93 g/m*3 1 C 0 km/h
971 10-12-2008 02:17:37 1.1 C 4.96 g/m*3 1.1 C 0 km/h
972 10-12-2008 02:29:37 1.1 C 4.96 g/m*3 1.1 C 0 km/h
973 10-12-2008 02:41:37 1.1 C 4.96 g/m*3 1.1 C 0 km/h
974 10-12-2008 02:53:37 1.2 C 5 g/m*3 1.2 C 0 km/h
975 10-12-2008 03:05:37 1.2 C 5 g/m*3 1.2 C 0 km/h
Sensor: Nr:Datum:Temp:Abs-Feuchte:Windchill:Wind:
Aussen-T/F 976 10-12-2008 03:17:37 1.2 C 5 g/m*3 1.2 C 0 km/h
977 10-12-2008 03:29:37 1.2 C 5 g/m*3 1.2 C 0 km/h
978 10-12-2008 03:41:37 1.2 C 5 g/m*3 1.2 C 0 km/h
979 10-12-2008 03:53:37 1.2 C 5 g/m*3 1.2 C 0 km/h
980 10-12-2008 04:05:37 1.2 C 5 g/m*3 1.2 C 0 km/h
981 10-12-2008 04:17:37 1.3 C 5.03 g/m*3 1.3 C 0 km/h
982 10-12-2008 04:29:38 1.3 C 5.03 g/m*3 1.3 C 0 km/h
983 10-12-2008 04:41:38 1.2 C 5 g/m*3 1.2 C 0 km/h
984 10-12-2008 04:53:38 1.2 C 5 g/m*3 1.2 C 0 km/h
985 10-12-2008 05:05:38 1.3 C 5.03 g/m*3 1.3 C 0 km/h
986 10-12-2008 05:17:38 1.3 C 5.03 g/m*3 1.3 C 0 km/h
987 10-12-2008 05:29:38 1.3 C 5.03 g/m*3 1.3 C 0 km/h
988 10-12-2008 05:41:38 1.3 C 5.03 g/m*3 1.3 C 0 km/h
989 10-12-2008 05:53:38 1.3 C 5.03 g/m*3 1.3 C 0 km/h
990 10-12-2008 06:05:38 1.3 C 5.03 g/m*3 1.3 C 0 km/h
991 10-12-2008 06:17:38 1.3 C 5.03 g/m*3 1.3 C 0 km/h
992 10-12-2008 06:29:38 1.3 C 5.03 g/m*3 1.3 C 0 km/h
993 10-12-2008 06:41:38 1.4 C 5.07 g/m*3 1.4 C 0 km/h
994 10-12-2008 06:53:38 1.4 C 5.07 g/m*3 1.4 C 0 km/h
995 10-12-2008 07:05:35 1.4 C 5.07 g/m*3 1.4 C 0 km/h
996 10-12-2008 07:17:34 1.5 C 5.1 g/m*3 1.5 C 0 km/h
997 10-12-2008 07:29:34 1.5 C 5.1 g/m*3 1.5 C 0 km/h
998 10-12-2008 07:41:35 1.6 C 5.14 g/m*3 1.6 C 0 km/h
999 10-12-2008 07:53:34 1.2 C 5 g/m*3 1.2 C 0 km/h
1000 10-12-2008 08:05:34 0.8 C 4.81 g/m*3 0.8 C 0 km/h
Sensor: Nr:Datum:Temp:Abs-Feuchte:Windchill:Wind:
Aussen-T/F 1001 10-12-2008 08:17:35 1.1 C 4.91 g/m*3 1.1 C 0 km/h
1002 10-12-2008 08:29:35 1.1 C 4.91 g/m*3 1.1 C 0 km/h
1003 10-12-2008 08:41:34 1.2 C 5 g/m*3 1.2 C 0 km/h
1004 10-12-2008 08:53:34 1.3 C 5.03 g/m*3 1.3 C 0 km/h
1005 10-12-2008 09:05:34 1.4 C 5.07 g/m*3 1.4 C 0 km/h
1006 10-12-2008 09:17:34 1.4 C 5.07 g/m*3 1.4 C 0 km/h
1007 10-12-2008 09:29:35 1.5 C 5.1 g/m*3 1.5 C 0 km/h
1008 10-12-2008 09:41:33 1.7 C 5.17 g/m*3 1.7 C 0 km/h
1009 10-12-2008 09:53:34 1.9 C 5.24 g/m*3 1.9 C 0 km/h
1010 10-12-2008 10:05:33 2 C 5.28 g/m*3 2 C 0 km/h
1011 10-12-2008 10:17:33 2.1 C 5.31 g/m*3 2.1 C 0 km/h
1012 10-12-2008 10:29:33 2.2 C 5.35 g/m*3 2.2 C 0 km/h
1013 10-12-2008 10:41:33 2.3 C 5.39 g/m*3 2.3 C 0 km/h
1014 10-12-2008 10:53:33 2.6 C 5.5 g/m*3 2.6 C 0 km/h
1015 10-12-2008 11:05:33 2.6 C 5.5 g/m*3 2.6 C 0 km/h
1016 10-12-2008 11:17:32 2.6 C 5.5 g/m*3 2.6 C 0 km/h
1017 10-12-2008 11:29:32 2.7 C 5.48 g/m*3 2.7 C 0 km/h
1018 10-12-2008 11:41:33 2.9 C 5.55 g/m*3 2.9 C 0 km/h
1019 10-12-2008 11:53:32 3 C 5.53 g/m*3 3 C 0 km/h
1020 10-12-2008 12:05:32 3 C 5.53 g/m*3 3 C 0 km/h
1021 10-12-2008 12:17:33 3 C 5.47 g/m*3 3 C 0 km/h
1022 10-12-2008 12:29:33 3 C 5.41 g/m*3 3 C 0 km/h
1023 10-12-2008 12:41:32 3.1 C 5.45 g/m*3 3.1 C 0 km/h
1024 10-12-2008 12:53:32 3.1 C 5.45 g/m*3 3.1 C 0 km/h
1025 10-12-2008 13:05:32 3.1 C 5.45 g/m*3 3.1 C 0 km/h
Sensor: Nr:Datum:Temp:Abs-Feuchte:Windchill:Wind:
Aussen-T/F 1026 10-12-2008 13:17:32 3.1 C 5.39 g/m*3 3.1 C 0 km/h
1027 10-12-2008 13:29:32 3.2 C 5.42 g/m*3 3.2 C 0 km/h
1028 10-12-2008 13:41:31 3.3 C 5.46 g/m*3 3.3 C 0 km/h
1029 10-12-2008 13:53:31 3.3 C 5.46 g/m*3 3.3 C 0 km/h
1030 10-12-2008 14:05:31 3.3 C 5.4 g/m*3 3.3 C 0 km/h
1031 10-12-2008 14:17:31 3.4 C 5.44 g/m*3 3.4 C 0 km/h
1032 10-12-2008 14:29:31 3.5 C 5.47 g/m*3 3.5 C 0 km/h
1033 10-12-2008 14:41:32 3.5 C 5.47 g/m*3 3.5 C 0 km/h
1034 10-12-2008 14:53:30 3.4 C 5.44 g/m*3 3.4 C 0 km/h
1035 10-12-2008 15:05:31 3.4 C 5.44 g/m*3 3.4 C 0 km/h
1036 10-12-2008 15:17:30 3.5 C 5.47 g/m*3 3.5 C 0 km/h
1037 10-12-2008 15:29:30 3.5 C 5.47 g/m*3 3.5 C 0 km/h
1038 10-12-2008 15:41:30 3.4 C 5.44 g/m*3 3.4 C 0 km/h
1039 10-12-2008 15:53:30 3.4 C 5.44 g/m*3 3.4 C 0 km/h
1040 10-12-2008 16:05:30 3.2 C 5.36 g/m*3 3.2 C 0 km/h
1041 10-12-2008 16:17:30 3.1 C 5.33 g/m*3 3.1 C 0 km/h
1042 10-12-2008 16:29:30 3 C 5.35 g/m*3 3 C 0 km/h
1043 10-12-2008 16:41:30 2.7 C 5.3 g/m*3 2.7 C 0 km/h
1044 10-12-2008 16:53:30 2.5 C 5.23 g/m*3 2.5 C 0 km/h
1045 10-12-2008 17:05:29 2.3 C 5.16 g/m*3 2.3 C 0 km/h
1046 10-12-2008 17:17:30 2.2 C 5.13 g/m*3 2.2 C 0 km/h
1047 10-12-2008 17:29:31 2.1 C 5.09 g/m*3 2.1 C 0 km/h
1048 10-12-2008 17:41:29 2.1 C 5.09 g/m*3 2.1 C 0 km/h
1049 10-12-2008 17:53:29 2.2 C 5.18 g/m*3 2.2 C 0 km/h
1050 10-12-2008 18:05:28 2.3 C 5.22 g/m*3 2.3 C 0 km/h
Sensor: Nr:Datum:Temp:Abs-Feuchte:Windchill:Wind:
Aussen-T/F 1051 10-12-2008 18:17:29 2.4 C 5.25 g/m*3 2.4 C 0 km/h
1052 10-12-2008 18:29:29 2.4 C 5.25 g/m*3 2.4 C 0 km/h
1053 10-12-2008 18:41:29 2.4 C 5.25 g/m*3 2.4 C 0 km/h
1054 10-12-2008 18:53:28 2.3 C 5.22 g/m*3 2.3 C 0 km/h
1055 10-12-2008 19:05:29 2.2 C 5.18 g/m*3 2.2 C 0 km/h
1056 10-12-2008 19:17:28 2.2 C 5.18 g/m*3 2.2 C 0 km/h
1057 10-12-2008 19:29:28 2 C 5.11 g/m*3 2 C 0 km/h
1058 10-12-2008 19:41:28 2 C 5.11 g/m*3 2 C 0 km/h
1059 10-12-2008 19:53:28 2 C 5.11 g/m*3 2 C 0 km/h
1060 10-12-2008 20:05:28 2 C 5.11 g/m*3 2 C 0 km/h
1061 10-12-2008 20:17:28 1.9 C 5.13 g/m*3 1.9 C 0 km/h
1062 10-12-2008 20:29:28 2 C 5.11 g/m*3 2 C 0 km/h
1063 10-12-2008 20:41:27 2.1 C 5.2 g/m*3 2.1 C 0 km/h
1064 10-12-2008 20:53:28 2.1 C 5.2 g/m*3 2.1 C 0 km/h
1065 10-12-2008 21:05:27 2 C 5.17 g/m*3 2 C 0 km/h
1066 10-12-2008 21:17:27 1.9 C 5.13 g/m*3 1.9 C 0 km/h
1067 10-12-2008 21:29:27 1.8 C 5.1 g/m*3 1.8 C 0 km/h
1068 10-12-2008 21:41:27 1.7 C 5.06 g/m*3 1.7 C 0 km/h
1069 10-12-2008 21:53:27 1.5 C 4.99 g/m*3 1.5 C 0 km/h
1070 10-12-2008 22:05:26 1.6 C 5.03 g/m*3 1.6 C 0 km/h
1071 10-12-2008 22:18:02 1.7 C 5.12 g/m*3 1.7 C 0 km/h
1072 10-12-2008 22:30:02 1.8 C 5.15 g/m*3 1.8 C 0 km/h
1073 10-12-2008 22:42:02 1.9 C 5.19 g/m*3 1.9 C 0 km/h
1074 10-12-2008 22:54:03 2 C 5.22 g/m*3 2 C 0 km/h
1075 10-12-2008 23:06:03 1.9 C 5.19 g/m*3 1.9 C 0 km/h
Sensor: Nr:Datum:Temp:Abs-Feuchte:Windchill:Wind:
Aussen-T/F 1076 10-12-2008 23:18:03 1.9 C 5.19 g/m*3 1.9 C 0 km/h
1077 10-12-2008 23:30:03 1.9 C 5.19 g/m*3 1.9 C 0 km/h
1078 10-12-2008 23:42:03 1.8 C 5.15 g/m*3 1.8 C 0 km/h
1079 10-12-2008 23:54:03 1.7 C 5.12 g/m*3 1.7 C 0 km/h
1080 11-12-2008 00:06:03 1.5 C 5.05 g/m*3 1.5 C 0 km/h
1081 11-12-2008 00:18:03 1.6 C 5.08 g/m*3 1.6 C 0 km/h
1082 11-12-2008 00:30:03 1.6 C 5.08 g/m*3 1.6 C 0 km/h
1083 11-12-2008 00:42:03 1.5 C 5.05 g/m*3 1.5 C 0 km/h
1084 11-12-2008 00:54:03 1.5 C 5.05 g/m*3 1.5 C 0 km/h
1085 11-12-2008 01:06:03 1.5 C 5.05 g/m*3 1.5 C 0 km/h
1086 11-12-2008 01:18:03 1.5 C 5.05 g/m*3 1.5 C 0 km/h
1087 11-12-2008 01:30:03 1.5 C 5.05 g/m*3 1.5 C 0 km/h
1088 11-12-2008 01:42:03 1.6 C 5.08 g/m*3 1.6 C 0 km/h
1089 11-12-2008 01:54:03 1.5 C 5.05 g/m*3 1.5 C 0 km/h
1090 11-12-2008 02:06:03 1.4 C 5.01 g/m*3 1.4 C 0 km/h
1091 11-12-2008 02:18:03 1.2 C 4.89 g/m*3 1.2 C 0 km/h
1092 11-12-2008 02:30:03 0.9 C 4.85 g/m*3 0.9 C 0 km/h
1093 11-12-2008 02:42:04 0.6 C 4.7 g/m*3 0.6 C 0 km/h
1094 11-12-2008 02:54:04 0.5 C 4.66 g/m*3 0.5 C 0 km/h
1095 11-12-2008 03:06:04 0.5 C 4.71 g/m*3 0.5 C 0 km/h
1096 11-12-2008 03:18:04 0.5 C 4.71 g/m*3 0.5 C 0 km/h
1097 11-12-2008 03:30:04 0.6 C 4.75 g/m*3 0.6 C 0 km/h
1098 11-12-2008 03:42:04 0.8 C 4.81 g/m*3 0.8 C 0 km/h
1099 11-12-2008 03:54:04 1 C 4.88 g/m*3 1 C 0 km/h
1100 11-12-2008 04:06:04 1 C 4.88 g/m*3 1 C 0 km/h
Sensor: Nr:Datum:Temp:Abs-Feuchte:Windchill:Wind:
Aussen-T/F 1101 11-12-2008 04:18:04 0.9 C 4.85 g/m*3 0.9 C 0 km/h
1102 11-12-2008 04:30:04 0.9 C 4.79 g/m*3 0.9 C 0 km/h
1103 11-12-2008 04:42:04 1 C 4.83 g/m*3 1 C 0 km/h
1104 11-12-2008 04:54:04 1 C 4.78 g/m*3 1 C 0 km/h
1105 11-12-2008 05:06:04 1 C 4.78 g/m*3 1 C 0 km/h
1106 11-12-2008 05:18:04 1 C 4.78 g/m*3 1 C 0 km/h
1107 11-12-2008 05:30:04 1 C 4.78 g/m*3 1 C 0 km/h
1108 11-12-2008 05:42:04 1 C 4.72 g/m*3 1 C 0 km/h
1109 11-12-2008 05:54:04 1 C 4.72 g/m*3 1 C 0 km/h
1110 11-12-2008 06:06:04 1.1 C 4.76 g/m*3 1.1 C 0 km/h
1111 11-12-2008 06:18:04 1.1 C 4.7 g/m*3 1.1 C 0 km/h
1112 11-12-2008 06:30:05 1 C 4.62 g/m*3 1 C 0 km/h
1113 11-12-2008 06:42:05 1.1 C 4.65 g/m*3 1.1 C 0 km/h
1114 11-12-2008 06:54:28 1 C 4.57 g/m*3 1 C 0 km/h
1115 11-12-2008 07:06:29 0.9 C 4.54 g/m*3 0.9 C 0 km/h
1116 11-12-2008 07:18:27 1 C 4.52 g/m*3 1 C 0 km/h
1117 11-12-2008 07:30:27 1 C 4.52 g/m*3 1 C 0 km/h
1118 11-12-2008 07:42:28 0.9 C 4.48 g/m*3 0.9 C 0 km/h
1119 11-12-2008 07:54:27 0.9 C 4.54 g/m*3 0.9 C 0 km/h
1120 11-12-2008 08:06:27 1 C 4.52 g/m*3 1 C 0 km/h
1121 11-12-2008 08:18:27 0.9 C 4.48 g/m*3 0.9 C 0 km/h
1122 11-12-2008 08:30:27 0.8 C 4.45 g/m*3 0.8 C 0 km/h
1123 11-12-2008 08:42:27 0.8 C 4.45 g/m*3 0.8 C 0 km/h
1124 11-12-2008 08:54:26 0.8 C 4.45 g/m*3 0.8 C 0 km/h
1125 11-12-2008 09:06:26 0.9 C 4.48 g/m*3 0.9 C 0 km/h
Sensor: Nr:Datum:Temp:Abs-Feuchte:Windchill:Wind:
Aussen-T/F 1126 11-12-2008 09:18:27 1 C 4.46 g/m*3 1 C 0 km/h
1127 11-12-2008 09:30:27 1.1 C 4.49 g/m*3 1.1 C 0 km/h
1128 11-12-2008 09:42:27 1.3 C 4.56 g/m*3 1.3 C 0 km/h
1129 11-12-2008 09:54:26 1.4 C 4.53 g/m*3 1.4 C 0 km/h
1130 11-12-2008 10:06:26 1.5 C 4.51 g/m*3 1.5 C 0 km/h
1131 11-12-2008 10:18:26 1.6 C 4.49 g/m*3 1.6 C 0 km/h
1132 11-12-2008 10:30:26 1.7 C 4.46 g/m*3 1.7 C 0 km/h
1133 11-12-2008 10:42:26 2 C 4.45 g/m*3 2 C 0 km/h
1134 11-12-2008 10:54:25 2.3 C 4.54 g/m*3 2.3 C 0 km/h
1135 11-12-2008 11:06:26 2.4 C 4.51 g/m*3 2.4 C 0 km/h
1136 11-12-2008 11:18:25 2.3 C 4.31 g/m*3 2.3 C 0 km/h
1137 11-12-2008 11:30:25 2.4 C 4.34 g/m*3 2.4 C 0 km/h
1138 11-12-2008 11:42:25 2.6 C 4.4 g/m*3 2.6 C 0 km/h
1139 11-12-2008 11:54:25 2.8 C 4.4 g/m*3 2.8 C 0 km/h
1140 11-12-2008 12:06:25 2.6 C 4.28 g/m*3 2.6 C 0 km/h
1141 11-12-2008 12:18:24 2.7 C 4.37 g/m*3 2.7 C 0 km/h
1142 11-12-2008 12:30:24 2.9 C 4.43 g/m*3 2.9 C 0 km/h
1143 11-12-2008 12:42:24 2.9 C 4.37 g/m*3 2.9 C 0 km/h
1144 11-12-2008 12:54:25 3 C 4.28 g/m*3 3 C 0 km/h
1145 11-12-2008 13:06:24 3.1 C 4.31 g/m*3 3.1 C 0 km/h
1146 11-12-2008 13:18:24 3.2 C 4.34 g/m*3 3.2 C 0 km/h
1147 11-12-2008 13:30:24 3 C 4.22 g/m*3 3 C 0 km/h
1148 11-12-2008 13:42:24 2.8 C 4.28 g/m*3 2.8 C 0 km/h
1149 11-12-2008 13:54:24 2.9 C 4.31 g/m*3 2.9 C 0 km/h
1150 11-12-2008 14:06:23 3.1 C 4.31 g/m*3 3.1 C 0 km/h
Sensor: Nr:Datum:Temp:Abs-Feuchte:Windchill:Wind:
Aussen-T/F 1151 11-12-2008 14:18:24 3.1 C 4.31 g/m*3 3.1 C 0 km/h
1152 11-12-2008 14:30:24 3.2 C 4.4 g/m*3 3.2 C 0 km/h
1153 11-12-2008 14:42:24 3 C 4.28 g/m*3 3 C 0 km/h
1154 11-12-2008 14:54:23 3 C 4.28 g/m*3 3 C 0 km/h
1155 11-12-2008 15:06:24 2.9 C 4.31 g/m*3 2.9 C 0 km/h
1156 11-12-2008 15:18:23 2.7 C 4.25 g/m*3 2.7 C 0 km/h
1157 11-12-2008 15:30:23 2.8 C 4.34 g/m*3 2.8 C 0 km/h
1158 11-12-2008 15:42:23 2.7 C 4.31 g/m*3 2.7 C 0 km/h
1159 11-12-2008 15:54:23 2.7 C 4.37 g/m*3 2.7 C 0 km/h
1160 11-12-2008 16:06:23 2.4 C 4.34 g/m*3 2.4 C 0 km/h
1161 11-12-2008 16:18:22 2.2 C 4.39 g/m*3 2.2 C 0 km/h
1162 11-12-2008 16:30:22 2.2 C 4.45 g/m*3 2.2 C 0 km/h
1163 11-12-2008 16:42:22 2.1 C 4.48 g/m*3 2.1 C 0 km/h
1164 11-12-2008 16:54:22 2.1 C 4.48 g/m*3 2.1 C 0 km/h
1165 11-12-2008 17:06:22 2.1 C 4.48 g/m*3 2.1 C 0 km/h
1166 11-12-2008 17:18:22 2 C 4.5 g/m*3 2 C 0 km/h
1167 11-12-2008 17:30:22 2 C 4.5 g/m*3 2 C 0 km/h
1168 11-12-2008 17:42:22 2 C 4.5 g/m*3 2 C 0 km/h
1169 11-12-2008 17:54:22 2 C 4.56 g/m*3 2 C 0 km/h
1170 11-12-2008 18:06:23 2.1 C 4.59 g/m*3 2.1 C 0 km/h
1171 11-12-2008 18:18:22 2 C 4.56 g/m*3 2 C 0 km/h
1172 11-12-2008 18:30:22 1.8 C 4.49 g/m*3 1.8 C 0 km/h
1173 11-12-2008 18:42:23 1.7 C 4.46 g/m*3 1.7 C 0 km/h
1174 11-12-2008 18:54:22 1.7 C 4.46 g/m*3 1.7 C 0 km/h
1175 11-12-2008 19:06:22 1.6 C 4.43 g/m*3 1.6 C 0 km/h
Sensor: Nr:Datum:Temp:Abs-Feuchte:Windchill:Wind:
Aussen-T/F 1176 11-12-2008 19:18:21 1.6 C 4.49 g/m*3 1.6 C 0 km/h
1177 11-12-2008 19:30:21 1.6 C 4.49 g/m*3 1.6 C 0 km/h
1178 11-12-2008 19:42:22 1.5 C 4.46 g/m*3 1.5 C 0 km/h
1179 11-12-2008 19:54:21 1.4 C 4.43 g/m*3 1.4 C 0 km/h
1180 11-12-2008 20:06:21 1.2 C 4.37 g/m*3 1.2 C 0 km/h
1181 11-12-2008 20:18:21 1.2 C 4.42 g/m*3 1.2 C 0 km/h
1182 11-12-2008 20:30:21 1 C 4.36 g/m*3 1 C 0 km/h
1183 11-12-2008 20:42:21 0.9 C 4.38 g/m*3 0.9 C 0 km/h
1184 11-12-2008 20:54:20 0.7 C 4.32 g/m*3 0.7 C 0 km/h
1185 11-12-2008 21:06:21 0.7 C 4.37 g/m*3 0.7 C 0 km/h
1186 11-12-2008 21:18:20 0.7 C 4.37 g/m*3 0.7 C 0 km/h
1187 11-12-2008 21:30:20 0.7 C 4.42 g/m*3 0.7 C 0 km/h
1188 11-12-2008 21:42:20 0.5 C 4.36 g/m*3 0.5 C 0 km/h
1189 11-12-2008 21:54:19 0.4 C 4.33 g/m*3 0.4 C 0 km/h
1190 11-12-2008 22:06:19 0.3 C 4.3 g/m*3 0.3 C 0 km/h
1191 11-12-2008 22:18:19 0.1 C 4.29 g/m*3 0.1 C 0 km/h
1192 11-12-2008 22:30:19 0 C 4.26 g/m*3 0 C 0 km/h
1193 11-12-2008 22:42:19 -0.2 C 4.21 g/m*3 -0.2 C 0 km/h
1194 11-12-2008 22:55:20 -0.2 C 4.21 g/m*3 -0.2 C 0 km/h
1195 11-12-2008 23:07:20 -0.3 C 4.18 g/m*3 -0.3 C 0 km/h
1196 11-12-2008 23:19:21 -0.3 C 4.22 g/m*3 -0.3 C 0 km/h
1197 11-12-2008 23:31:21 -0.2 C 4.25 g/m*3 -0.2 C 0 km/h
1198 11-12-2008 23:43:21 -0.4 C 4.19 g/m*3 -0.4 C 0 km/h
1199 11-12-2008 23:55:21 -0.6 C 4.14 g/m*3 -0.6 C 0 km/h
1200 12-12-2008 00:07:21 -0.8 C 4.08 g/m*3 -0.8 C 0 km/h
Sensor: Nr:Datum:Temp:Abs-Feuchte:Windchill:Wind:
Aussen-T/F 1201 12-12-2008 00:19:21 -0.9 C 4.05 g/m*3 -0.9 C 0 km/h
1202 12-12-2008 00:31:21 -0.9 C 4.1 g/m*3 -0.9 C 0 km/h
1203 12-12-2008 00:43:21 -0.6 C 4.23 g/m*3 -0.6 C 0 km/h
1204 12-12-2008 00:55:21 -0.3 C 4.32 g/m*3 -0.3 C 0 km/h
1205 12-12-2008 01:07:21 -0.5 C 4.26 g/m*3 -0.5 C 0 km/h
1206 12-12-2008 01:19:21 -0.6 C 4.23 g/m*3 -0.6 C 0 km/h
1207 12-12-2008 01:31:21 -0.5 C 4.26 g/m*3 -0.5 C 0 km/h
1208 12-12-2008 01:43:21 -0.5 C 4.26 g/m*3 -0.5 C 0 km/h
1209 12-12-2008 01:55:21 -0.5 C 4.26 g/m*3 -0.5 C 0 km/h
1210 12-12-2008 02:07:21 -0.6 C 4.23 g/m*3 -0.6 C 0 km/h
1211 12-12-2008 02:19:21 -0.7 C 4.2 g/m*3 -0.7 C 0 km/h
1212 12-12-2008 02:31:21 -1 C 4.07 g/m*3 -1 C 0 km/h
1213 12-12-2008 02:43:21 -0.9 C 4.14 g/m*3 -0.9 C 0 km/h
1214 12-12-2008 02:55:21 -0.8 C 4.17 g/m*3 -0.8 C 0 km/h
1215 12-12-2008 03:07:22 -0.9 C 4.14 g/m*3 -0.9 C 0 km/h
1216 12-12-2008 03:19:22 -1 C 4.07 g/m*3 -1 C 0 km/h
1217 12-12-2008 03:31:22 -1 C 4.07 g/m*3 -1 C 0 km/h
1218 12-12-2008 03:43:22 -1.2 C 4.01 g/m*3 -1.2 C 0 km/h
1219 12-12-2008 03:55:22 -1.4 C 3.96 g/m*3 -1.4 C 0 km/h
1220 12-12-2008 04:07:22 -1.3 C 3.98 g/m*3 -1.3 C 0 km/h
1221 12-12-2008 04:19:22 -1.5 C 3.93 g/m*3 -1.5 C 0 km/h
1222 12-12-2008 04:31:22 -1.6 C 3.9 g/m*3 -1.6 C 0 km/h
1223 12-12-2008 04:43:22 -1.4 C 4 g/m*3 -1.4 C 0 km/h
1224 12-12-2008 04:55:22 -1.5 C 3.97 g/m*3 -1.5 C 0 km/h
1225 12-12-2008 05:07:22 -1.4 C 4 g/m*3 -1.4 C 0 km/h
Sensor: Nr:Datum:Temp:Abs-Feuchte:Windchill:Wind:
Aussen-T/F 1226 12-12-2008 05:19:22 -1.2 C 4.06 g/m*3 -1.2 C 0 km/h
1227 12-12-2008 05:31:22 -1.1 C 4.09 g/m*3 -1.1 C 0 km/h
1228 12-12-2008 05:43:22 -1.5 C 3.93 g/m*3 -1.5 C 0 km/h
1229 12-12-2008 05:55:22 -1.8 C 3.85 g/m*3 -1.8 C 0 km/h
1230 12-12-2008 06:07:22 -1.5 C 3.93 g/m*3 -1.5 C 0 km/h
1231 12-12-2008 06:19:22 -1.6 C 3.9 g/m*3 -1.6 C 0 km/h
1232 12-12-2008 06:31:22 -1.5 C 3.93 g/m*3 -1.5 C 0 km/h
1233 12-12-2008 06:43:22 -1.6 C 3.9 g/m*3 -1.6 C 0 km/h
1234 12-12-2008 06:55:22 -1.5 C 3.93 g/m*3 -1.5 C 0 km/h
1235 12-12-2008 07:07:20 -1.6 C 3.9 g/m*3 -1.6 C 0 km/h
1236 12-12-2008 07:19:20 -1.7 C 3.83 g/m*3 -1.7 C 0 km/h
1237 12-12-2008 07:31:20 -1.5 C 3.89 g/m*3 -1.5 C 0 km/h
1238 12-12-2008 07:43:20 -1.3 C 3.94 g/m*3 -1.3 C 0 km/h
1239 12-12-2008 07:55:20 -1.1 C 4 g/m*3 -1.1 C 0 km/h
1240 12-12-2008 08:07:20 -0.9 C 4.01 g/m*3 -0.9 C 0 km/h
1241 12-12-2008 08:19:19 -0.8 C 3.99 g/m*3 -0.8 C 0 km/h
1242 12-12-2008 08:31:19 -0.7 C 3.97 g/m*3 -0.7 C 0 km/h
1243 12-12-2008 08:43:20 -0.6 C 3.9 g/m*3 -0.6 C 0 km/h
1244 12-12-2008 08:55:19 -0.6 C 3.9 g/m*3 -0.6 C 0 km/h
1245 12-12-2008 09:07:19 -0.4 C 3.96 g/m*3 -0.4 C 0 km/h
1246 12-12-2008 09:19:18 -0.3 C 3.99 g/m*3 -0.3 C 0 km/h
1247 12-12-2008 09:31:19 -0.2 C 4.01 g/m*3 -0.2 C 0 km/h
1248 12-12-2008 09:43:19 -0.1 C 4.04 g/m*3 -0.1 C 0 km/h
1249 12-12-2008 09:55:18 0.1 C 4.1 g/m*3 0.1 C 0 km/h
1250 12-12-2008 10:07:18 0.2 C 4.13 g/m*3 0.2 C 0 km/h
Sensor: Nr:Datum:Temp:Abs-Feuchte:Windchill:Wind:
Aussen-T/F 1251 12-12-2008 10:19:18 0.7 C 4.27 g/m*3 0.7 C 0 km/h
1252 12-12-2008 10:31:18 0.6 C 4.24 g/m*3 0.6 C 0 km/h
1253 12-12-2008 10:43:18 0.7 C 4.22 g/m*3 0.7 C 0 km/h
1254 12-12-2008 10:55:18 0.9 C 4.28 g/m*3 0.9 C 0 km/h
1255 12-12-2008 11:07:17 0.9 C 4.12 g/m*3 0.9 C 0 km/h
1256 12-12-2008 11:19:18 0.9 C 3.92 g/m*3 0.9 C 0 km/h
1257 12-12-2008 11:31:18 0.8 C 3.79 g/m*3 0.8 C 0 km/h
1258 12-12-2008 11:43:18 0.8 C 3.79 g/m*3 0.8 C 0 km/h
1259 12-12-2008 11:55:17 0.8 C 3.69 g/m*3 0.8 C 0 km/h
1260 12-12-2008 12:07:18 1 C 3.69 g/m*3 1 C 0 km/h
1261 12-12-2008 12:19:17 1 C 3.69 g/m*3 1 C 0 km/h
1262 12-12-2008 12:31:17 1 C 3.63 g/m*3 1 C 0 km/h
1263 12-12-2008 12:43:17 1 C 3.63 g/m*3 1 C 0 km/h
1264 12-12-2008 12:55:17 1 C 3.69 g/m*3 1 C 0 km/h
1265 12-12-2008 13:07:17 0.8 C 3.69 g/m*3 0.8 C 0 km/h
1266 12-12-2008 13:19:16 0.8 C 3.63 g/m*3 0.8 C 0 km/h
1267 12-12-2008 13:31:16 0.8 C 3.69 g/m*3 0.8 C 0 km/h
1268 12-12-2008 13:43:16 1 C 3.69 g/m*3 1 C 0 km/h
1269 12-12-2008 13:55:16 1 C 3.69 g/m*3 1 C 0 km/h
1270 12-12-2008 14:07:16 0.8 C 3.63 g/m*3 0.8 C 0 km/h
1271 12-12-2008 14:19:16 0.9 C 3.66 g/m*3 0.9 C 0 km/h
1272 12-12-2008 14:31:16 1 C 3.63 g/m*3 1 C 0 km/h
1273 12-12-2008 14:43:16 1 C 3.69 g/m*3 1 C 0 km/h
1274 12-12-2008 14:55:16 0.9 C 3.61 g/m*3 0.9 C 0 km/h
1275 12-12-2008 15:07:15 0.9 C 3.66 g/m*3 0.9 C 0 km/h
Sensor: Nr:Datum:Temp:Abs-Feuchte:Windchill:Wind:
Aussen-T/F 1276 12-12-2008 15:19:16 0.9 C 3.66 g/m*3 0.9 C 0 km/h
1277 12-12-2008 15:31:16 0.8 C 3.69 g/m*3 0.8 C 0 km/h
1278 12-12-2008 15:43:16 0.8 C 3.69 g/m*3 0.8 C 0 km/h
1279 12-12-2008 15:55:15 0.7 C 3.66 g/m*3 0.7 C 0 km/h
1280 12-12-2008 16:07:15 0.6 C 3.64 g/m*3 0.6 C 0 km/h
1281 12-12-2008 16:19:15 0.6 C 3.64 g/m*3 0.6 C 0 km/h
1282 12-12-2008 16:31:15 0.5 C 3.66 g/m*3 0.5 C 0 km/h
1283 12-12-2008 16:43:15 0.4 C 3.64 g/m*3 0.4 C 0 km/h
1284 12-12-2008 16:55:14 0.4 C 3.64 g/m*3 0.4 C 0 km/h
1285 12-12-2008 17:07:15 0.4 C 3.64 g/m*3 0.4 C 0 km/h
1286 12-12-2008 17:19:14 0.4 C 3.69 g/m*3 0.4 C 0 km/h
1287 12-12-2008 17:31:14 0.4 C 3.64 g/m*3 0.4 C 0 km/h
1288 12-12-2008 17:43:14 0.3 C 3.56 g/m*3 0.3 C 0 km/h
1289 12-12-2008 17:55:14 0.3 C 3.56 g/m*3 0.3 C 0 km/h
1290 12-12-2008 18:07:15 0.3 C 3.61 g/m*3 0.3 C 0 km/h
1291 12-12-2008 18:19:16 0.2 C 3.59 g/m*3 0.2 C 0 km/h
1292 12-12-2008 18:31:14 0.1 C 3.51 g/m*3 0.1 C 0 km/h
1293 12-12-2008 18:43:14 0.2 C 3.59 g/m*3 0.2 C 0 km/h
1294 12-12-2008 18:55:13 0.1 C 3.51 g/m*3 0.1 C 0 km/h
1295 12-12-2008 19:07:14 0 C 3.49 g/m*3 0 C 0 km/h
1296 12-12-2008 19:19:13 0 C 3.49 g/m*3 0 C 0 km/h
1297 12-12-2008 19:31:14 0 C 3.54 g/m*3 0 C 0 km/h
1298 12-12-2008 19:43:14 -0.1 C 3.51 g/m*3 -0.1 C 0 km/h
1299 12-12-2008 19:55:13 -0.2 C 3.44 g/m*3 -0.2 C 0 km/h
1300 12-12-2008 20:07:13 -0.3 C 3.42 g/m*3 -0.3 C 0 km/h
Sensor: Nr:Datum:Temp:Abs-Feuchte:Windchill:Wind:
Aussen-T/F 1301 12-12-2008 20:19:13 -0.3 C 3.42 g/m*3 -0.3 C 0 km/h
1302 12-12-2008 20:31:13 -0.3 C 3.42 g/m*3 -0.3 C 0 km/h
1303 12-12-2008 20:43:13 -0.3 C 3.42 g/m*3 -0.3 C 0 km/h
1304 12-12-2008 20:55:12 -0.4 C 3.39 g/m*3 -0.4 C 0 km/h
1305 12-12-2008 21:07:13 -0.5 C 3.37 g/m*3 -0.5 C 0 km/h
1306 12-12-2008 21:19:12 -0.4 C 3.39 g/m*3 -0.4 C 0 km/h
1307 12-12-2008 21:31:12 -0.5 C 3.37 g/m*3 -0.5 C 0 km/h
1308 12-12-2008 21:43:12 -0.4 C 3.35 g/m*3 -0.4 C 0 km/h
1309 12-12-2008 21:55:11 -0.4 C 3.35 g/m*3 -0.4 C 0 km/h
1310 12-12-2008 22:07:12 -0.4 C 3.39 g/m*3 -0.4 C 0 km/h
1311 12-12-2008 22:20:38 -0.4 C 3.39 g/m*3 -0.4 C 0 km/h
1312 12-12-2008 22:32:38 -0.5 C 3.32 g/m*3 -0.5 C 0 km/h
1313 12-12-2008 22:44:38 -0.5 C 3.32 g/m*3 -0.5 C 0 km/h
1314 12-12-2008 22:56:38 -0.6 C 3.35 g/m*3 -0.6 C 0 km/h
1315 12-12-2008 23:08:38 -0.6 C 3.3 g/m*3 -0.6 C 0 km/h
1316 12-12-2008 23:20:38 -0.7 C 3.32 g/m*3 -0.7 C 0 km/h
1317 12-12-2008 23:32:38 -0.6 C 3.35 g/m*3 -0.6 C 0 km/h
1318 12-12-2008 23:44:38 -0.6 C 3.35 g/m*3 -0.6 C 0 km/h
1319 12-12-2008 23:56:38 -0.6 C 3.35 g/m*3 -0.6 C 0 km/h
1320 13-12-2008 00:08:38 -0.6 C 3.35 g/m*3 -0.6 C 0 km/h
1321 13-12-2008 00:20:38 -0.7 C 3.32 g/m*3 -0.7 C 0 km/h
1322 13-12-2008 00:32:38 -0.7 C 3.32 g/m*3 -0.7 C 0 km/h
1323 13-12-2008 00:44:38 -0.7 C 3.37 g/m*3 -0.7 C 0 km/h
1324 13-12-2008 00:56:38 -0.7 C 3.37 g/m*3 -0.7 C 0 km/h
1325 13-12-2008 01:08:38 -0.7 C 3.37 g/m*3 -0.7 C 0 km/h
Sensor: Nr:Datum:Temp:Abs-Feuchte:Windchill:Wind:
Aussen-T/F 1326 13-12-2008 01:20:38 -0.7 C 3.37 g/m*3 -0.7 C 0 km/h
1327 13-12-2008 01:32:39 -0.7 C 3.37 g/m*3 -0.7 C 0 km/h
1328 13-12-2008 01:44:39 -0.7 C 3.37 g/m*3 -0.7 C 0 km/h
1329 13-12-2008 01:56:39 -0.8 C 3.35 g/m*3 -0.8 C 0 km/h
1330 13-12-2008 02:08:39 -0.8 C 3.39 g/m*3 -0.8 C 0 km/h
1331 13-12-2008 02:20:39 -0.9 C 3.37 g/m*3 -0.9 C 0 km/h
1332 13-12-2008 02:32:39 -0.9 C 3.37 g/m*3 -0.9 C 0 km/h
1333 13-12-2008 02:44:39 -1 C 3.35 g/m*3 -1 C 0 km/h
1334 13-12-2008 02:56:39 -1.1 C 3.32 g/m*3 -1.1 C 0 km/h
1335 13-12-2008 03:08:39 -1.1 C 3.32 g/m*3 -1.1 C 0 km/h
1336 13-12-2008 03:20:39 -1.1 C 3.32 g/m*3 -1.1 C 0 km/h
1337 13-12-2008 03:32:39 -1.1 C 3.32 g/m*3 -1.1 C 0 km/h
1338 13-12-2008 03:44:39 -1.2 C 3.3 g/m*3 -1.2 C 0 km/h
1339 13-12-2008 03:56:39 -1.2 C 3.3 g/m*3 -1.2 C 0 km/h
1340 13-12-2008 04:08:39 -1.3 C 3.28 g/m*3 -1.3 C 0 km/h
1341 13-12-2008 04:20:39 -1.3 C 3.32 g/m*3 -1.3 C 0 km/h
1342 13-12-2008 04:32:39 -1.3 C 3.32 g/m*3 -1.3 C 0 km/h
1343 13-12-2008 04:44:39 -1.3 C 3.32 g/m*3 -1.3 C 0 km/h
1344 13-12-2008 04:56:39 -1.3 C 3.32 g/m*3 -1.3 C 0 km/h
1345 13-12-2008 05:08:39 -1.2 C 3.34 g/m*3 -1.2 C 0 km/h
1346 13-12-2008 05:20:40 -1.1 C 3.41 g/m*3 -1.1 C 0 km/h
1347 13-12-2008 05:32:40 -1.1 C 3.37 g/m*3 -1.1 C 0 km/h
1348 13-12-2008 05:44:40 -1 C 3.39 g/m*3 -1 C 0 km/h
1349 13-12-2008 05:56:40 -0.9 C 3.41 g/m*3 -0.9 C 0 km/h
1350 13-12-2008 06:08:40 -0.8 C 3.44 g/m*3 -0.8 C 0 km/h
Sensor: Nr:Datum:Temp:Abs-Feuchte:Windchill:Wind:
Aussen-T/F 1351 13-12-2008 06:20:40 -0.8 C 3.44 g/m*3 -0.8 C 0 km/h
1352 13-12-2008 06:32:40 -0.8 C 3.44 g/m*3 -0.8 C 0 km/h
1353 13-12-2008 06:44:40 -0.8 C 3.39 g/m*3 -0.8 C 0 km/h
1354 13-12-2008 06:56:40 -0.7 C 3.46 g/m*3 -0.7 C 0 km/h
1355 13-12-2008 07:08:40 -0.7 C 3.46 g/m*3 -0.7 C 0 km/h
1356 13-12-2008 07:20:40 -0.7 C 3.46 g/m*3 -0.7 C 0 km/h
1357 13-12-2008 07:32:40 -0.6 C 3.49 g/m*3 -0.6 C 0 km/h
1358 13-12-2008 07:44:40 -0.6 C 3.49 g/m*3 -0.6 C 0 km/h
1359 13-12-2008 07:56:40 -0.6 C 3.49 g/m*3 -0.6 C 0 km/h
1360 13-12-2008 08:08:37 -0.6 C 3.53 g/m*3 -0.6 C 0 km/h
1361 13-12-2008 08:20:37 -0.5 C 3.56 g/m*3 -0.5 C 0 km/h
1362 13-12-2008 08:32:37 -0.5 C 3.56 g/m*3 -0.5 C 0 km/h
1363 13-12-2008 08:44:37 -0.5 C 3.56 g/m*3 -0.5 C 0 km/h
1364 13-12-2008 08:56:37 -0.5 C 3.6 g/m*3 -0.5 C 0 km/h
1365 13-12-2008 09:08:37 -0.4 C 3.63 g/m*3 -0.4 C 0 km/h
1366 13-12-2008 09:20:37 -0.3 C 3.65 g/m*3 -0.3 C 0 km/h
1367 13-12-2008 09:32:37 -0.2 C 3.68 g/m*3 -0.2 C 0 km/h
1368 13-12-2008 09:44:37 -0.2 C 3.68 g/m*3 -0.2 C 0 km/h
1369 13-12-2008 09:56:37 -0.1 C 3.71 g/m*3 -0.1 C 0 km/h
1370 13-12-2008 10:08:36 0.1 C 3.76 g/m*3 0.1 C 0 km/h
1371 13-12-2008 10:20:37 0.1 C 3.76 g/m*3 0.1 C 0 km/h
1372 13-12-2008 10:32:36 0.2 C 3.78 g/m*3 0.2 C 0 km/h
1373 13-12-2008 10:44:36 0.3 C 3.81 g/m*3 0.3 C 0 km/h
1374 13-12-2008 10:56:36 0.3 C 3.81 g/m*3 0.3 C 0 km/h
1375 13-12-2008 11:08:36 0.3 C 3.81 g/m*3 0.3 C 0 km/h
Sensor: Nr:Datum:Temp:Abs-Feuchte:Windchill:Wind:
Aussen-T/F 1376 13-12-2008 11:20:36 0.3 C 3.81 g/m*3 0.3 C 0 km/h
1377 13-12-2008 11:32:36 0.3 C 3.81 g/m*3 0.3 C 0 km/h
1378 13-12-2008 11:44:36 0.3 C 3.86 g/m*3 0.3 C 0 km/h
1379 13-12-2008 11:56:36 0.4 C 3.93 g/m*3 0.4 C 0 km/h
1380 13-12-2008 12:08:36 0.5 C 3.96 g/m*3 0.5 C 0 km/h
1381 13-12-2008 12:20:35 0.5 C 3.96 g/m*3 0.5 C 0 km/h
1382 13-12-2008 12:32:35 0.5 C 3.96 g/m*3 0.5 C 0 km/h
1383 13-12-2008 12:44:35 0.5 C 3.96 g/m*3 0.5 C 0 km/h
1384 13-12-2008 12:56:35 0.7 C 3.97 g/m*3 0.7 C 0 km/h
1385 13-12-2008 13:08:35 0.7 C 3.97 g/m*3 0.7 C 0 km/h
1386 13-12-2008 13:20:34 0.8 C 3.94 g/m*3 0.8 C 0 km/h
1387 13-12-2008 13:32:35 0.8 C 3.89 g/m*3 0.8 C 0 km/h
1388 13-12-2008 13:44:35 0.8 C 3.84 g/m*3 0.8 C 0 km/h
1389 13-12-2008 13:56:34 0.9 C 3.76 g/m*3 0.9 C 0 km/h
1390 13-12-2008 14:08:36 1 C 3.74 g/m*3 1 C 0 km/h
1391 13-12-2008 14:20:35 1 C 3.69 g/m*3 1 C 0 km/h
1392 13-12-2008 14:32:35 1 C 3.69 g/m*3 1 C 0 km/h
1393 13-12-2008 14:44:35 1 C 3.63 g/m*3 1 C 0 km/h
1394 13-12-2008 14:56:35 1 C 3.69 g/m*3 1 C 0 km/h
1395 13-12-2008 15:08:34 1 C 3.69 g/m*3 1 C 0 km/h
1396 13-12-2008 15:20:34 1 C 3.69 g/m*3 1 C 0 km/h
1397 13-12-2008 15:32:33 1 C 3.69 g/m*3 1 C 0 km/h
1398 13-12-2008 15:44:33 1 C 3.63 g/m*3 1 C 0 km/h
1399 13-12-2008 15:56:33 1 C 3.63 g/m*3 1 C 0 km/h
1400 13-12-2008 16:08:33 1 C 3.63 g/m*3 1 C 0 km/h
Sensor: Nr:Datum:Temp:Abs-Feuchte:Windchill:Wind:
Aussen-T/F 1401 13-12-2008 16:20:33 0.9 C 3.66 g/m*3 0.9 C 0 km/h
1402 13-12-2008 16:32:33 0.9 C 3.66 g/m*3 0.9 C 0 km/h
1403 13-12-2008 16:44:33 0.9 C 3.71 g/m*3 0.9 C 0 km/h
1404 13-12-2008 16:56:33 0.8 C 3.69 g/m*3 0.8 C 0 km/h
1405 13-12-2008 17:08:32 0.8 C 3.63 g/m*3 0.8 C 0 km/h
1406 13-12-2008 17:20:33 0.8 C 3.63 g/m*3 0.8 C 0 km/h
1407 13-12-2008 17:32:33 0.8 C 3.63 g/m*3 0.8 C 0 km/h
1408 13-12-2008 17:44:33 0.7 C 3.61 g/m*3 0.7 C 0 km/h
1409 13-12-2008 17:56:32 0.7 C 3.61 g/m*3 0.7 C 0 km/h
1410 13-12-2008 18:08:33 0.8 C 3.63 g/m*3 0.8 C 0 km/h
1411 13-12-2008 18:20:32 0.6 C 3.53 g/m*3 0.6 C 0 km/h
1412 13-12-2008 18:32:32 0.5 C 3.56 g/m*3 0.5 C 0 km/h
1413 13-12-2008 18:44:32 0.3 C 3.51 g/m*3 0.3 C 0 km/h
1414 13-12-2008 18:56:32 -0.1 C 3.46 g/m*3 -0.1 C 0 km/h
1415 13-12-2008 19:08:32 -0.2 C 3.49 g/m*3 -0.2 C 0 km/h
1416 13-12-2008 19:20:31 -0.2 C 3.49 g/m*3 -0.2 C 0 km/h
1417 13-12-2008 19:32:31 -0.2 C 3.44 g/m*3 -0.2 C 0 km/h
1418 13-12-2008 19:44:31 -0.6 C 3.39 g/m*3 -0.6 C 0 km/h
1419 13-12-2008 19:56:31 -1 C 3.35 g/m*3 -1 C 0 km/h
1420 13-12-2008 20:08:31 -1.2 C 3.34 g/m*3 -1.2 C 0 km/h
1421 13-12-2008 20:20:31 -1.4 C 3.39 g/m*3 -1.4 C 0 km/h
1422 13-12-2008 20:32:31 -0.5 C 3.51 g/m*3 -0.5 C 0 km/h
1423 13-12-2008 20:44:31 -0.7 C 3.46 g/m*3 -0.7 C 0 km/h
1424 13-12-2008 20:56:31 -1 C 3.44 g/m*3 -1 C 0 km/h
1425 13-12-2008 21:08:31 -1 C 3.48 g/m*3 -1 C 0 km/h
Sensor: Nr:Datum:Temp:Abs-Feuchte:Windchill:Wind:
Aussen-T/F 1426 13-12-2008 21:20:30 -1.1 C 3.5 g/m*3 -1.1 C 0 km/h
1427 13-12-2008 21:32:30 -1.3 C 3.5 g/m*3 -1.3 C 0 km/h
1428 13-12-2008 21:44:31 -1.4 C 3.52 g/m*3 -1.4 C 0 km/h
1429 13-12-2008 21:56:30 -1.3 C 3.59 g/m*3 -1.3 C 0 km/h
1430 13-12-2008 22:08:30 -1.1 C 3.64 g/m*3 -1.1 C 0 km/h
1431 13-12-2008 22:20:29 -0.9 C 3.69 g/m*3 -0.9 C 0 km/h
1432 13-12-2008 22:32:30 -0.5 C 3.7 g/m*3 -0.5 C 0 km/h
1433 13-12-2008 22:44:30 -0.6 C 3.63 g/m*3 -0.6 C 0 km/h
1434 13-12-2008 22:57:30 -0.8 C 3.58 g/m*3 -0.8 C 0 km/h
1435 13-12-2008 23:09:30 -0.9 C 3.6 g/m*3 -0.9 C 0 km/h
1436 13-12-2008 23:21:30 -0.8 C 3.62 g/m*3 -0.8 C 0 km/h
1437 13-12-2008 23:33:30 -0.6 C 3.67 g/m*3 -0.6 C 0 km/h
1438 13-12-2008 23:45:30 -0.7 C 3.65 g/m*3 -0.7 C 0 km/h
1439 13-12-2008 23:57:30 -1 C 3.57 g/m*3 -1 C 0 km/h
1440 14-12-2008 00:09:30 -1 C 3.57 g/m*3 -1 C 0 km/h
1441 14-12-2008 00:21:30 -1.3 C 3.54 g/m*3 -1.3 C 0 km/h
1442 14-12-2008 00:33:30 -1.4 C 3.56 g/m*3 -1.4 C 0 km/h
1443 14-12-2008 00:45:30 -1.2 C 3.7 g/m*3 -1.2 C 0 km/h
1444 14-12-2008 00:57:30 -1 C 3.75 g/m*3 -1 C 0 km/h
1445 14-12-2008 01:09:30 -1.2 C 3.7 g/m*3 -1.2 C 0 km/h
1446 14-12-2008 01:21:30 -1.4 C 3.65 g/m*3 -1.4 C 0 km/h
1447 14-12-2008 01:33:30 -1.4 C 3.65 g/m*3 -1.4 C 0 km/h
1448 14-12-2008 01:45:31 -1.2 C 3.74 g/m*3 -1.2 C 0 km/h
1449 14-12-2008 01:57:31 -1 C 3.8 g/m*3 -1 C 0 km/h
1450 14-12-2008 02:09:31 -1.1 C 3.73 g/m*3 -1.1 C 0 km/h
Sensor: Nr:Datum:Temp:Abs-Feuchte:Windchill:Wind:
Aussen-T/F 1451 14-12-2008 02:21:31 -1.2 C 3.7 g/m*3 -1.2 C 0 km/h
1452 14-12-2008 02:33:31 -0.8 C 3.8 g/m*3 -0.8 C 0 km/h
1453 14-12-2008 02:45:31 -0.5 C 3.88 g/m*3 -0.5 C 0 km/h
1454 14-12-2008 02:57:31 -0.4 C 3.86 g/m*3 -0.4 C 0 km/h
1455 14-12-2008 03:09:31 -0.5 C 3.84 g/m*3 -0.5 C 0 km/h
1456 14-12-2008 03:21:31 -0.4 C 3.86 g/m*3 -0.4 C 0 km/h
1457 14-12-2008 03:33:31 -0.5 C 3.84 g/m*3 -0.5 C 0 km/h
1458 14-12-2008 03:45:31 -0.5 C 3.84 g/m*3 -0.5 C 0 km/h
1459 14-12-2008 03:57:31 -0.6 C 3.81 g/m*3 -0.6 C 0 km/h
1460 14-12-2008 04:09:31 -0.8 C 3.76 g/m*3 -0.8 C 0 km/h
1461 14-12-2008 04:21:31 -0.9 C 3.73 g/m*3 -0.9 C 0 km/h
1462 14-12-2008 04:33:31 -0.8 C 3.8 g/m*3 -0.8 C 0 km/h
1463 14-12-2008 04:45:31 -0.8 C 3.8 g/m*3 -0.8 C 0 km/h
1464 14-12-2008 04:57:31 -0.9 C 3.78 g/m*3 -0.9 C 0 km/h
1465 14-12-2008 05:09:31 -0.9 C 3.73 g/m*3 -0.9 C 0 km/h
1466 14-12-2008 05:21:31 -1 C 3.71 g/m*3 -1 C 0 km/h
1467 14-12-2008 05:33:31 -1.1 C 3.73 g/m*3 -1.1 C 0 km/h
1468 14-12-2008 05:45:32 -1.1 C 3.73 g/m*3 -1.1 C 0 km/h
1469 14-12-2008 05:57:32 -1.1 C 3.73 g/m*3 -1.1 C 0 km/h
1470 14-12-2008 06:09:32 -1.1 C 3.73 g/m*3 -1.1 C 0 km/h
1471 14-12-2008 06:21:32 -1.1 C 3.77 g/m*3 -1.1 C 0 km/h
1472 14-12-2008 06:33:32 -1.1 C 3.77 g/m*3 -1.1 C 0 km/h
1473 14-12-2008 06:45:32 -1 C 3.8 g/m*3 -1 C 0 km/h
1474 14-12-2008 06:57:32 -1.1 C 3.77 g/m*3 -1.1 C 0 km/h
1475 14-12-2008 07:09:32 -1.1 C 3.77 g/m*3 -1.1 C 0 km/h
Sensor: Nr:Datum:Temp:Abs-Feuchte:Windchill:Wind:
Aussen-T/F 1476 14-12-2008 07:21:32 -1.3 C 3.67 g/m*3 -1.3 C 0 km/h
1477 14-12-2008 07:33:32 -1.3 C 3.72 g/m*3 -1.3 C 0 km/h
1478 14-12-2008 07:45:32 -1.4 C 3.69 g/m*3 -1.4 C 0 km/h
1479 14-12-2008 07:57:32 -1.4 C 3.69 g/m*3 -1.4 C 0 km/h
1480 14-12-2008 08:09:31 -1.4 C 3.69 g/m*3 -1.4 C 0 km/h
1481 14-12-2008 08:21:30 -1.5 C 3.71 g/m*3 -1.5 C 0 km/h
1482 14-12-2008 08:33:31 -1.4 C 3.74 g/m*3 -1.4 C 0 km/h
1483 14-12-2008 08:45:30 -1.5 C 3.71 g/m*3 -1.5 C 0 km/h
1484 14-12-2008 08:57:30 -1.5 C 3.71 g/m*3 -1.5 C 0 km/h
1485 14-12-2008 09:09:30 -1.3 C 3.76 g/m*3 -1.3 C 0 km/h
1486 14-12-2008 09:21:30 -1 C 3.89 g/m*3 -1 C 0 km/h
1487 14-12-2008 09:33:30 -0.9 C 3.91 g/m*3 -0.9 C 0 km/h
1488 14-12-2008 09:45:29 -0.8 C 3.9 g/m*3 -0.8 C 0 km/h
1489 14-12-2008 09:57:29 -0.7 C 3.92 g/m*3 -0.7 C 0 km/h
1490 14-12-2008 10:09:30 -0.7 C 3.92 g/m*3 -0.7 C 0 km/h
1491 14-12-2008 10:21:30 -0.4 C 4.05 g/m*3 -0.4 C 0 km/h
1492 14-12-2008 10:33:29 0 C 4.12 g/m*3 0 C 0 km/h
1493 14-12-2008 10:45:30 0.2 C 4.18 g/m*3 0.2 C 0 km/h
1494 14-12-2008 10:57:30 0.7 C 4.37 g/m*3 0.7 C 0 km/h
1495 14-12-2008 11:09:29 1 C 4.41 g/m*3 1 C 0 km/h
1496 14-12-2008 11:21:29 1.2 C 4.42 g/m*3 1.2 C 0 km/h
1497 14-12-2008 11:33:28 1.2 C 4.42 g/m*3 1.2 C 0 km/h
1498 14-12-2008 11:45:29 1.1 C 4.39 g/m*3 1.1 C 0 km/h
1499 14-12-2008 11:57:29 1.1 C 4.44 g/m*3 1.1 C 0 km/h
1500 14-12-2008 12:09:29 1.2 C 4.47 g/m*3 1.2 C 0 km/h
Sensor: Nr:Datum:Temp:Abs-Feuchte:Windchill:Wind:
Aussen-T/F 1501 14-12-2008 12:21:28 1 C 4.41 g/m*3 1 C 0 km/h
1502 14-12-2008 12:33:29 1 C 4.46 g/m*3 1 C 0 km/h
1503 14-12-2008 12:45:28 1.1 C 4.49 g/m*3 1.1 C 0 km/h
1504 14-12-2008 12:57:28 1.4 C 4.64 g/m*3 1.4 C 0 km/h
1505 14-12-2008 13:09:28 1.8 C 4.77 g/m*3 1.8 C 0 km/h
1506 14-12-2008 13:21:28 2.2 C 4.79 g/m*3 2.2 C 0 km/h
1507 14-12-2008 13:33:28 2.4 C 4.8 g/m*3 2.4 C 0 km/h
1508 14-12-2008 13:45:27 2.3 C 4.71 g/m*3 2.3 C 0 km/h
1509 14-12-2008 13:57:27 2.6 C 4.8 g/m*3 2.6 C 0 km/h
1510 14-12-2008 14:09:28 2.8 C 4.81 g/m*3 2.8 C 0 km/h
1511 14-12-2008 14:21:28 2.5 C 4.66 g/m*3 2.5 C 0 km/h
1512 14-12-2008 14:33:27 2.5 C 4.66 g/m*3 2.5 C 0 km/h
1513 14-12-2008 14:45:27 2.4 C 4.62 g/m*3 2.4 C 0 km/h
1514 14-12-2008 14:57:27 2.3 C 4.65 g/m*3 2.3 C 0 km/h
1515 14-12-2008 15:09:27 2.4 C 4.68 g/m*3 2.4 C 0 km/h
1516 14-12-2008 15:21:27 2.3 C 4.65 g/m*3 2.3 C 0 km/h
1517 14-12-2008 15:33:26 2.1 C 4.64 g/m*3 2.1 C 0 km/h
1518 14-12-2008 15:45:27 2.1 C 4.64 g/m*3 2.1 C 0 km/h
1519 14-12-2008 15:57:28 2.1 C 4.7 g/m*3 2.1 C 0 km/h
1520 14-12-2008 16:09:26 2.2 C 4.73 g/m*3 2.2 C 0 km/h
1521 14-12-2008 16:21:26 1.7 C 4.57 g/m*3 1.7 C 0 km/h
1522 14-12-2008 16:33:27 1.5 C 4.57 g/m*3 1.5 C 0 km/h
1523 14-12-2008 16:45:26 1.4 C 4.59 g/m*3 1.4 C 0 km/h
1524 14-12-2008 16:57:26 1.2 C 4.53 g/m*3 1.2 C 0 km/h
1525 14-12-2008 17:09:26 1.3 C 4.61 g/m*3 1.3 C 0 km/h
Sensor: Nr:Datum:Temp:Abs-Feuchte:Windchill:Wind:
Aussen-T/F 1526 14-12-2008 17:21:25 1.3 C 4.66 g/m*3 1.3 C 0 km/h
1527 14-12-2008 17:33:26 1.2 C 4.63 g/m*3 1.2 C 0 km/h
1528 14-12-2008 17:45:25 1.2 C 4.63 g/m*3 1.2 C 0 km/h
1529 14-12-2008 17:57:25 1 C 4.62 g/m*3 1 C 0 km/h
1530 14-12-2008 18:09:25 1 C 4.62 g/m*3 1 C 0 km/h
1531 14-12-2008 18:21:25 0.9 C 4.64 g/m*3 0.9 C 0 km/h
1532 14-12-2008 18:33:25 0.9 C 4.64 g/m*3 0.9 C 0 km/h
1533 14-12-2008 18:45:25 0.9 C 4.69 g/m*3 0.9 C 0 km/h
1534 14-12-2008 18:57:25 0.7 C 4.63 g/m*3 0.7 C 0 km/h
1535 14-12-2008 19:09:25 0.5 C 4.51 g/m*3 0.5 C 0 km/h
1536 14-12-2008 19:21:25 0.7 C 4.63 g/m*3 0.7 C 0 km/h
1537 14-12-2008 19:33:24 0.8 C 4.71 g/m*3 0.8 C 0 km/h
1538 14-12-2008 19:45:25 0.7 C 4.68 g/m*3 0.7 C 0 km/h
1539 14-12-2008 19:57:25 0.7 C 4.68 g/m*3 0.7 C 0 km/h
1540 14-12-2008 20:09:24 0.9 C 4.74 g/m*3 0.9 C 0 km/h
1541 14-12-2008 20:21:24 1 C 4.78 g/m*3 1 C 0 km/h
1542 14-12-2008 20:33:24 1.2 C 4.84 g/m*3 1.2 C 0 km/h
1543 14-12-2008 20:45:23 1.1 C 4.81 g/m*3 1.1 C 0 km/h
1544 14-12-2008 20:57:23 1.2 C 4.84 g/m*3 1.2 C 0 km/h
1545 14-12-2008 21:09:24 1 C 4.72 g/m*3 1 C 0 km/h
1546 14-12-2008 21:21:23 1 C 4.72 g/m*3 1 C 0 km/h
1547 14-12-2008 21:33:24 0.8 C 4.71 g/m*3 0.8 C 0 km/h
1548 14-12-2008 21:45:24 0.8 C 4.71 g/m*3 0.8 C 0 km/h
1549 14-12-2008 21:57:24 0.8 C 4.71 g/m*3 0.8 C 0 km/h
1550 14-12-2008 22:09:23 0.7 C 4.68 g/m*3 0.7 C 0 km/h
Sensor: Nr:Datum:Temp:Abs-Feuchte:Windchill:Wind:
Aussen-T/F 1551 14-12-2008 22:21:23 0.6 C 4.65 g/m*3 0.6 C 0 km/h
1552 14-12-2008 22:34:24 0.5 C 4.61 g/m*3 0.5 C 0 km/h
1553 14-12-2008 22:46:24 0.6 C 4.65 g/m*3 0.6 C 0 km/h
1554 14-12-2008 22:58:24 0.7 C 4.73 g/m*3 0.7 C 0 km/h
1555 14-12-2008 23:10:24 0.6 C 4.65 g/m*3 0.6 C 0 km/h
1556 14-12-2008 23:22:24 0.7 C 4.68 g/m*3 0.7 C 0 km/h
1557 14-12-2008 23:34:24 0.9 C 4.79 g/m*3 0.9 C 0 km/h
1558 14-12-2008 23:46:24 1.3 C 4.87 g/m*3 1.3 C 0 km/h
1559 14-12-2008 23:58:25 1.5 C 4.89 g/m*3 1.5 C 0 km/h
1560 15-12-2008 00:10:25 1.4 C 4.8 g/m*3 1.4 C 0 km/h
1561 15-12-2008 00:22:25 1.2 C 4.68 g/m*3 1.2 C 0 km/h
1562 15-12-2008 00:34:25 0.8 C 4.56 g/m*3 0.8 C 0 km/h
1563 15-12-2008 00:46:25 0.6 C 4.54 g/m*3 0.6 C 0 km/h
1564 15-12-2008 00:58:25 0.5 C 4.51 g/m*3 0.5 C 0 km/h
1565 15-12-2008 01:10:25 0.2 C 4.42 g/m*3 0.2 C 0 km/h
1566 15-12-2008 01:22:25 0.2 C 4.47 g/m*3 0.2 C 0 km/h
1567 15-12-2008 01:34:25 0.2 C 4.47 g/m*3 0.2 C 0 km/h
1568 15-12-2008 01:46:25 0.4 C 4.58 g/m*3 0.4 C 0 km/h
1569 15-12-2008 01:58:25 0.3 C 4.55 g/m*3 0.3 C 0 km/h
1570 15-12-2008 02:10:25 0.3 C 4.55 g/m*3 0.3 C 0 km/h
1571 15-12-2008 02:22:25 0.1 C 4.49 g/m*3 0.1 C 0 km/h
1572 15-12-2008 02:34:25 0 C 4.46 g/m*3 0 C 0 km/h
1573 15-12-2008 02:46:25 -0.1 C 4.43 g/m*3 -0.1 C 0 km/h
1574 15-12-2008 02:58:25 -0.1 C 4.43 g/m*3 -0.1 C 0 km/h
1575 15-12-2008 03:10:25 -0.2 C 4.4 g/m*3 -0.2 C 0 km/h
Sensor: Nr:Datum:Temp:Abs-Feuchte:Windchill:Wind:
Aussen-T/F 1576 15-12-2008 03:22:25 -0.3 C 4.41 g/m*3 -0.3 C 0 km/h
1577 15-12-2008 03:34:25 -0.4 C 4.38 g/m*3 -0.4 C 0 km/h
1578 15-12-2008 03:46:25 -0.3 C 4.41 g/m*3 -0.3 C 0 km/h
1579 15-12-2008 03:58:26 -0.4 C 4.38 g/m*3 -0.4 C 0 km/h
1580 15-12-2008 04:10:26 -0.4 C 4.38 g/m*3 -0.4 C 0 km/h
1581 15-12-2008 04:22:26 -0.3 C 4.46 g/m*3 -0.3 C 0 km/h
1582 15-12-2008 04:34:26 -0.3 C 4.46 g/m*3 -0.3 C 0 km/h
1583 15-12-2008 04:46:26 -0.3 C 4.46 g/m*3 -0.3 C 0 km/h
1584 15-12-2008 04:58:26 -0.3 C 4.46 g/m*3 -0.3 C 0 km/h
1585 15-12-2008 05:10:26 -0.5 C 4.4 g/m*3 -0.5 C 0 km/h
1586 15-12-2008 05:22:26 -0.4 C 4.43 g/m*3 -0.4 C 0 km/h
1587 15-12-2008 05:34:26 -0.5 C 4.4 g/m*3 -0.5 C 0 km/h
1588 15-12-2008 05:46:26 -0.6 C 4.37 g/m*3 -0.6 C 0 km/h
1589 15-12-2008 05:58:26 -0.9 C 4.28 g/m*3 -0.9 C 0 km/h
1590 15-12-2008 06:10:26 -1 C 4.25 g/m*3 -1 C 0 km/h
1591 15-12-2008 06:22:26 -1 C 4.25 g/m*3 -1 C 0 km/h
1592 15-12-2008 06:34:24 -1.1 C 4.26 g/m*3 -1.1 C 0 km/h
1593 15-12-2008 06:46:23 -1.3 C 4.16 g/m*3 -1.3 C 0 km/h
1594 15-12-2008 06:58:23 -1.6 C 4.07 g/m*3 -1.6 C 0 km/h
1595 15-12-2008 07:10:24 -1.4 C 4.18 g/m*3 -1.4 C 0 km/h
1596 15-12-2008 07:22:23 -1.5 C 4.15 g/m*3 -1.5 C 0 km/h
1597 15-12-2008 07:34:23 -1.4 C 4.18 g/m*3 -1.4 C 0 km/h
1598 15-12-2008 07:46:22 -1.4 C 4.18 g/m*3 -1.4 C 0 km/h
1599 15-12-2008 07:58:22 -1.6 C 4.12 g/m*3 -1.6 C 0 km/h
1600 15-12-2008 08:10:23 -1.7 C 4.09 g/m*3 -1.7 C 0 km/h
Sensor: Nr:Datum:Temp:Abs-Feuchte:Windchill:Wind:
Aussen-T/F 1601 15-12-2008 08:22:23 -1.9 C 4.03 g/m*3 -1.9 C 0 km/h
1602 15-12-2008 08:34:22 -2 C 4 g/m*3 -2 C 0 km/h
1603 15-12-2008 08:46:23 -2 C 4 g/m*3 -2 C 0 km/h
1604 15-12-2008 08:58:23 -2.1 C 3.98 g/m*3 -2.1 C 0 km/h
1605 15-12-2008 09:10:22 -2.1 C 3.98 g/m*3 -2.1 C 0 km/h
1606 15-12-2008 09:22:22 -1.8 C 4.06 g/m*3 -1.8 C 0 km/h
1607 15-12-2008 09:34:22 -1.8 C 4.06 g/m*3 -1.8 C 0 km/h
1608 15-12-2008 09:46:22 -1.8 C 4.06 g/m*3 -1.8 C 0 km/h
1609 15-12-2008 09:58:22 -1.7 C 4.09 g/m*3 -1.7 C 0 km/h
1610 15-12-2008 10:10:22 -1.6 C 4.12 g/m*3 -1.6 C 0 km/h
1611 15-12-2008 10:22:21 -1.5 C 4.15 g/m*3 -1.5 C 0 km/h
1612 15-12-2008 10:34:22 -1.4 C 4.18 g/m*3 -1.4 C 0 km/h
1613 15-12-2008 10:46:21 -1.1 C 4.26 g/m*3 -1.1 C 0 km/h
1614 15-12-2008 10:58:21 -0.9 C 4.32 g/m*3 -0.9 C 0 km/h
1615 15-12-2008 11:10:21 -0.7 C 4.39 g/m*3 -0.7 C 0 km/h
1616 15-12-2008 11:22:21 -0.8 C 4.35 g/m*3 -0.8 C 0 km/h
1617 15-12-2008 11:34:21 -0.7 C 4.39 g/m*3 -0.7 C 0 km/h
1618 15-12-2008 11:46:20 -0.6 C 4.42 g/m*3 -0.6 C 0 km/h
1619 15-12-2008 11:58:20 -0.4 C 4.48 g/m*3 -0.4 C 0 km/h
1620 15-12-2008 12:10:21 -0.2 C 4.54 g/m*3 -0.2 C 0 km/h
1621 15-12-2008 12:22:21 -0.2 C 4.54 g/m*3 -0.2 C 0 km/h
1622 15-12-2008 12:34:20 0.1 C 4.63 g/m*3 0.1 C 0 km/h
1623 15-12-2008 12:46:21 0.2 C 4.67 g/m*3 0.2 C 0 km/h
1624 15-12-2008 12:58:21 0.3 C 4.7 g/m*3 0.3 C 0 km/h
1625 15-12-2008 13:10:20 0.5 C 4.76 g/m*3 0.5 C 0 km/h
Sensor: Nr:Datum:Temp:Abs-Feuchte:Windchill:Wind:
Aussen-T/F 1626 15-12-2008 13:22:20 0.5 C 4.76 g/m*3 0.5 C 0 km/h
1627 15-12-2008 13:34:19 0.5 C 4.76 g/m*3 0.5 C 0 km/h
1628 15-12-2008 13:46:20 0.7 C 4.83 g/m*3 0.7 C 0 km/h
1629 15-12-2008 13:58:20 0.7 C 4.83 g/m*3 0.7 C 0 km/h
1630 15-12-2008 14:10:19 0.8 C 4.86 g/m*3 0.8 C 0 km/h
1631 15-12-2008 14:22:19 1 C 4.93 g/m*3 1 C 0 km/h
1632 15-12-2008 14:34:20 1 C 4.93 g/m*3 1 C 0 km/h
1633 15-12-2008 14:46:19 1.1 C 4.96 g/m*3 1.1 C 0 km/h
1634 15-12-2008 14:58:19 1.1 C 4.96 g/m*3 1.1 C 0 km/h
1635 15-12-2008 15:10:19 1.1 C 4.96 g/m*3 1.1 C 0 km/h
1636 15-12-2008 15:22:19 1 C 4.93 g/m*3 1 C 0 km/h
1637 15-12-2008 15:34:19 1 C 4.93 g/m*3 1 C 0 km/h
1638 15-12-2008 15:46:18 0.9 C 4.9 g/m*3 0.9 C 0 km/h
1639 15-12-2008 15:58:18 0.7 C 4.83 g/m*3 0.7 C 0 km/h
1640 15-12-2008 16:10:19 0.7 C 4.83 g/m*3 0.7 C 0 km/h
1641 15-12-2008 16:22:19 0.5 C 4.76 g/m*3 0.5 C 0 km/h
1642 15-12-2008 16:34:18 0.2 C 4.67 g/m*3 0.2 C 0 km/h
1643 15-12-2008 16:46:18 0.2 C 4.67 g/m*3 0.2 C 0 km/h
1644 15-12-2008 16:58:18 0 C 4.6 g/m*3 0 C 0 km/h
1645 15-12-2008 17:10:18 -0.1 C 4.57 g/m*3 -0.1 C 0 km/h
1646 15-12-2008 17:22:18 0 C 4.6 g/m*3 0 C 0 km/h
1647 15-12-2008 17:34:17 0.3 C 4.7 g/m*3 0.3 C 0 km/h
1648 15-12-2008 17:46:18 0.3 C 4.7 g/m*3 0.3 C 0 km/h
1649 15-12-2008 17:58:18 0.2 C 4.67 g/m*3 0.2 C 0 km/h
1650 15-12-2008 18:10:17 0.1 C 4.63 g/m*3 0.1 C 0 km/h
Sensor: Nr:Datum:Temp:Abs-Feuchte:Windchill:Wind:
Aussen-T/F 1651 15-12-2008 18:22:17 0.1 C 4.63 g/m*3 0.1 C 0 km/h
1652 15-12-2008 18:34:18 0.1 C 4.63 g/m*3 0.1 C 0 km/h
1653 15-12-2008 18:46:17 0.2 C 4.67 g/m*3 0.2 C 0 km/h
1654 15-12-2008 18:58:17 0.2 C 4.67 g/m*3 0.2 C 0 km/h
1655 15-12-2008 19:10:17 0.3 C 4.7 g/m*3 0.3 C 0 km/h
1656 15-12-2008 19:22:17 0.3 C 4.7 g/m*3 0.3 C 0 km/h
1657 15-12-2008 19:34:16 0.4 C 4.73 g/m*3 0.4 C 0 km/h
1658 15-12-2008 19:46:17 0.4 C 4.73 g/m*3 0.4 C 0 km/h
1659 15-12-2008 19:58:17 0.4 C 4.73 g/m*3 0.4 C 0 km/h
1660 15-12-2008 20:10:16 0.4 C 4.73 g/m*3 0.4 C 0 km/h
1661 15-12-2008 20:22:16 0.4 C 4.73 g/m*3 0.4 C 0 km/h
1662 15-12-2008 20:34:16 0.6 C 4.8 g/m*3 0.6 C 0 km/h
1663 15-12-2008 20:46:16 0.6 C 4.8 g/m*3 0.6 C 0 km/h
1664 15-12-2008 20:58:16 0.6 C 4.8 g/m*3 0.6 C 0 km/h
1665 15-12-2008 21:10:15 0.6 C 4.8 g/m*3 0.6 C 0 km/h
1666 15-12-2008 21:22:16 0.6 C 4.8 g/m*3 0.6 C 0 km/h
1667 15-12-2008 21:34:16 0.5 C 4.76 g/m*3 0.5 C 0 km/h
1668 15-12-2008 21:46:15 0.6 C 4.8 g/m*3 0.6 C 0 km/h
1669 15-12-2008 21:58:15 0.6 C 4.8 g/m*3 0.6 C 0 km/h
1670 15-12-2008 22:10:16 0.6 C 4.8 g/m*3 0.6 C 0 km/h
1671 15-12-2008 22:23:15 0.6 C 4.8 g/m*3 0.6 C 0 km/h
1672 15-12-2008 22:35:15 0.6 C 4.8 g/m*3 0.6 C 0 km/h
1673 15-12-2008 22:47:15 0.6 C 4.8 g/m*3 0.6 C 0 km/h
1674 15-12-2008 22:59:15 0.6 C 4.8 g/m*3 0.6 C 0 km/h
1675 15-12-2008 23:11:15 0.6 C 4.8 g/m*3 0.6 C 0 km/h
Sensor: Nr:Datum:Temp:Abs-Feuchte:Windchill:Wind:
Aussen-T/F 1676 15-12-2008 23:23:15 0.6 C 4.8 g/m*3 0.6 C 0 km/h
1677 15-12-2008 23:35:15 0.6 C 4.8 g/m*3 0.6 C 0 km/h
1678 15-12-2008 23:47:15 0.6 C 4.8 g/m*3 0.6 C 0 km/h
1679 15-12-2008 23:59:15 0.6 C 4.8 g/m*3 0.6 C 0 km/h
1680 16-12-2008 00:11:16 0.7 C 4.83 g/m*3 0.7 C 0 km/h
1681 16-12-2008 00:23:16 0.7 C 4.83 g/m*3 0.7 C 0 km/h
1682 16-12-2008 00:35:16 0.7 C 4.83 g/m*3 0.7 C 0 km/h
1683 16-12-2008 00:47:16 0.6 C 4.8 g/m*3 0.6 C 0 km/h
1684 16-12-2008 00:59:16 0.6 C 4.8 g/m*3 0.6 C 0 km/h
1685 16-12-2008 01:11:16 0.6 C 4.8 g/m*3 0.6 C 0 km/h
1686 16-12-2008 01:23:16 0.6 C 4.8 g/m*3 0.6 C 0 km/h
1687 16-12-2008 01:35:16 0.6 C 4.8 g/m*3 0.6 C 0 km/h
1688 16-12-2008 01:47:16 0.6 C 4.8 g/m*3 0.6 C 0 km/h
1689 16-12-2008 01:59:16 0.6 C 4.8 g/m*3 0.6 C 0 km/h
1690 16-12-2008 02:11:16 0.6 C 4.8 g/m*3 0.6 C 0 km/h
1691 16-12-2008 02:23:16 0.6 C 4.8 g/m*3 0.6 C 0 km/h
1692 16-12-2008 02:35:16 0.5 C 4.76 g/m*3 0.5 C 0 km/h
1693 16-12-2008 02:47:16 0.5 C 4.76 g/m*3 0.5 C 0 km/h
1694 16-12-2008 02:59:16 0.5 C 4.76 g/m*3 0.5 C 0 km/h
1695 16-12-2008 03:11:16 0.4 C 4.73 g/m*3 0.4 C 0 km/h
1696 16-12-2008 03:23:16 0.4 C 4.73 g/m*3 0.4 C 0 km/h
1697 16-12-2008 03:35:16 0.3 C 4.7 g/m*3 0.3 C 0 km/h
1698 16-12-2008 03:47:16 0.3 C 4.7 g/m*3 0.3 C 0 km/h
1699 16-12-2008 03:59:17 0.3 C 4.7 g/m*3 0.3 C 0 km/h
1700 16-12-2008 04:11:17 0.3 C 4.65 g/m*3 0.3 C 0 km/h
Sensor: Nr:Datum:Temp:Abs-Feuchte:Windchill:Wind:
Aussen-T/F 1701 16-12-2008 04:23:17 0.3 C 4.65 g/m*3 0.3 C 0 km/h
1702 16-12-2008 04:35:17 0.3 C 4.65 g/m*3 0.3 C 0 km/h
1703 16-12-2008 04:47:17 0.2 C 4.62 g/m*3 0.2 C 0 km/h
1704 16-12-2008 04:59:17 0.1 C 4.59 g/m*3 0.1 C 0 km/h
1705 16-12-2008 05:11:17 0.2 C 4.62 g/m*3 0.2 C 0 km/h
1706 16-12-2008 05:23:17 0.2 C 4.62 g/m*3 0.2 C 0 km/h
1707 16-12-2008 05:35:17 0.2 C 4.62 g/m*3 0.2 C 0 km/h
1708 16-12-2008 05:47:17 0.2 C 4.57 g/m*3 0.2 C 0 km/h
1709 16-12-2008 05:59:17 0 C 4.51 g/m*3 0 C 0 km/h
1710 16-12-2008 06:11:17 0 C 4.51 g/m*3 0 C 0 km/h
1711 16-12-2008 06:23:17 0 C 4.51 g/m*3 0 C 0 km/h
1712 16-12-2008 06:35:16 -0.1 C 4.47 g/m*3 -0.1 C 0 km/h
1713 16-12-2008 06:47:15 -0.2 C 4.4 g/m*3 -0.2 C 0 km/h
1714 16-12-2008 06:59:15 -0.2 C 4.4 g/m*3 -0.2 C 0 km/h
1715 16-12-2008 07:11:16 -0.2 C 4.4 g/m*3 -0.2 C 0 km/h
1716 16-12-2008 07:23:15 -0.2 C 4.4 g/m*3 -0.2 C 0 km/h
1717 16-12-2008 07:35:15 -0.1 C 4.43 g/m*3 -0.1 C 0 km/h
1718 16-12-2008 07:47:14 -0.1 C 4.43 g/m*3 -0.1 C 0 km/h
1719 16-12-2008 07:59:14 -0.1 C 4.43 g/m*3 -0.1 C 0 km/h
1720 16-12-2008 08:11:15 -0.1 C 4.43 g/m*3 -0.1 C 0 km/h
1721 16-12-2008 08:23:15 -0.2 C 4.4 g/m*3 -0.2 C 0 km/h
1722 16-12-2008 08:35:14 -0.3 C 4.37 g/m*3 -0.3 C 0 km/h
1723 16-12-2008 08:47:15 -0.3 C 4.32 g/m*3 -0.3 C 0 km/h
1724 16-12-2008 08:59:15 -0.3 C 4.32 g/m*3 -0.3 C 0 km/h
1725 16-12-2008 09:11:14 -0.2 C 4.35 g/m*3 -0.2 C 0 km/h
Sensor: Nr:Datum:Temp:Abs-Feuchte:Windchill:Wind:
Aussen-T/F 1726 16-12-2008 09:23:14 -0.2 C 4.35 g/m*3 -0.2 C 0 km/h
1727 16-12-2008 09:35:14 0 C 4.41 g/m*3 0 C 0 km/h
1728 16-12-2008 09:47:14 0 C 4.41 g/m*3 0 C 0 km/h
1729 16-12-2008 09:59:14 0.1 C 4.44 g/m*3 0.1 C 0 km/h
1730 16-12-2008 10:11:14 0 C 4.41 g/m*3 0 C 0 km/h
1731 16-12-2008 10:23:13 0 C 4.36 g/m*3 0 C 0 km/h
1732 16-12-2008 10:35:14 0 C 4.36 g/m*3 0 C 0 km/h
1733 16-12-2008 10:47:13 0 C 4.36 g/m*3 0 C 0 km/h
1734 16-12-2008 10:59:13 0 C 4.36 g/m*3 0 C 0 km/h
1735 16-12-2008 11:11:13 0 C 4.31 g/m*3 0 C 0 km/h
1736 16-12-2008 11:23:13 0.2 C 4.37 g/m*3 0.2 C 0 km/h
1737 16-12-2008 11:35:13 0.2 C 4.37 g/m*3 0.2 C 0 km/h
1738 16-12-2008 11:47:12 0.4 C 4.43 g/m*3 0.4 C 0 km/h
1739 16-12-2008 11:59:12 0.6 C 4.49 g/m*3 0.6 C 0 km/h
1740 16-12-2008 12:11:13 0.7 C 4.53 g/m*3 0.7 C 0 km/h
1741 16-12-2008 12:23:13 0.7 C 4.53 g/m*3 0.7 C 0 km/h
1742 16-12-2008 12:35:12 0.6 C 4.49 g/m*3 0.6 C 0 km/h
1743 16-12-2008 12:47:12 0.6 C 4.49 g/m*3 0.6 C 0 km/h
1744 16-12-2008 12:59:12 0.7 C 4.53 g/m*3 0.7 C 0 km/h
1745 16-12-2008 13:11:12 0.7 C 4.53 g/m*3 0.7 C 0 km/h
1746 16-12-2008 13:23:12 0.8 C 4.56 g/m*3 0.8 C 0 km/h
1747 16-12-2008 13:35:11 0.8 C 4.56 g/m*3 0.8 C 0 km/h
1748 16-12-2008 13:47:12 0.9 C 4.59 g/m*3 0.9 C 0 km/h
1749 16-12-2008 13:59:12 0.8 C 4.56 g/m*3 0.8 C 0 km/h
1750 16-12-2008 14:11:11 0.9 C 4.64 g/m*3 0.9 C 0 km/h
Sensor: Nr:Datum:Temp:Abs-Feuchte:Windchill:Wind:
Aussen-T/F 1751 16-12-2008 14:23:11 1 C 4.62 g/m*3 1 C 0 km/h
1752 16-12-2008 14:35:12 1 C 4.67 g/m*3 1 C 0 km/h
1753 16-12-2008 14:47:11 1 C 4.62 g/m*3 1 C 0 km/h
1754 16-12-2008 14:59:11 1 C 4.62 g/m*3 1 C 0 km/h
1755 16-12-2008 15:11:11 0.9 C 4.64 g/m*3 0.9 C 0 km/h
1756 16-12-2008 15:23:11 0.8 C 4.61 g/m*3 0.8 C 0 km/h
1757 16-12-2008 15:35:11 0.8 C 4.61 g/m*3 0.8 C 0 km/h
1758 16-12-2008 15:47:10 0.9 C 4.69 g/m*3 0.9 C 0 km/h
1759 16-12-2008 15:59:10 0.8 C 4.66 g/m*3 0.8 C 0 km/h
1760 16-12-2008 16:11:10 0.8 C 4.66 g/m*3 0.8 C 0 km/h
1761 16-12-2008 16:23:11 0.7 C 4.63 g/m*3 0.7 C 0 km/h
1762 16-12-2008 16:35:10 0.6 C 4.6 g/m*3 0.6 C 0 km/h
1763 16-12-2008 16:47:10 0.7 C 4.63 g/m*3 0.7 C 0 km/h
1764 16-12-2008 16:59:10 0.7 C 4.63 g/m*3 0.7 C 0 km/h
1765 16-12-2008 17:11:10 0.7 C 4.63 g/m*3 0.7 C 0 km/h
1766 16-12-2008 17:23:10 0.6 C 4.6 g/m*3 0.6 C 0 km/h
1767 16-12-2008 17:35:10 0.7 C 4.68 g/m*3 0.7 C 0 km/h
1768 16-12-2008 17:47:10 0.7 C 4.68 g/m*3 0.7 C 0 km/h
1769 16-12-2008 17:59:10 0.6 C 4.65 g/m*3 0.6 C 0 km/h
1770 16-12-2008 18:11:09 0.6 C 4.65 g/m*3 0.6 C 0 km/h
1771 16-12-2008 18:23:09 0.5 C 4.61 g/m*3 0.5 C 0 km/h
1772 16-12-2008 18:35:10 0.6 C 4.65 g/m*3 0.6 C 0 km/h
1773 16-12-2008 18:47:09 0.6 C 4.65 g/m*3 0.6 C 0 km/h
1774 16-12-2008 18:59:09 0.6 C 4.65 g/m*3 0.6 C 0 km/h
1775 16-12-2008 19:11:09 0.5 C 4.61 g/m*3 0.5 C 0 km/h
Sensor: Nr:Datum:Temp:Abs-Feuchte:Windchill:Wind:
Aussen-T/F 1776 16-12-2008 19:23:09 0.6 C 4.65 g/m*3 0.6 C 0 km/h
1777 16-12-2008 19:35:08 0.6 C 4.65 g/m*3 0.6 C 0 km/h
1778 16-12-2008 19:47:09 0.6 C 4.65 g/m*3 0.6 C 0 km/h
1779 16-12-2008 19:59:10 0.6 C 4.65 g/m*3 0.6 C 0 km/h
1780 16-12-2008 20:11:08 0.5 C 4.61 g/m*3 0.5 C 0 km/h
1781 16-12-2008 20:23:08 0.6 C 4.65 g/m*3 0.6 C 0 km/h
1782 16-12-2008 20:35:08 0.6 C 4.65 g/m*3 0.6 C 0 km/h
1783 16-12-2008 20:47:08 0.5 C 4.61 g/m*3 0.5 C 0 km/h
1784 16-12-2008 20:59:08 0.6 C 4.65 g/m*3 0.6 C 0 km/h
1785 16-12-2008 21:11:08 0.6 C 4.65 g/m*3 0.6 C 0 km/h
1786 16-12-2008 21:23:08 0.6 C 4.65 g/m*3 0.6 C 0 km/h
1787 16-12-2008 21:35:07 0.6 C 4.65 g/m*3 0.6 C 0 km/h
1788 16-12-2008 21:48:08 0.6 C 4.65 g/m*3 0.6 C 0 km/h
1789 16-12-2008 22:00:08 0.5 C 4.61 g/m*3 0.5 C 0 km/h
1790 16-12-2008 22:12:08 0.5 C 4.61 g/m*3 0.5 C 0 km/h
1791 16-12-2008 22:24:08 0.5 C 4.61 g/m*3 0.5 C 0 km/h
1792 16-12-2008 22:36:08 0.5 C 4.61 g/m*3 0.5 C 0 km/h
1793 16-12-2008 22:48:08 0.5 C 4.61 g/m*3 0.5 C 0 km/h
1794 16-12-2008 23:00:08 0.5 C 4.61 g/m*3 0.5 C 0 km/h
1795 16-12-2008 23:12:08 0.5 C 4.61 g/m*3 0.5 C 0 km/h
1796 16-12-2008 23:24:08 0.5 C 4.61 g/m*3 0.5 C 0 km/h
1797 16-12-2008 23:36:08 0.5 C 4.61 g/m*3 0.5 C 0 km/h
1798 16-12-2008 23:48:08 0.5 C 4.61 g/m*3 0.5 C 0 km/h
1799 17-12-2008 00:00:09 0.5 C 4.61 g/m*3 0.5 C 0 km/h
1800 17-12-2008 00:12:09 0.3 C 4.55 g/m*3 0.3 C 0 km/h
Sensor: Nr:Datum:Temp:Abs-Feuchte:Windchill:Wind:
Aussen-T/F 1801 17-12-2008 00:24:09 0.4 C 4.58 g/m*3 0.4 C 0 km/h
1802 17-12-2008 00:36:09 0.5 C 4.61 g/m*3 0.5 C 0 km/h
1803 17-12-2008 00:48:09 0.3 C 4.55 g/m*3 0.3 C 0 km/h
1804 17-12-2008 01:00:09 0.3 C 4.55 g/m*3 0.3 C 0 km/h
1805 17-12-2008 01:12:09 0.3 C 4.55 g/m*3 0.3 C 0 km/h
1806 17-12-2008 01:24:09 0.2 C 4.52 g/m*3 0.2 C 0 km/h
1807 17-12-2008 01:36:09 0.1 C 4.49 g/m*3 0.1 C 0 km/h
1808 17-12-2008 01:48:09 0.1 C 4.49 g/m*3 0.1 C 0 km/h
1809 17-12-2008 02:00:09 0 C 4.46 g/m*3 0 C 0 km/h
1810 17-12-2008 02:12:09 0 C 4.46 g/m*3 0 C 0 km/h
1811 17-12-2008 02:24:09 -0.1 C 4.43 g/m*3 -0.1 C 0 km/h
1812 17-12-2008 02:36:09 -0.1 C 4.43 g/m*3 -0.1 C 0 km/h
1813 17-12-2008 02:48:09 -0.2 C 4.4 g/m*3 -0.2 C 0 km/h
1814 17-12-2008 03:00:09 -0.2 C 4.35 g/m*3 -0.2 C 0 km/h
1815 17-12-2008 03:12:09 -0.3 C 4.32 g/m*3 -0.3 C 0 km/h
1816 17-12-2008 03:24:09 -0.2 C 4.35 g/m*3 -0.2 C 0 km/h
1817 17-12-2008 03:36:09 -0.3 C 4.32 g/m*3 -0.3 C 0 km/h
1818 17-12-2008 03:48:09 -0.4 C 4.29 g/m*3 -0.4 C 0 km/h
1819 17-12-2008 04:00:10 -0.4 C 4.29 g/m*3 -0.4 C 0 km/h
1820 17-12-2008 04:12:10 -0.4 C 4.29 g/m*3 -0.4 C 0 km/h
1821 17-12-2008 04:24:10 -0.5 C 4.26 g/m*3 -0.5 C 0 km/h
1822 17-12-2008 04:36:10 -0.5 C 4.21 g/m*3 -0.5 C 0 km/h
1823 17-12-2008 04:48:10 -0.6 C 4.18 g/m*3 -0.6 C 0 km/h
1824 17-12-2008 05:00:10 -0.6 C 4.18 g/m*3 -0.6 C 0 km/h
1825 17-12-2008 05:12:10 -0.6 C 4.18 g/m*3 -0.6 C 0 km/h
Sensor: Nr:Datum:Temp:Abs-Feuchte:Windchill:Wind:
Aussen-T/F 1826 17-12-2008 05:24:10 -0.7 C 4.15 g/m*3 -0.7 C 0 km/h
1827 17-12-2008 05:36:10 -0.8 C 4.13 g/m*3 -0.8 C 0 km/h
1828 17-12-2008 05:48:10 -1 C 4.07 g/m*3 -1 C 0 km/h
1829 17-12-2008 06:00:10 -1.1 C 4 g/m*3 -1.1 C 0 km/h
1830 17-12-2008 06:12:10 -1.2 C 3.97 g/m*3 -1.2 C 0 km/h
1831 17-12-2008 06:24:10 -1.2 C 3.97 g/m*3 -1.2 C 0 km/h
1832 17-12-2008 06:36:10 -1.2 C 3.97 g/m*3 -1.2 C 0 km/h
1833 17-12-2008 06:48:10 -1.2 C 3.92 g/m*3 -1.2 C 0 km/h
1834 17-12-2008 07:00:10 -1.2 C 3.92 g/m*3 -1.2 C 0 km/h
1835 17-12-2008 07:12:09 -1.2 C 3.92 g/m*3 -1.2 C 0 km/h
1836 17-12-2008 07:24:08 -1.2 C 3.88 g/m*3 -1.2 C 0 km/h
1837 17-12-2008 07:36:08 -1.2 C 3.88 g/m*3 -1.2 C 0 km/h
1838 17-12-2008 07:48:08 -1.1 C 3.86 g/m*3 -1.1 C 0 km/h
1839 17-12-2008 08:00:08 -1 C 3.89 g/m*3 -1 C 0 km/h
1840 17-12-2008 08:12:08 -1 C 3.89 g/m*3 -1 C 0 km/h
1841 17-12-2008 08:24:08 -1.1 C 3.82 g/m*3 -1.1 C 0 km/h
1842 17-12-2008 08:36:08 -1.2 C 3.74 g/m*3 -1.2 C 0 km/h
1843 17-12-2008 08:48:08 -1.2 C 3.74 g/m*3 -1.2 C 0 km/h
1844 17-12-2008 09:00:08 -1.1 C 3.82 g/m*3 -1.1 C 0 km/h
1845 17-12-2008 09:12:08 -1.1 C 3.77 g/m*3 -1.1 C 0 km/h
1846 17-12-2008 09:24:07 -0.9 C 3.82 g/m*3 -0.9 C 0 km/h
1847 17-12-2008 09:36:07 -1 C 3.8 g/m*3 -1 C 0 km/h
1848 17-12-2008 09:48:07 -0.9 C 3.78 g/m*3 -0.9 C 0 km/h
1849 17-12-2008 10:00:07 -0.9 C 3.78 g/m*3 -0.9 C 0 km/h
1850 17-12-2008 10:12:07 -0.7 C 3.78 g/m*3 -0.7 C 0 km/h
Sensor: Nr:Datum:Temp:Abs-Feuchte:Windchill:Wind:
Aussen-T/F 1851 17-12-2008 10:24:06 -0.7 C 3.78 g/m*3 -0.7 C 0 km/h
1852 17-12-2008 10:36:07 -0.6 C 3.76 g/m*3 -0.6 C 0 km/h
1853 17-12-2008 10:48:06 -0.4 C 3.82 g/m*3 -0.4 C 0 km/h
1854 17-12-2008 11:00:06 -0.3 C 3.8 g/m*3 -0.3 C 0 km/h
1855 17-12-2008 11:12:06 -0.1 C 3.85 g/m*3 -0.1 C 0 km/h
1856 17-12-2008 11:24:07 0.1 C 3.85 g/m*3 0.1 C 0 km/h
1857 17-12-2008 11:36:06 0.1 C 3.81 g/m*3 0.1 C 0 km/h
1858 17-12-2008 11:48:06 0 C 3.73 g/m*3 0 C 0 km/h
1859 17-12-2008 12:00:06 0.1 C 3.76 g/m*3 0.1 C 0 km/h
1860 17-12-2008 12:12:06 0.1 C 3.76 g/m*3 0.1 C 0 km/h
1861 17-12-2008 12:24:06 0.2 C 3.78 g/m*3 0.2 C 0 km/h
1862 17-12-2008 12:36:05 0.2 C 3.78 g/m*3 0.2 C 0 km/h
1863 17-12-2008 12:48:06 0.3 C 3.81 g/m*3 0.3 C 0 km/h
1864 17-12-2008 13:00:07 0.4 C 3.88 g/m*3 0.4 C 0 km/h
1865 17-12-2008 13:12:05 0.5 C 3.86 g/m*3 0.5 C 0 km/h
1866 17-12-2008 13:24:05 0.5 C 3.91 g/m*3 0.5 C 0 km/h
1867 17-12-2008 13:36:05 0.6 C 3.94 g/m*3 0.6 C 0 km/h
1868 17-12-2008 13:48:05 0.6 C 3.94 g/m*3 0.6 C 0 km/h
1869 17-12-2008 14:00:05 0.6 C 3.99 g/m*3 0.6 C 0 km/h
1870 17-12-2008 14:12:05 0.4 C 4.03 g/m*3 0.4 C 0 km/h
1871 17-12-2008 14:24:04 0.3 C 4.16 g/m*3 0.3 C 0 km/h
1872 17-12-2008 14:36:05 0.2 C 4.22 g/m*3 0.2 C 0 km/h
1873 17-12-2008 14:48:04 0.1 C 4.29 g/m*3 0.1 C 0 km/h
1874 17-12-2008 15:00:04 0.1 C 4.34 g/m*3 0.1 C 0 km/h
1875 17-12-2008 15:12:05 0.1 C 4.39 g/m*3 0.1 C 0 km/h
Sensor: Nr:Datum:Temp:Abs-Feuchte:Windchill:Wind:
Aussen-T/F 1876 17-12-2008 15:24:04 0.1 C 4.44 g/m*3 0.1 C 0 km/h
1877 17-12-2008 15:36:04 0.1 C 4.44 g/m*3 0.1 C 0 km/h
1878 17-12-2008 15:48:04 0.2 C 4.47 g/m*3 0.2 C 0 km/h
1879 17-12-2008 16:00:04 0.2 C 4.52 g/m*3 0.2 C 0 km/h
1880 17-12-2008 16:12:04 0.2 C 4.52 g/m*3 0.2 C 0 km/h
1881 17-12-2008 16:24:03 0.1 C 4.49 g/m*3 0.1 C 0 km/h
1882 17-12-2008 16:36:03 0 C 4.51 g/m*3 0 C 0 km/h
1883 17-12-2008 16:48:03 0 C 4.51 g/m*3 0 C 0 km/h
1884 17-12-2008 17:00:03 0 C 4.55 g/m*3 0 C 0 km/h
1885 17-12-2008 17:12:03 0.1 C 4.59 g/m*3 0.1 C 0 km/h
1886 17-12-2008 17:24:03 0.1 C 4.59 g/m*3 0.1 C 0 km/h
1887 17-12-2008 17:36:03 0.1 C 4.59 g/m*3 0.1 C 0 km/h
1888 17-12-2008 17:48:03 0.1 C 4.59 g/m*3 0.1 C 0 km/h
1889 17-12-2008 18:00:03 0.2 C 4.67 g/m*3 0.2 C 0 km/h
1890 17-12-2008 18:12:02 0.2 C 4.67 g/m*3 0.2 C 0 km/h
1891 17-12-2008 18:24:03 0.3 C 4.7 g/m*3 0.3 C 0 km/h
1892 17-12-2008 18:36:02 0.3 C 4.7 g/m*3 0.3 C 0 km/h
1893 17-12-2008 18:48:02 0.4 C 4.73 g/m*3 0.4 C 0 km/h
1894 17-12-2008 19:00:02 0.5 C 4.76 g/m*3 0.5 C 0 km/h
1895 17-12-2008 19:12:02 0.5 C 4.76 g/m*3 0.5 C 0 km/h
1896 17-12-2008 19:24:02 0.5 C 4.76 g/m*3 0.5 C 0 km/h
1897 17-12-2008 19:36:02 0.5 C 4.76 g/m*3 0.5 C 0 km/h
1898 17-12-2008 19:48:02 0.5 C 4.76 g/m*3 0.5 C 0 km/h
1899 17-12-2008 20:00:02 0.5 C 4.76 g/m*3 0.5 C 0 km/h
1900 17-12-2008 20:12:01 0.6 C 4.8 g/m*3 0.6 C 0 km/h
Sensor: Nr:Datum:Temp:Abs-Feuchte:Windchill:Wind:
Aussen-T/F 1901 17-12-2008 20:24:01 0.6 C 4.8 g/m*3 0.6 C 0 km/h
1902 17-12-2008 20:36:01 0.6 C 4.8 g/m*3 0.6 C 0 km/h
1903 17-12-2008 20:48:02 0.6 C 4.8 g/m*3 0.6 C 0 km/h
1904 17-12-2008 21:00:02 0.7 C 4.83 g/m*3 0.7 C 0 km/h
1905 17-12-2008 21:12:01 0.7 C 4.83 g/m*3 0.7 C 0 km/h
1906 17-12-2008 21:24:00 0.7 C 4.83 g/m*3 0.7 C 0 km/h
1907 17-12-2008 21:36:01 0.7 C 4.83 g/m*3 0.7 C 0 km/h
1908 17-12-2008 21:49:03 0.8 C 4.86 g/m*3 0.8 C 0 km/h
1909 17-12-2008 22:01:03 0.8 C 4.86 g/m*3 0.8 C 0 km/h
1910 17-12-2008 22:13:03 0.8 C 4.86 g/m*3 0.8 C 0 km/h
1911 17-12-2008 22:25:03 0.8 C 4.86 g/m*3 0.8 C 0 km/h
1912 17-12-2008 22:37:03 0.9 C 4.9 g/m*3 0.9 C 0 km/h
1913 17-12-2008 22:49:03 0.9 C 4.9 g/m*3 0.9 C 0 km/h
1914 17-12-2008 23:01:03 1 C 4.93 g/m*3 1 C 0 km/h
1915 17-12-2008 23:13:03 1 C 4.93 g/m*3 1 C 0 km/h
1916 17-12-2008 23:25:03 1 C 4.93 g/m*3 1 C 0 km/h
1917 17-12-2008 23:37:03 1 C 4.93 g/m*3 1 C 0 km/h
1918 17-12-2008 23:49:03 1 C 4.93 g/m*3 1 C 0 km/h
1919 18-12-2008 00:01:03 1 C 4.93 g/m*3 1 C 0 km/h
1920 18-12-2008 00:13:03 1 C 4.93 g/m*3 1 C 0 km/h
1921 18-12-2008 00:25:03 1.1 C 4.96 g/m*3 1.1 C 0 km/h
1922 18-12-2008 00:37:03 1.1 C 4.96 g/m*3 1.1 C 0 km/h
1923 18-12-2008 00:49:03 1.1 C 4.96 g/m*3 1.1 C 0 km/h
1924 18-12-2008 01:01:03 1.2 C 5 g/m*3 1.2 C 0 km/h
1925 18-12-2008 01:13:03 1.2 C 5 g/m*3 1.2 C 0 km/h
Sensor: Nr:Datum:Temp:Abs-Feuchte:Windchill:Wind:
Aussen-T/F 1926 18-12-2008 01:25:03 1.2 C 5 g/m*3 1.2 C 0 km/h
1927 18-12-2008 01:37:04 1.2 C 5 g/m*3 1.2 C 0 km/h
1928 18-12-2008 01:49:04 1.2 C 5 g/m*3 1.2 C 0 km/h
1929 18-12-2008 02:01:04 1.2 C 5 g/m*3 1.2 C 0 km/h
1930 18-12-2008 02:13:04 1.3 C 5.03 g/m*3 1.3 C 0 km/h
1931 18-12-2008 02:25:04 1.3 C 5.03 g/m*3 1.3 C 0 km/h
1932 18-12-2008 02:37:04 1.3 C 5.03 g/m*3 1.3 C 0 km/h
1933 18-12-2008 02:49:04 1.3 C 5.03 g/m*3 1.3 C 0 km/h
1934 18-12-2008 03:01:04 1.3 C 5.03 g/m*3 1.3 C 0 km/h
1935 18-12-2008 03:13:04 1.4 C 5.07 g/m*3 1.4 C 0 km/h
1936 18-12-2008 03:25:04 1.4 C 5.07 g/m*3 1.4 C 0 km/h
1937 18-12-2008 03:37:04 1.4 C 5.07 g/m*3 1.4 C 0 km/h
1938 18-12-2008 03:49:04 1.4 C 5.07 g/m*3 1.4 C 0 km/h
1939 18-12-2008 04:01:04 1.5 C 5.1 g/m*3 1.5 C 0 km/h
1940 18-12-2008 04:13:04 1.5 C 5.1 g/m*3 1.5 C 0 km/h
1941 18-12-2008 04:25:04 1.5 C 5.1 g/m*3 1.5 C 0 km/h
1942 18-12-2008 04:37:04 1.5 C 5.1 g/m*3 1.5 C 0 km/h
1943 18-12-2008 04:49:04 1.5 C 5.1 g/m*3 1.5 C 0 km/h
1944 18-12-2008 05:01:04 1.5 C 5.1 g/m*3 1.5 C 0 km/h
1945 18-12-2008 05:13:04 1.5 C 5.1 g/m*3 1.5 C 0 km/h
1946 18-12-2008 05:25:05 1.6 C 5.14 g/m*3 1.6 C 0 km/h
1947 18-12-2008 05:37:05 1.6 C 5.14 g/m*3 1.6 C 0 km/h
1948 18-12-2008 05:49:05 1.6 C 5.14 g/m*3 1.6 C 0 km/h
1949 18-12-2008 06:01:02 1.6 C 5.14 g/m*3 1.6 C 0 km/h
1950 18-12-2008 06:13:02 1.6 C 5.14 g/m*3 1.6 C 0 km/h
Sensor: Nr:Datum:Temp:Abs-Feuchte:Windchill:Wind:
Aussen-T/F 1951 18-12-2008 06:25:03 1.6 C 5.14 g/m*3 1.6 C 0 km/h
1952 18-12-2008 06:37:02 1.6 C 5.14 g/m*3 1.6 C 0 km/h
1953 18-12-2008 06:49:02 1.6 C 5.14 g/m*3 1.6 C 0 km/h
1954 18-12-2008 07:01:02 1.6 C 5.14 g/m*3 1.6 C 0 km/h
1955 18-12-2008 07:13:02 1.6 C 5.14 g/m*3 1.6 C 0 km/h
1956 18-12-2008 07:25:02 1.6 C 5.14 g/m*3 1.6 C 0 km/h
1957 18-12-2008 07:37:02 1.6 C 5.14 g/m*3 1.6 C 0 km/h
1958 18-12-2008 07:49:02 1.7 C 5.17 g/m*3 1.7 C 0 km/h
1959 18-12-2008 08:01:02 1.7 C 5.17 g/m*3 1.7 C 0 km/h
1960 18-12-2008 08:13:02 1.7 C 5.17 g/m*3 1.7 C 0 km/h
1961 18-12-2008 08:25:01 1.7 C 5.17 g/m*3 1.7 C 0 km/h
1962 18-12-2008 08:37:02 1.7 C 5.17 g/m*3 1.7 C 0 km/h
1963 18-12-2008 08:49:01 1.7 C 5.17 g/m*3 1.7 C 0 km/h
1964 18-12-2008 09:01:01 1.8 C 5.21 g/m*3 1.8 C 0 km/h
1965 18-12-2008 09:13:01 1.8 C 5.21 g/m*3 1.8 C 0 km/h
1966 18-12-2008 09:25:01 1.9 C 5.24 g/m*3 1.9 C 0 km/h
1967 18-12-2008 09:37:01 1.9 C 5.24 g/m*3 1.9 C 0 km/h
1968 18-12-2008 09:49:00 2 C 5.22 g/m*3 2 C 0 km/h
1969 18-12-2008 10:01:01 2.1 C 5.26 g/m*3 2.1 C 0 km/h
1970 18-12-2008 10:13:01 2 C 5.17 g/m*3 2 C 0 km/h
1971 18-12-2008 10:25:00 2.2 C 5.24 g/m*3 2.2 C 0 km/h
1972 18-12-2008 10:37:00 2.4 C 5.31 g/m*3 2.4 C 0 km/h
1973 18-12-2008 10:49:00 2.5 C 5.29 g/m*3 2.5 C 0 km/h
1974 18-12-2008 11:01:00 2.5 C 5.23 g/m*3 2.5 C 0 km/h
1975 18-12-2008 11:13:00 2.6 C 5.21 g/m*3 2.6 C 0 km/h
Sensor: Nr:Datum:Temp:Abs-Feuchte:Windchill:Wind:
Aussen-T/F 1976 18-12-2008 11:25:00 2.7 C 5.13 g/m*3 2.7 C 0 km/h
1977 18-12-2008 11:36:59 2.7 C 5.07 g/m*3 2.7 C 0 km/h
1978 18-12-2008 11:49:00 2.7 C 5.01 g/m*3 2.7 C 0 km/h
1979 18-12-2008 12:01:59 2.6 C 4.92 g/m*3 2.6 C 0 km/h
1980 18-12-2008 12:13:59 2.5 C 4.89 g/m*3 2.5 C 0 km/h
1981 18-12-2008 12:25:00 2.6 C 4.92 g/m*3 2.6 C 0 km/h
1982 18-12-2008 12:37:59 2.6 C 4.86 g/m*3 2.6 C 0 km/h
1983 18-12-2008 12:49:59 2.7 C 4.84 g/m*3 2.7 C 0 km/h
1984 18-12-2008 13:01:59 2.7 C 4.72 g/m*3 2.7 C 0 km/h
1985 18-12-2008 13:13:59 2.5 C 4.6 g/m*3 2.5 C 0 km/h
1986 18-12-2008 13:25:59 2.5 C 4.66 g/m*3 2.5 C 0 km/h
1987 18-12-2008 13:37:58 2.6 C 4.63 g/m*3 2.6 C 0 km/h
1988 18-12-2008 13:49:59 2.8 C 4.63 g/m*3 2.8 C 0 km/h
1989 18-12-2008 14:01:58 3 C 4.58 g/m*3 3 C 0 km/h
1990 18-12-2008 14:13:58 3.1 C 4.55 g/m*3 3.1 C 0 km/h
1991 18-12-2008 14:25:58 3.1 C 4.55 g/m*3 3.1 C 0 km/h
1992 18-12-2008 14:37:58 3.1 C 4.61 g/m*3 3.1 C 0 km/h
1993 18-12-2008 14:49:58 3.1 C 4.61 g/m*3 3.1 C 0 km/h
1994 18-12-2008 15:01:58 3 C 4.52 g/m*3 3 C 0 km/h
1995 18-12-2008 15:13:58 2.9 C 4.55 g/m*3 2.9 C 0 km/h
1996 18-12-2008 15:25:57 2.9 C 4.61 g/m*3 2.9 C 0 km/h
1997 18-12-2008 15:37:58 3 C 4.64 g/m*3 3 C 0 km/h
1998 18-12-2008 15:49:57 3 C 4.64 g/m*3 3 C 0 km/h
1999 18-12-2008 16:01:57 2.9 C 4.72 g/m*3 2.9 C 0 km/h
2000 18-12-2008 16:13:57 2.9 C 4.72 g/m*3 2.9 C 0 km/h
Sensor: Nr:Datum:Temp:Abs-Feuchte:Windchill:Wind:
Aussen-T/F 2001 18-12-2008 16:25:57 2.8 C 4.69 g/m*3 2.8 C 0 km/h
2002 18-12-2008 16:37:57 2.7 C 4.72 g/m*3 2.7 C 0 km/h
2003 18-12-2008 16:49:57 2.7 C 4.78 g/m*3 2.7 C 0 km/h
2004 18-12-2008 17:01:56 2.6 C 4.75 g/m*3 2.6 C 0 km/h
2005 18-12-2008 17:13:56 2.5 C 4.77 g/m*3 2.5 C 0 km/h
2006 18-12-2008 17:25:57 2.4 C 4.85 g/m*3 2.4 C 0 km/h
2007 18-12-2008 17:37:56 2.3 C 4.88 g/m*3 2.3 C 0 km/h
2008 18-12-2008 17:49:57 2.3 C 4.93 g/m*3 2.3 C 0 km/h
2009 18-12-2008 18:01:56 2.3 C 4.93 g/m*3 2.3 C 0 km/h
2010 18-12-2008 18:13:56 2.3 C 4.99 g/m*3 2.3 C 0 km/h
2011 18-12-2008 18:25:56 2.3 C 4.99 g/m*3 2.3 C 0 km/h
2012 18-12-2008 18:37:55 2.3 C 4.99 g/m*3 2.3 C 0 km/h
2013 18-12-2008 18:49:56 2.4 C 5.02 g/m*3 2.4 C 0 km/h
2014 18-12-2008 19:01:55 2.5 C 5.06 g/m*3 2.5 C 0 km/h
2015 18-12-2008 19:13:55 2.5 C 5.06 g/m*3 2.5 C 0 km/h
2016 18-12-2008 19:25:55 2.5 C 5.06 g/m*3 2.5 C 0 km/h
2017 18-12-2008 19:37:56 2.6 C 5.09 g/m*3 2.6 C 0 km/h
2018 18-12-2008 19:49:55 2.7 C 5.13 g/m*3 2.7 C 0 km/h
2019 18-12-2008 20:01:55 2.6 C 5.09 g/m*3 2.6 C 0 km/h
2020 18-12-2008 20:13:55 2.6 C 5.09 g/m*3 2.6 C 0 km/h
2021 18-12-2008 20:25:55 2.5 C 5.12 g/m*3 2.5 C 0 km/h
2022 18-12-2008 20:37:55 2.5 C 5.12 g/m*3 2.5 C 0 km/h
2023 18-12-2008 20:49:54 2.5 C 5.12 g/m*3 2.5 C 0 km/h
2024 18-12-2008 21:01:54 2.6 C 5.15 g/m*3 2.6 C 0 km/h
2025 18-12-2008 21:13:54 2.6 C 5.15 g/m*3 2.6 C 0 km/h
Sensor: Nr:Datum:Temp:Abs-Feuchte:Windchill:Wind:
Aussen-T/F 2026 18-12-2008 21:25:55 2.6 C 5.15 g/m*3 2.6 C 0 km/h
2027 18-12-2008 21:37:54 2.7 C 5.13 g/m*3 2.7 C 0 km/h
2028 18-12-2008 21:49:54 2.8 C 5.1 g/m*3 2.8 C 0 km/h
2029 18-12-2008 22:01:54 2.8 C 5.04 g/m*3 2.8 C 0 km/h
2030 18-12-2008 22:13:54 2.9 C 5.02 g/m*3 2.9 C 0 km/h
2031 18-12-2008 22:26:55 2.8 C 4.99 g/m*3 2.8 C 0 km/h
2032 18-12-2008 22:38:55 2.8 C 4.99 g/m*3 2.8 C 0 km/h
2033 18-12-2008 22:50:55 2.7 C 5.01 g/m*3 2.7 C 0 km/h
2034 18-12-2008 23:02:55 2.7 C 5.07 g/m*3 2.7 C 0 km/h
2035 18-12-2008 23:14:55 2.5 C 5.12 g/m*3 2.5 C 0 km/h
2036 18-12-2008 23:26:55 2.6 C 5.21 g/m*3 2.6 C 0 km/h
2037 18-12-2008 23:38:55 2.6 C 5.21 g/m*3 2.6 C 0 km/h
2038 18-12-2008 23:50:55 2.6 C 5.21 g/m*3 2.6 C 0 km/h
2039 19-12-2008 00:02:55 2.7 C 5.24 g/m*3 2.7 C 0 km/h
2040 19-12-2008 00:14:55 2.8 C 5.28 g/m*3 2.8 C 0 km/h
2041 19-12-2008 00:26:55 2.9 C 5.26 g/m*3 2.9 C 0 km/h
2042 19-12-2008 00:38:55 2.9 C 5.26 g/m*3 2.9 C 0 km/h
2043 19-12-2008 00:50:55 2.8 C 5.22 g/m*3 2.8 C 0 km/h
2044 19-12-2008 01:02:55 2.8 C 5.22 g/m*3 2.8 C 0 km/h
2045 19-12-2008 01:14:55 2.9 C 5.26 g/m*3 2.9 C 0 km/h
2046 19-12-2008 01:26:55 3 C 5.23 g/m*3 3 C 0 km/h
2047 19-12-2008 01:38:55 3.1 C 5.27 g/m*3 3.1 C 0 km/h
2048 19-12-2008 01:50:56 3.2 C 5.3 g/m*3 3.2 C 0 km/h
2049 19-12-2008 02:02:56 3.3 C 5.34 g/m*3 3.3 C 0 km/h
2050 19-12-2008 02:14:56 3.3 C 5.28 g/m*3 3.3 C 0 km/h
Sensor: Nr:Datum:Temp:Abs-Feuchte:Windchill:Wind:
Aussen-T/F 2051 19-12-2008 02:26:56 3.5 C 5.35 g/m*3 3.5 C 0 km/h
2052 19-12-2008 02:38:56 3.5 C 5.35 g/m*3 3.5 C 0 km/h
2053 19-12-2008 02:50:56 3.6 C 5.39 g/m*3 3.6 C 0 km/h
2054 19-12-2008 03:02:56 3.5 C 5.35 g/m*3 3.5 C 0 km/h
2055 19-12-2008 03:14:56 3.6 C 5.32 g/m*3 3.6 C 0 km/h
2056 19-12-2008 03:26:56 3.6 C 5.32 g/m*3 3.6 C 0 km/h
2057 19-12-2008 03:38:56 3.5 C 5.29 g/m*3 3.5 C 0 km/h
2058 19-12-2008 03:50:56 3.4 C 5.25 g/m*3 3.4 C 0 km/h
2059 19-12-2008 04:02:56 3.4 C 5.31 g/m*3 3.4 C 0 km/h
2060 19-12-2008 04:14:56 3.4 C 5.31 g/m*3 3.4 C 0 km/h
2061 19-12-2008 04:26:56 3.5 C 5.35 g/m*3 3.5 C 0 km/h
2062 19-12-2008 04:38:56 3.4 C 5.37 g/m*3 3.4 C 0 km/h
2063 19-12-2008 04:50:56 3.2 C 5.36 g/m*3 3.2 C 0 km/h
2064 19-12-2008 05:02:56 3.2 C 5.42 g/m*3 3.2 C 0 km/h
2065 19-12-2008 05:14:56 3.3 C 5.52 g/m*3 3.3 C 0 km/h
2066 19-12-2008 05:26:56 3.3 C 5.58 g/m*3 3.3 C 0 km/h
2067 19-12-2008 05:38:57 3.3 C 5.64 g/m*3 3.3 C 0 km/h
2068 19-12-2008 05:50:57 3.4 C 5.68 g/m*3 3.4 C 0 km/h
2069 19-12-2008 06:02:57 3.4 C 5.68 g/m*3 3.4 C 0 km/h
2070 19-12-2008 06:14:57 3.4 C 5.68 g/m*3 3.4 C 0 km/h
2071 19-12-2008 06:26:57 3.4 C 5.68 g/m*3 3.4 C 0 km/h
2072 19-12-2008 06:38:57 3.5 C 5.78 g/m*3 3.5 C 0 km/h
2073 19-12-2008 06:50:55 3.5 C 5.78 g/m*3 3.5 C 0 km/h
2074 19-12-2008 07:02:55 3.6 C 5.82 g/m*3 3.6 C 0 km/h
2075 19-12-2008 07:14:54 3.6 C 5.88 g/m*3 3.6 C 0 km/h
Sensor: Nr:Datum:Temp:Abs-Feuchte:Windchill:Wind:
Aussen-T/F 2076 19-12-2008 07:26:54 3.7 C 5.92 g/m*3 3.7 C 0 km/h
2077 19-12-2008 07:38:54 3.8 C 5.96 g/m*3 3.8 C 0 km/h
2078 19-12-2008 07:50:54 3.9 C 6 g/m*3 3.9 C 0 km/h
2079 19-12-2008 08:02:53 3.8 C 5.96 g/m*3 3.8 C 0 km/h
2080 19-12-2008 08:14:54 4 C 6.04 g/m*3 4 C 0 km/h
2081 19-12-2008 08:26:54 4.2 C 6.06 g/m*3 4.2 C 0 km/h
2082 19-12-2008 08:38:54 4.3 C 6.1 g/m*3 4.3 C 0 km/h
2083 19-12-2008 08:50:53 4.3 C 6.1 g/m*3 4.3 C 0 km/h
2084 19-12-2008 09:02:54 4.3 C 6.1 g/m*3 4.3 C 0 km/h
2085 19-12-2008 09:14:53 4.4 C 6.14 g/m*3 4.4 C 0 km/h
2086 19-12-2008 09:26:53 4.5 C 6.18 g/m*3 4.5 C 0 km/h
2087 19-12-2008 09:38:53 4.6 C 6.22 g/m*3 4.6 C 0 km/h
2088 19-12-2008 09:50:53 4.7 C 6.19 g/m*3 4.7 C 0 km/h
2089 19-12-2008 10:02:53 4.8 C 6.24 g/m*3 4.8 C 0 km/h
2090 19-12-2008 10:14:52 5 C 6.25 g/m*3 5 C 0 km/h
2091 19-12-2008 10:26:52 5 C 6.18 g/m*3 5 C 0 km/h
2092 19-12-2008 10:38:52 5.2 C 6.27 g/m*3 5.2 C 0 km/h
2093 19-12-2008 10:50:52 5.4 C 6.28 g/m*3 5.4 C 0 km/h
2094 19-12-2008 11:02:52 5.3 C 6.17 g/m*3 5.3 C 0 km/h
2095 19-12-2008 11:14:53 5.4 C 6.21 g/m*3 5.4 C 0 km/h
2096 19-12-2008 11:26:53 5.6 C 6.29 g/m*3 5.6 C 0 km/h
2097 19-12-2008 11:38:52 5.8 C 6.02 g/m*3 5.8 C 0 km/h
2098 19-12-2008 11:50:52 5.9 C 5.91 g/m*3 5.9 C 0 km/h
2099 19-12-2008 12:02:52 6.1 C 5.7 g/m*3 6.1 C 0 km/h
2100 19-12-2008 12:14:52 6.5 C 5.77 g/m*3 6.5 C 0 km/h
Sensor: Nr:Datum:Temp:Abs-Feuchte:Windchill:Wind:
Aussen-T/F 2101 19-12-2008 12:26:52 6.7 C 5.24 g/m*3 6.7 C 0 km/h
2102 19-12-2008 12:38:51 6.8 C 5.05 g/m*3 6.8 C 0 km/h
2103 19-12-2008 12:50:51 6.8 C 5.2 g/m*3 6.8 C 0 km/h
2104 19-12-2008 13:02:51 6.5 C 5.1 g/m*3 6.5 C 0 km/h
2105 19-12-2008 13:14:51 6.6 C 5.21 g/m*3 6.6 C 0 km/h
2106 19-12-2008 13:26:51 6.9 C 5.16 g/m*3 6.9 C 0 km/h
2107 19-12-2008 13:38:51 7 C 5.11 g/m*3 7 C 0 km/h
2108 19-12-2008 13:50:51 6.5 C 5.02 g/m*3 6.5 C 0 km/h
2109 19-12-2008 14:02:51 6.1 C 4.89 g/m*3 6.1 C 0 km/h
2110 19-12-2008 14:14:50 5.8 C 4.87 g/m*3 5.8 C 0 km/h
2111 19-12-2008 14:26:50 6.3 C 4.96 g/m*3 6.3 C 0 km/h
2112 19-12-2008 14:38:51 6.1 C 4.82 g/m*3 6.1 C 0 km/h
2113 19-12-2008 14:50:50 6.2 C 4.78 g/m*3 6.2 C 0 km/h
2114 19-12-2008 15:02:50 6.6 C 4.76 g/m*3 6.6 C 0 km/h
2115 19-12-2008 15:14:50 6.6 C 4.6 g/m*3 6.6 C 0 km/h
2116 19-12-2008 15:26:50 6.5 C 4.72 g/m*3 6.5 C 0 km/h
2117 19-12-2008 15:38:50 6.4 C 4.77 g/m*3 6.4 C 0 km/h
2118 19-12-2008 15:50:49 6.5 C 4.8 g/m*3 6.5 C 0 km/h
2119 19-12-2008 16:02:49 6.4 C 4.62 g/m*3 6.4 C 0 km/h
2120 19-12-2008 16:14:50 6.2 C 4.41 g/m*3 6.2 C 0 km/h
2121 19-12-2008 16:26:50 6 C 4.43 g/m*3 6 C 0 km/h
2122 19-12-2008 16:38:49 6 C 4.35 g/m*3 6 C 0 km/h
2123 19-12-2008 16:50:49 5.8 C 4.37 g/m*3 5.8 C 0 km/h
2124 19-12-2008 17:02:49 5.6 C 4.45 g/m*3 5.6 C 0 km/h
2125 19-12-2008 17:14:49 5.5 C 4.49 g/m*3 5.5 C 0 km/h
Sensor: Nr:Datum:Temp:Abs-Feuchte:Windchill:Wind:
Aussen-T/F 2126 19-12-2008 17:26:49 5.2 C 4.54 g/m*3 5.2 C 0 km/h
2127 19-12-2008 17:38:48 5.1 C 4.45 g/m*3 5.1 C 0 km/h
2128 19-12-2008 17:50:49 4.9 C 4.52 g/m*3 4.9 C 0 km/h
2129 19-12-2008 18:02:48 4.5 C 4.47 g/m*3 4.5 C 0 km/h
2130 19-12-2008 18:14:48 4.1 C 4.42 g/m*3 4.1 C 0 km/h
2131 19-12-2008 18:26:48 3.8 C 4.52 g/m*3 3.8 C 0 km/h
2132 19-12-2008 18:38:49 3.5 C 4.49 g/m*3 3.5 C 0 km/h
2133 19-12-2008 18:50:48 3.4 C 4.52 g/m*3 3.4 C 0 km/h
2134 19-12-2008 19:02:48 3.4 C 4.58 g/m*3 3.4 C 0 km/h
2135 19-12-2008 19:14:48 3.1 C 4.49 g/m*3 3.1 C 0 km/h
2136 19-12-2008 19:26:48 3.1 C 4.55 g/m*3 3.1 C 0 km/h
2137 19-12-2008 19:38:48 2.8 C 4.52 g/m*3 2.8 C 0 km/h
2138 19-12-2008 19:50:47 2.7 C 4.54 g/m*3 2.7 C 0 km/h
2139 19-12-2008 20:02:48 2.7 C 4.6 g/m*3 2.7 C 0 km/h
2140 19-12-2008 20:14:47 2.6 C 4.57 g/m*3 2.6 C 0 km/h
2141 19-12-2008 20:26:47 2.4 C 4.51 g/m*3 2.4 C 0 km/h
2142 19-12-2008 20:38:47 2.4 C 4.51 g/m*3 2.4 C 0 km/h
2143 19-12-2008 20:50:47 2.3 C 4.48 g/m*3 2.3 C 0 km/h
2144 19-12-2008 21:02:47 2.1 C 4.48 g/m*3 2.1 C 0 km/h
2145 19-12-2008 21:14:47 2.2 C 4.56 g/m*3 2.2 C 0 km/h
2146 19-12-2008 21:26:47 2.3 C 4.59 g/m*3 2.3 C 0 km/h
2147 19-12-2008 21:38:47 2.5 C 4.66 g/m*3 2.5 C 0 km/h
2148 19-12-2008 21:50:46 2.8 C 4.75 g/m*3 2.8 C 0 km/h
2149 19-12-2008 22:02:47 2.8 C 4.69 g/m*3 2.8 C 0 km/h
2150 19-12-2008 22:14:46 3.2 C 4.76 g/m*3 3.2 C 0 km/h
Sensor: Nr:Datum:Temp:Abs-Feuchte:Windchill:Wind:
Aussen-T/F 2151 19-12-2008 22:26:46 3.1 C 4.67 g/m*3 3.1 C 0 km/h
2152 19-12-2008 22:38:46 3 C 4.7 g/m*3 3 C 0 km/h
2153 19-12-2008 22:51:46 3.1 C 4.73 g/m*3 3.1 C 0 km/h
2154 19-12-2008 23:03:46 3.2 C 4.76 g/m*3 3.2 C 0 km/h
2155 19-12-2008 23:15:46 3.2 C 4.76 g/m*3 3.2 C 0 km/h
2156 19-12-2008 23:27:46 3.3 C 4.79 g/m*3 3.3 C 0 km/h
2157 19-12-2008 23:39:46 3.7 C 4.86 g/m*3 3.7 C 0 km/h
2158 19-12-2008 23:51:46 3.7 C 4.8 g/m*3 3.7 C 0 km/h
2159 20-12-2008 00:03:46 3.7 C 4.8 g/m*3 3.7 C 0 km/h
2160 20-12-2008 00:15:46 3.8 C 4.77 g/m*3 3.8 C 0 km/h
2161 20-12-2008 00:27:46 3.7 C 4.86 g/m*3 3.7 C 0 km/h
2162 20-12-2008 00:39:46 3.4 C 4.95 g/m*3 3.4 C 0 km/h
2163 20-12-2008 00:51:47 3.2 C 5.12 g/m*3 3.2 C 0 km/h
2164 20-12-2008 01:03:47 3.1 C 5.21 g/m*3 3.1 C 0 km/h
2165 20-12-2008 01:15:47 3.1 C 5.27 g/m*3 3.1 C 0 km/h
2166 20-12-2008 01:27:47 3 C 5.29 g/m*3 3 C 0 km/h
2167 20-12-2008 01:39:47 3 C 5.29 g/m*3 3 C 0 km/h
2168 20-12-2008 01:51:47 3 C 5.35 g/m*3 3 C 0 km/h
2169 20-12-2008 02:03:47 3.1 C 5.45 g/m*3 3.1 C 0 km/h
2170 20-12-2008 02:15:47 3.4 C 5.62 g/m*3 3.4 C 0 km/h
2171 20-12-2008 02:27:47 3.7 C 5.73 g/m*3 3.7 C 0 km/h
2172 20-12-2008 02:39:47 3.8 C 5.71 g/m*3 3.8 C 0 km/h
2173 20-12-2008 02:51:47 3.8 C 5.65 g/m*3 3.8 C 0 km/h
2174 20-12-2008 03:03:47 3.9 C 5.68 g/m*3 3.9 C 0 km/h
2175 20-12-2008 03:15:47 3.9 C 5.68 g/m*3 3.9 C 0 km/h
Sensor: Nr:Datum:Temp:Abs-Feuchte:Windchill:Wind:
Aussen-T/F 2176 20-12-2008 03:27:47 4.1 C 5.7 g/m*3 4.1 C 0 km/h
2177 20-12-2008 03:39:47 4.2 C 5.73 g/m*3 4.2 C 0 km/h
2178 20-12-2008 03:51:47 4.3 C 5.77 g/m*3 4.3 C 0 km/h
2179 20-12-2008 04:03:47 4.3 C 5.77 g/m*3 4.3 C 0 km/h
2180 20-12-2008 04:15:47 4.4 C 5.81 g/m*3 4.4 C 0 km/h
2181 20-12-2008 04:27:47 4.4 C 5.81 g/m*3 4.4 C 0 km/h
2182 20-12-2008 04:39:48 4.4 C 5.88 g/m*3 4.4 C 0 km/h
2183 20-12-2008 04:51:48 4.4 C 5.88 g/m*3 4.4 C 0 km/h
2184 20-12-2008 05:03:48 4.5 C 5.98 g/m*3 4.5 C 0 km/h
2185 20-12-2008 05:15:48 4.5 C 5.98 g/m*3 4.5 C 0 km/h
2186 20-12-2008 05:27:48 4.5 C 5.98 g/m*3 4.5 C 0 km/h
2187 20-12-2008 05:39:48 4.6 C 6.02 g/m*3 4.6 C 0 km/h
2188 20-12-2008 05:51:48 4.7 C 6.06 g/m*3 4.7 C 0 km/h
2189 20-12-2008 06:03:48 4.8 C 6.1 g/m*3 4.8 C 0 km/h
2190 20-12-2008 06:15:48 4.9 C 6.14 g/m*3 4.9 C 0 km/h
2191 20-12-2008 06:27:48 5 C 6.12 g/m*3 5 C 0 km/h
2192 20-12-2008 06:39:48 5.2 C 6.13 g/m*3 5.2 C 0 km/h
2193 20-12-2008 06:51:48 5.3 C 6.1 g/m*3 5.3 C 0 km/h
2194 20-12-2008 07:03:48 5.3 C 6.1 g/m*3 5.3 C 0 km/h
2195 20-12-2008 07:15:48 5.4 C 6.14 g/m*3 5.4 C 0 km/h
2196 20-12-2008 07:27:48 5.4 C 6.07 g/m*3 5.4 C 0 km/h
2197 20-12-2008 07:39:48 5.6 C 6.15 g/m*3 5.6 C 0 km/h
2198 20-12-2008 07:51:48 5.6 C 6.15 g/m*3 5.6 C 0 km/h
2199 20-12-2008 08:03:48 5.9 C 6.2 g/m*3 5.9 C 0 km/h
2200 20-12-2008 08:15:48 6 C 6.1 g/m*3 6 C 0 km/h
Sensor: Nr:Datum:Temp:Abs-Feuchte:Windchill:Wind:
Aussen-T/F 2201 20-12-2008 08:27:49 6 C 6.1 g/m*3 6 C 0 km/h
2202 20-12-2008 08:39:49 6 C 6.1 g/m*3 6 C 0 km/h
2203 20-12-2008 08:51:49 6 C 6.17 g/m*3 6 C 0 km/h
2204 20-12-2008 09:03:47 6 C 6.17 g/m*3 6 C 0 km/h
2205 20-12-2008 09:15:46 5.9 C 6.27 g/m*3 5.9 C 0 km/h
2206 20-12-2008 09:27:46 6 C 6.24 g/m*3 6 C 0 km/h
2207 20-12-2008 09:39:46 6 C 6.31 g/m*3 6 C 0 km/h
2208 20-12-2008 09:51:46 6.2 C 6.4 g/m*3 6.2 C 0 km/h
2209 20-12-2008 10:03:46 6.3 C 6.44 g/m*3 6.3 C 0 km/h
2210 20-12-2008 10:15:45 6.5 C 6.52 g/m*3 6.5 C 0 km/h
2211 20-12-2008 10:27:45 6.7 C 6.53 g/m*3 6.7 C 0 km/h
2212 20-12-2008 10:39:46 6.8 C 6.5 g/m*3 6.8 C 0 km/h
2213 20-12-2008 10:51:45 6.9 C 6.54 g/m*3 6.9 C 0 km/h
2214 20-12-2008 11:03:45 7 C 6.43 g/m*3 7 C 0 km/h
2215 20-12-2008 11:15:46 7 C 6.51 g/m*3 7 C 0 km/h
2216 20-12-2008 11:27:46 7.2 C 6.59 g/m*3 7.2 C 0 km/h
2217 20-12-2008 11:39:45 7.4 C 6.68 g/m*3 7.4 C 0 km/h
2218 20-12-2008 11:51:45 7.5 C 6.72 g/m*3 7.5 C 0 km/h
2219 20-12-2008 12:03:45 7.7 C 6.81 g/m*3 7.7 C 0 km/h
2220 20-12-2008 12:15:45 7.8 C 6.69 g/m*3 7.8 C 0 km/h
2221 20-12-2008 12:27:45 8.1 C 6.66 g/m*3 8.1 C 0 km/h
2222 20-12-2008 12:39:44 8.5 C 6.66 g/m*3 8.5 C 0 km/h
2223 20-12-2008 12:51:45 8.7 C 6.66 g/m*3 8.7 C 0 km/h
2224 20-12-2008 13:03:44 8.8 C 6.7 g/m*3 8.8 C 0 km/h
2225 20-12-2008 13:15:44 8.9 C 6.75 g/m*3 8.9 C 0 km/h
Sensor: Nr:Datum:Temp:Abs-Feuchte:Windchill:Wind:
Aussen-T/F 2226 20-12-2008 13:27:44 9.1 C 6.65 g/m*3 9.1 C 0 km/h
2227 20-12-2008 13:39:44 9 C 6.7 g/m*3 9 C 0 km/h
2228 20-12-2008 13:51:44 9 C 6.7 g/m*3 9 C 0 km/h
2229 20-12-2008 14:03:44 8.9 C 6.83 g/m*3 8.9 C 0 km/h
2230 20-12-2008 14:15:43 8.8 C 6.88 g/m*3 8.8 C 0 km/h
2231 20-12-2008 14:27:43 8.7 C 7.01 g/m*3 8.7 C 0 km/h
2232 20-12-2008 14:39:44 8.4 C 7.13 g/m*3 8.4 C 0 km/h
2233 20-12-2008 14:51:43 8.3 C 7.25 g/m*3 8.3 C 0 km/h
2234 20-12-2008 15:03:43 8.4 C 7.3 g/m*3 8.4 C 0 km/h
2235 20-12-2008 15:15:43 8.5 C 7.17 g/m*3 8.5 C 0 km/h
2236 20-12-2008 15:27:43 8.7 C 7.18 g/m*3 8.7 C 0 km/h
2237 20-12-2008 15:39:43 9 C 7.14 g/m*3 9 C 0 km/h
2238 20-12-2008 15:51:42 8.9 C 7.1 g/m*3 8.9 C 0 km/h
2239 20-12-2008 16:03:43 8.9 C 7.1 g/m*3 8.9 C 0 km/h
2240 20-12-2008 16:15:43 8.8 C 6.96 g/m*3 8.8 C 0 km/h
2241 20-12-2008 16:27:43 8.8 C 6.96 g/m*3 8.8 C 0 km/h
2242 20-12-2008 16:39:42 8.8 C 6.96 g/m*3 8.8 C 0 km/h
2243 20-12-2008 16:51:42 8.8 C 6.96 g/m*3 8.8 C 0 km/h
2244 20-12-2008 17:03:43 8.8 C 6.96 g/m*3 8.8 C 0 km/h
2245 20-12-2008 17:15:42 8.8 C 7.05 g/m*3 8.8 C 0 km/h
2246 20-12-2008 17:27:42 8.9 C 7.1 g/m*3 8.9 C 0 km/h
2247 20-12-2008 17:39:42 8.9 C 7.1 g/m*3 8.9 C 0 km/h
2248 20-12-2008 17:51:42 8.8 C 7.14 g/m*3 8.8 C 0 km/h
2249 20-12-2008 18:03:41 8.7 C 7.18 g/m*3 8.7 C 0 km/h
2250 20-12-2008 18:15:42 8.5 C 7.34 g/m*3 8.5 C 0 km/h
Sensor: Nr:Datum:Temp:Abs-Feuchte:Windchill:Wind:
Aussen-T/F 2251 20-12-2008 18:27:42 8.5 C 7.43 g/m*3 8.5 C 0 km/h
2252 20-12-2008 18:39:41 8.4 C 7.47 g/m*3 8.4 C 0 km/h
2253 20-12-2008 18:51:41 8.4 C 7.55 g/m*3 8.4 C 0 km/h
2254 20-12-2008 19:03:42 8.3 C 7.59 g/m*3 8.3 C 0 km/h
2255 20-12-2008 19:15:41 8.5 C 7.85 g/m*3 8.5 C 0 km/h
2256 20-12-2008 19:27:41 8.4 C 7.8 g/m*3 8.4 C 0 km/h
2257 20-12-2008 19:39:41 8.4 C 7.8 g/m*3 8.4 C 0 km/h
2258 20-12-2008 19:51:41 8.3 C 7.75 g/m*3 8.3 C 0 km/h
2259 20-12-2008 20:03:41 8 C 7.61 g/m*3 8 C 0 km/h
2260 20-12-2008 20:15:40 7.8 C 7.59 g/m*3 7.8 C 0 km/h
2261 20-12-2008 20:27:40 7.8 C 7.59 g/m*3 7.8 C 0 km/h
2262 20-12-2008 20:39:40 7.5 C 7.44 g/m*3 7.5 C 0 km/h
2263 20-12-2008 20:51:40 7.2 C 7.3 g/m*3 7.2 C 0 km/h
2264 20-12-2008 21:03:40 7 C 7.21 g/m*3 7 C 0 km/h
2265 20-12-2008 21:15:40 7 C 7.21 g/m*3 7 C 0 km/h
2266 20-12-2008 21:27:40 6.7 C 7.07 g/m*3 6.7 C 0 km/h
2267 20-12-2008 21:39:40 6.5 C 6.97 g/m*3 6.5 C 0 km/h
2268 20-12-2008 21:51:40 6.4 C 6.93 g/m*3 6.4 C 0 km/h
2269 20-12-2008 22:03:40 6.2 C 6.84 g/m*3 6.2 C 0 km/h
2270 20-12-2008 22:15:39 6 C 6.75 g/m*3 6 C 0 km/h
2271 20-12-2008 22:27:39 6 C 6.75 g/m*3 6 C 0 km/h
2272 20-12-2008 22:39:39 6.1 C 6.79 g/m*3 6.1 C 0 km/h
2273 20-12-2008 22:51:39 6.1 C 6.79 g/m*3 6.1 C 0 km/h
2274 20-12-2008 23:03:39 6.1 C 6.79 g/m*3 6.1 C 0 km/h
2275 20-12-2008 23:15:38 6 C 6.75 g/m*3 6 C 0 km/h
Sensor: Nr:Datum:Temp:Abs-Feuchte:Windchill:Wind:
Aussen-T/F 2276 20-12-2008 23:27:38 6 C 6.82 g/m*3 6 C 0 km/h
2277 20-12-2008 23:39:39 5.9 C 6.78 g/m*3 5.9 C 0 km/h
2278 20-12-2008 23:51:38 5.9 C 6.78 g/m*3 5.9 C 0 km/h
2279 21-12-2008 00:03:38 5.9 C 6.78 g/m*3 5.9 C 0 km/h
2280 21-12-2008 00:15:38 5.9 C 6.71 g/m*3 5.9 C 0 km/h
2281 21-12-2008 00:27:38 5.9 C 6.71 g/m*3 5.9 C 0 km/h
2282 21-12-2008 00:39:38 5.9 C 6.71 g/m*3 5.9 C 0 km/h
2283 21-12-2008 00:51:38 5.9 C 6.71 g/m*3 5.9 C 0 km/h
2284 21-12-2008 01:03:38 5.9 C 6.71 g/m*3 5.9 C 0 km/h
2285 21-12-2008 01:15:37 5.9 C 6.71 g/m*3 5.9 C 0 km/h
2286 21-12-2008 01:27:37 5.9 C 6.63 g/m*3 5.9 C 0 km/h
2287 21-12-2008 01:39:38 5.9 C 6.63 g/m*3 5.9 C 0 km/h
2288 21-12-2008 01:51:37 5.9 C 6.63 g/m*3 5.9 C 0 km/h
2289 21-12-2008 02:03:37 5.9 C 6.63 g/m*3 5.9 C 0 km/h
2290 21-12-2008 02:15:37 6 C 6.6 g/m*3 6 C 0 km/h
2291 21-12-2008 02:27:37 6.1 C 6.65 g/m*3 6.1 C 0 km/h
2292 21-12-2008 02:39:37 6.1 C 6.65 g/m*3 6.1 C 0 km/h
2293 21-12-2008 02:52:01 6.1 C 6.65 g/m*3 6.1 C 0 km/h
2294 21-12-2008 03:04:01 6.1 C 6.65 g/m*3 6.1 C 0 km/h
2295 21-12-2008 03:16:01 6.2 C 6.69 g/m*3 6.2 C 0 km/h
2296 21-12-2008 03:28:01 6.2 C 6.69 g/m*3 6.2 C 0 km/h
2297 21-12-2008 03:40:01 6.2 C 6.69 g/m*3 6.2 C 0 km/h
2298 21-12-2008 03:52:02 6.1 C 6.65 g/m*3 6.1 C 0 km/h
2299 21-12-2008 04:04:01 6.1 C 6.65 g/m*3 6.1 C 0 km/h
2300 21-12-2008 04:16:01 6.1 C 6.65 g/m*3 6.1 C 0 km/h
Sensor: Nr:Datum:Temp:Abs-Feuchte:Windchill:Wind:
Aussen-T/F 2301 21-12-2008 04:28:01 6.1 C 6.65 g/m*3 6.1 C 0 km/h
2302 21-12-2008 04:40:02 6.1 C 6.65 g/m*3 6.1 C 0 km/h
2303 21-12-2008 04:52:01 6.1 C 6.65 g/m*3 6.1 C 0 km/h
2304 21-12-2008 05:04:01 6.1 C 6.65 g/m*3 6.1 C 0 km/h
2305 21-12-2008 05:16:02 6.1 C 6.72 g/m*3 6.1 C 0 km/h
2306 21-12-2008 05:28:02 6.1 C 6.72 g/m*3 6.1 C 0 km/h
2307 21-12-2008 05:40:01 6.1 C 6.72 g/m*3 6.1 C 0 km/h
2308 21-12-2008 05:52:01 6.1 C 6.72 g/m*3 6.1 C 0 km/h
2309 21-12-2008 06:04:01 6.2 C 6.77 g/m*3 6.2 C 0 km/h
2310 21-12-2008 06:16:01 6.2 C 6.77 g/m*3 6.2 C 0 km/h
2311 21-12-2008 06:28:01 6.2 C 6.77 g/m*3 6.2 C 0 km/h
2312 21-12-2008 06:40:01 6.2 C 6.84 g/m*3 6.2 C 0 km/h
2313 21-12-2008 06:52:01 6.4 C 6.93 g/m*3 6.4 C 0 km/h
2314 21-12-2008 07:04:01 6.9 C 7.24 g/m*3 6.9 C 0 km/h
2315 21-12-2008 07:16:02 7.3 C 7.51 g/m*3 7.3 C 0 km/h
2316 21-12-2008 07:28:02 7.5 C 7.6 g/m*3 7.5 C 0 km/h
2317 21-12-2008 07:40:01 7.1 C 7.41 g/m*3 7.1 C 0 km/h
2318 21-12-2008 07:52:02 6.7 C 7.22 g/m*3 6.7 C 0 km/h
2319 21-12-2008 08:04:01 6.6 C 7.17 g/m*3 6.6 C 0 km/h
2320 21-12-2008 08:16:02 6.6 C 7.17 g/m*3 6.6 C 0 km/h
2321 21-12-2008 08:28:02 7.1 C 7.41 g/m*3 7.1 C 0 km/h
2322 21-12-2008 08:40:01 7.7 C 7.7 g/m*3 7.7 C 0 km/h
2323 21-12-2008 08:52:02 7.8 C 7.75 g/m*3 7.8 C 0 km/h
2324 21-12-2008 09:04:01 7.9 C 7.8 g/m*3 7.9 C 0 km/h
2325 21-12-2008 09:16:01 7.8 C 7.75 g/m*3 7.8 C 0 km/h
Sensor: Nr:Datum:Temp:Abs-Feuchte:Windchill:Wind:
Aussen-T/F 2326 21-12-2008 09:28:01 7.7 C 7.7 g/m*3 7.7 C 0 km/h
2327 21-12-2008 09:40:02 7.4 C 7.55 g/m*3 7.4 C 0 km/h
2328 21-12-2008 09:52:01 7.1 C 7.41 g/m*3 7.1 C 0 km/h
2329 21-12-2008 10:04:02 7.2 C 7.46 g/m*3 7.2 C 0 km/h
2330 21-12-2008 10:16:01 7.3 C 7.51 g/m*3 7.3 C 0 km/h
2331 21-12-2008 10:28:01 7.4 C 7.55 g/m*3 7.4 C 0 km/h
2332 21-12-2008 10:40:02 7.5 C 7.6 g/m*3 7.5 C 0 km/h
2333 21-12-2008 10:52:01 7.5 C 7.6 g/m*3 7.5 C 0 km/h
2334 21-12-2008 11:04:02 7.6 C 7.65 g/m*3 7.6 C 0 km/h
2335 21-12-2008 11:16:01 7.9 C 7.8 g/m*3 7.9 C 0 km/h
2336 21-12-2008 11:28:01 7.9 C 7.8 g/m*3 7.9 C 0 km/h
2337 21-12-2008 11:40:01 8.1 C 7.9 g/m*3 8.1 C 0 km/h
2338 21-12-2008 11:52:01 8.7 C 8.22 g/m*3 8.7 C 0 km/h
2339 21-12-2008 12:04:01 9.1 C 8.43 g/m*3 9.1 C 0 km/h
2340 21-12-2008 12:16:01 9.4 C 8.41 g/m*3 9.4 C 0 km/h
2341 21-12-2008 12:28:01 9.7 C 8.11 g/m*3 9.7 C 0 km/h
2342 21-12-2008 12:40:01 9.8 C 7.61 g/m*3 9.8 C 0 km/h
2343 21-12-2008 12:52:01 9.8 C 7.42 g/m*3 9.8 C 0 km/h
2344 21-12-2008 13:04:01 10 C 7.14 g/m*3 10 C 0 km/h
2345 21-12-2008 13:16:02 10.2 C 7.23 g/m*3 10.2 C 0 km/h
2346 21-12-2008 13:28:02 10.7 C 7.07 g/m*3 10.7 C 0 km/h
2347 21-12-2008 13:40:01 10.7 C 6.97 g/m*3 10.7 C 0 km/h
2348 21-12-2008 13:52:02 10.7 C 6.68 g/m*3 10.7 C 0 km/h
2349 21-12-2008 14:04:01 10.5 C 6.6 g/m*3 10.5 C 0 km/h
2350 21-12-2008 14:16:01 10.4 C 6.65 g/m*3 10.4 C 0 km/h
Sensor: Nr:Datum:Temp:Abs-Feuchte:Windchill:Wind:
Aussen-T/F 2351 21-12-2008 14:28:02 10.2 C 6.66 g/m*3 10.2 C 0 km/h
2352 21-12-2008 14:40:01 10.1 C 6.71 g/m*3 10.1 C 0 km/h
2353 21-12-2008 14:52:01 10.1 C 6.52 g/m*3 10.1 C 0 km/h
2354 21-12-2008 15:04:01 10 C 6.48 g/m*3 10 C 0 km/h
2355 21-12-2008 15:16:01 9.9 C 6.54 g/m*3 9.9 C 0 km/h
2356 21-12-2008 15:28:01 9.8 C 6.59 g/m*3 9.8 C 0 km/h
2357 21-12-2008 15:40:02 9.7 C 6.64 g/m*3 9.7 C 0 km/h
2358 21-12-2008 15:52:01 9.6 C 6.6 g/m*3 9.6 C 0 km/h
2359 21-12-2008 16:04:02 9.6 C 6.5 g/m*3 9.6 C 0 km/h
2360 21-12-2008 16:16:01 9.5 C 6.28 g/m*3 9.5 C 0 km/h
2361 21-12-2008 16:28:01 9.5 C 6.28 g/m*3 9.5 C 0 km/h
2362 21-12-2008 16:40:02 9.4 C 6.24 g/m*3 9.4 C 0 km/h
2363 21-12-2008 16:52:01 9.2 C 6.25 g/m*3 9.2 C 0 km/h
2364 21-12-2008 17:04:02 9.2 C 6.16 g/m*3 9.2 C 0 km/h
2365 21-12-2008 17:16:01 9.1 C 6.12 g/m*3 9.1 C 0 km/h
2366 21-12-2008 17:28:01 9.1 C 6.12 g/m*3 9.1 C 0 km/h
2367 21-12-2008 17:40:01 9 C 6.08 g/m*3 9 C 0 km/h
2368 21-12-2008 17:52:01 9 C 6.08 g/m*3 9 C 0 km/h
2369 21-12-2008 18:04:01 9 C 6.08 g/m*3 9 C 0 km/h
2370 21-12-2008 18:16:02 9.1 C 6.03 g/m*3 9.1 C 0 km/h
2371 21-12-2008 18:28:02 9.1 C 6.03 g/m*3 9.1 C 0 km/h
2372 21-12-2008 18:40:01 9 C 5.99 g/m*3 9 C 0 km/h
2373 21-12-2008 18:52:02 8.9 C 6.04 g/m*3 8.9 C 0 km/h
2374 21-12-2008 19:04:01 8.9 C 6.04 g/m*3 8.9 C 0 km/h
2375 21-12-2008 19:16:02 8.8 C 6.09 g/m*3 8.8 C 0 km/h
Sensor: Nr:Datum:Temp:Abs-Feuchte:Windchill:Wind:
Aussen-T/F 2376 21-12-2008 19:28:02 8.7 C 6.14 g/m*3 8.7 C 0 km/h
2377 21-12-2008 19:40:01 8.7 C 6.31 g/m*3 8.7 C 0 km/h
2378 21-12-2008 19:52:02 8.7 C 6.31 g/m*3 8.7 C 0 km/h
2379 21-12-2008 20:04:01 8.7 C 6.31 g/m*3 8.7 C 0 km/h
2380 21-12-2008 20:16:01 8.7 C 6.23 g/m*3 8.7 C 0 km/h
2381 21-12-2008 20:28:01 8.7 C 6.23 g/m*3 8.7 C 0 km/h
2382 21-12-2008 20:40:02 8.8 C 6.18 g/m*3 8.8 C 0 km/h
2383 21-12-2008 20:52:01 8.9 C 6.13 g/m*3 8.9 C 0 km/h
2384 21-12-2008 21:04:01 8.9 C 6.13 g/m*3 8.9 C 0 km/h
2385 21-12-2008 21:16:01 8.9 C 6.04 g/m*3 8.9 C 0 km/h
2386 21-12-2008 21:28:01 8.9 C 6.13 g/m*3 8.9 C 0 km/h
2387 21-12-2008 21:40:02 8.8 C 6.18 g/m*3 8.8 C 0 km/h
2388 21-12-2008 21:52:01 8.7 C 6.14 g/m*3 8.7 C 0 km/h
2389 21-12-2008 22:04:02 8.7 C 6.23 g/m*3 8.7 C 0 km/h
2390 21-12-2008 22:16:01 8.6 C 6.19 g/m*3 8.6 C 0 km/h
2391 21-12-2008 22:28:01 8.6 C 6.19 g/m*3 8.6 C 0 km/h
2392 21-12-2008 22:40:02 8.6 C 6.19 g/m*3 8.6 C 0 km/h
2393 21-12-2008 22:52:01 8.5 C 6.23 g/m*3 8.5 C 0 km/h
2394 21-12-2008 23:04:01 8.5 C 6.23 g/m*3 8.5 C 0 km/h
2395 21-12-2008 23:16:01 8.5 C 6.23 g/m*3 8.5 C 0 km/h
2396 21-12-2008 23:28:01 8.5 C 6.23 g/m*3 8.5 C 0 km/h
2397 21-12-2008 23:40:01 8.5 C 6.32 g/m*3 8.5 C 0 km/h
2398 21-12-2008 23:52:01 8.5 C 6.32 g/m*3 8.5 C 0 km/h
2399 22-12-2008 00:04:01 8.6 C 6.36 g/m*3 8.6 C 0 km/h
2400 22-12-2008 00:16:02 8.6 C 6.36 g/m*3 8.6 C 0 km/h
Sensor: Nr:Datum:Temp:Abs-Feuchte:Windchill:Wind:
Aussen-T/F 2401 22-12-2008 00:28:02 8.6 C 6.36 g/m*3 8.6 C 0 km/h
2402 22-12-2008 00:40:01 8.6 C 6.44 g/m*3 8.6 C 0 km/h
2403 22-12-2008 00:52:02 8.6 C 6.44 g/m*3 8.6 C 0 km/h
2404 22-12-2008 01:04:01 8.8 C 6.44 g/m*3 8.8 C 0 km/h
2405 22-12-2008 01:16:02 8.8 C 6.44 g/m*3 8.8 C 0 km/h
2406 22-12-2008 01:28:02 8.8 C 6.44 g/m*3 8.8 C 0 km/h
2407 22-12-2008 01:40:01 8.9 C 6.39 g/m*3 8.9 C 0 km/h
2408 22-12-2008 01:52:02 8.9 C 6.39 g/m*3 8.9 C 0 km/h
2409 22-12-2008 02:04:01 8.9 C 6.48 g/m*3 8.9 C 0 km/h
2410 22-12-2008 02:16:01 8.7 C 6.49 g/m*3 8.7 C 0 km/h
2411 22-12-2008 02:28:01 8.7 C 6.57 g/m*3 8.7 C 0 km/h
2412 22-12-2008 02:40:01 8.8 C 6.61 g/m*3 8.8 C 0 km/h
2413 22-12-2008 02:52:27 8.9 C 6.57 g/m*3 8.9 C 0 km/h
2414 22-12-2008 03:04:27 8.9 C 6.57 g/m*3 8.9 C 0 km/h
2415 22-12-2008 03:16:27 8.9 C 6.57 g/m*3 8.9 C 0 km/h
2416 22-12-2008 03:28:27 8.7 C 6.57 g/m*3 8.7 C 0 km/h
2417 22-12-2008 03:40:27 8.6 C 6.7 g/m*3 8.6 C 0 km/h
2418 22-12-2008 03:52:27 8.2 C 6.95 g/m*3 8.2 C 0 km/h
2419 22-12-2008 04:04:26 8.1 C 7.16 g/m*3 8.1 C 0 km/h
2420 22-12-2008 04:16:27 8.1 C 7.24 g/m*3 8.1 C 0 km/h
2421 22-12-2008 04:28:27 8.1 C 7.32 g/m*3 8.1 C 0 km/h
2422 22-12-2008 04:40:26 8.1 C 7.32 g/m*3 8.1 C 0 km/h
2423 22-12-2008 04:52:26 8.3 C 7.25 g/m*3 8.3 C 0 km/h
2424 22-12-2008 05:04:26 8.3 C 7.16 g/m*3 8.3 C 0 km/h
2425 22-12-2008 05:16:26 8.3 C 7.16 g/m*3 8.3 C 0 km/h
Sensor: Nr:Datum:Temp:Abs-Feuchte:Windchill:Wind:
Aussen-T/F 2426 22-12-2008 05:28:26 8.2 C 7.2 g/m*3 8.2 C 0 km/h
2427 22-12-2008 05:40:26 8.1 C 7.16 g/m*3 8.1 C 0 km/h
2428 22-12-2008 05:52:25 8.1 C 7.24 g/m*3 8.1 C 0 km/h
2429 22-12-2008 06:04:26 8.1 C 7.24 g/m*3 8.1 C 0 km/h
2430 22-12-2008 06:16:26 8.1 C 7.24 g/m*3 8.1 C 0 km/h
2431 22-12-2008 06:28:26 8.1 C 7.16 g/m*3 8.1 C 0 km/h
2432 22-12-2008 06:40:25 8.3 C 7.16 g/m*3 8.3 C 0 km/h
2433 22-12-2008 06:52:26 8.6 C 7.05 g/m*3 8.6 C 0 km/h
2434 22-12-2008 07:04:25 8.6 C 6.96 g/m*3 8.6 C 0 km/h
2435 22-12-2008 07:16:25 8.8 C 6.88 g/m*3 8.8 C 0 km/h
2436 22-12-2008 07:28:25 8.9 C 6.83 g/m*3 8.9 C 0 km/h
2437 22-12-2008 07:40:24 8.9 C 6.83 g/m*3 8.9 C 0 km/h
2438 22-12-2008 07:52:25 8.9 C 6.83 g/m*3 8.9 C 0 km/h
2439 22-12-2008 08:04:24 8.9 C 6.83 g/m*3 8.9 C 0 km/h
2440 22-12-2008 08:16:24 9 C 6.7 g/m*3 9 C 0 km/h
2441 22-12-2008 08:28:24 9 C 6.61 g/m*3 9 C 0 km/h
2442 22-12-2008 08:40:25 9.1 C 6.65 g/m*3 9.1 C 0 km/h
2443 22-12-2008 08:52:24 9 C 6.61 g/m*3 9 C 0 km/h
2444 22-12-2008 09:04:24 9.1 C 6.65 g/m*3 9.1 C 0 km/h
2445 22-12-2008 09:16:24 9 C 6.61 g/m*3 9 C 0 km/h
2446 22-12-2008 09:28:24 9.1 C 6.65 g/m*3 9.1 C 0 km/h
2447 22-12-2008 09:40:24 9 C 6.7 g/m*3 9 C 0 km/h
2448 22-12-2008 09:52:23 9.1 C 6.74 g/m*3 9.1 C 0 km/h
2449 22-12-2008 10:04:24 9.2 C 6.79 g/m*3 9.2 C 0 km/h
2450 22-12-2008 10:16:23 9.3 C 6.74 g/m*3 9.3 C 0 km/h
Sensor: Nr:Datum:Temp:Abs-Feuchte:Windchill:Wind:
Aussen-T/F 2451 22-12-2008 10:28:23 9.2 C 6.79 g/m*3 9.2 C 0 km/h
2452 22-12-2008 10:40:23 9.2 C 6.97 g/m*3 9.2 C 0 km/h
2453 22-12-2008 10:52:23 9.3 C 7.01 g/m*3 9.3 C 0 km/h
2454 22-12-2008 11:04:23 9.3 C 7.1 g/m*3 9.3 C 0 km/h
2455 22-12-2008 11:16:23 9.4 C 7.24 g/m*3 9.4 C 0 km/h
2456 22-12-2008 11:28:23 9.5 C 7.19 g/m*3 9.5 C 0 km/h
2457 22-12-2008 11:40:23 9.6 C 7.24 g/m*3 9.6 C 0 km/h
2458 22-12-2008 11:52:23 9.6 C 7.24 g/m*3 9.6 C 0 km/h
2459 22-12-2008 12:04:22 9.9 C 7.28 g/m*3 9.9 C 0 km/h
2460 22-12-2008 12:16:22 10 C 7.14 g/m*3 10 C 0 km/h
2461 22-12-2008 12:28:22 10 C 7.14 g/m*3 10 C 0 km/h
2462 22-12-2008 12:40:22 9.9 C 7.38 g/m*3 9.9 C 0 km/h
2463 22-12-2008 12:52:22 9.9 C 7.66 g/m*3 9.9 C 0 km/h
2464 22-12-2008 13:04:22 9.9 C 7.56 g/m*3 9.9 C 0 km/h
2465 22-12-2008 13:16:22 10 C 7.42 g/m*3 10 C 0 km/h
2466 22-12-2008 13:28:22 10 C 7.42 g/m*3 10 C 0 km/h
2467 22-12-2008 13:40:22 9.9 C 7.47 g/m*3 9.9 C 0 km/h
2468 22-12-2008 13:52:21 10 C 7.33 g/m*3 10 C 0 km/h
2469 22-12-2008 14:04:21 10.1 C 7.19 g/m*3 10.1 C 0 km/h
2470 22-12-2008 14:16:21 10.3 C 6.99 g/m*3 10.3 C 0 km/h
2471 22-12-2008 14:28:21 10.3 C 6.9 g/m*3 10.3 C 0 km/h
2472 22-12-2008 14:40:22 9.7 C 7.01 g/m*3 9.7 C 0 km/h
2473 22-12-2008 14:52:21 9.6 C 7.05 g/m*3 9.6 C 0 km/h
2474 22-12-2008 15:04:21 9.6 C 7.05 g/m*3 9.6 C 0 km/h
2475 22-12-2008 15:16:21 9.7 C 6.91 g/m*3 9.7 C 0 km/h
Sensor: Nr:Datum:Temp:Abs-Feuchte:Windchill:Wind:
Aussen-T/F 2476 22-12-2008 15:28:21 9.7 C 6.82 g/m*3 9.7 C 0 km/h
2477 22-12-2008 15:40:21 9.7 C 6.45 g/m*3 9.7 C 0 km/h
2478 22-12-2008 15:52:20 9.6 C 6.32 g/m*3 9.6 C 0 km/h
2479 22-12-2008 16:04:21 9.6 C 6.23 g/m*3 9.6 C 0 km/h
2480 22-12-2008 16:16:20 9.5 C 6.19 g/m*3 9.5 C 0 km/h
2481 22-12-2008 16:28:20 9.6 C 6.05 g/m*3 9.6 C 0 km/h
2482 22-12-2008 16:40:20 9.5 C 6.01 g/m*3 9.5 C 0 km/h
2483 22-12-2008 16:52:02 9.5 C 5.92 g/m*3 9.5 C 0 km/h
2484 22-12-2008 17:04:02 9.5 C 6.01 g/m*3 9.5 C 0 km/h
2485 22-12-2008 17:16:02 9.3 C 5.93 g/m*3 9.3 C 0 km/h
2486 22-12-2008 17:28:02 9.1 C 6.03 g/m*3 9.1 C 0 km/h
2487 22-12-2008 17:40:02 8.8 C 6.18 g/m*3 8.8 C 0 km/h
2488 22-12-2008 17:52:02 8.5 C 6.15 g/m*3 8.5 C 0 km/h
2489 22-12-2008 18:04:01 8 C 6.12 g/m*3 8 C 0 km/h
2490 22-12-2008 18:16:02 7.6 C 6.28 g/m*3 7.6 C 0 km/h
2491 22-12-2008 18:28:02 7.3 C 6.32 g/m*3 7.3 C 0 km/h
2492 22-12-2008 18:40:02 7.1 C 6.32 g/m*3 7.1 C 0 km/h
2493 22-12-2008 18:52:02 6.9 C 6.39 g/m*3 6.9 C 0 km/h
2494 22-12-2008 19:04:02 6.9 C 6.47 g/m*3 6.9 C 0 km/h
2495 22-12-2008 19:16:02 6.7 C 6.38 g/m*3 6.7 C 0 km/h
2496 22-12-2008 19:28:02 6.3 C 6.22 g/m*3 6.3 C 0 km/h
2497 22-12-2008 19:40:01 6.2 C 6.25 g/m*3 6.2 C 0 km/h
2498 22-12-2008 19:52:02 5.9 C 6.2 g/m*3 5.9 C 0 km/h
2499 22-12-2008 20:04:01 5.8 C 6.16 g/m*3 5.8 C 0 km/h
2500 22-12-2008 20:16:01 6.1 C 6.28 g/m*3 6.1 C 0 km/h
Sensor: Nr:Datum:Temp:Abs-Feuchte:Windchill:Wind:
Aussen-T/F 2501 22-12-2008 20:28:01 6.1 C 6.28 g/m*3 6.1 C 0 km/h
2502 22-12-2008 20:40:00 6.2 C 6.25 g/m*3 6.2 C 0 km/h
2503 22-12-2008 20:52:01 6.3 C 6.29 g/m*3 6.3 C 0 km/h
2504 22-12-2008 21:04:01 6.3 C 6.22 g/m*3 6.3 C 0 km/h
2505 22-12-2008 21:16:00 6.5 C 6.3 g/m*3 6.5 C 0 km/h
2506 22-12-2008 21:28:00 6.4 C 6.18 g/m*3 6.4 C 0 km/h
2507 22-12-2008 21:40:00 6.4 C 6.18 g/m*3 6.4 C 0 km/h
2508 22-12-2008 21:52:00 6.5 C 6.3 g/m*3 6.5 C 0 km/h
2509 22-12-2008 22:05:02 6.5 C 6.22 g/m*3 6.5 C 0 km/h
2510 22-12-2008 22:17:02 6.5 C 6.3 g/m*3 6.5 C 0 km/h
2511 22-12-2008 22:29:02 7 C 6.51 g/m*3 7 C 0 km/h
2512 22-12-2008 22:41:03 7.2 C 6.52 g/m*3 7.2 C 0 km/h
2513 22-12-2008 22:53:03 7.1 C 6.47 g/m*3 7.1 C 0 km/h
2514 22-12-2008 23:05:03 7.1 C 6.47 g/m*3 7.1 C 0 km/h
2515 22-12-2008 23:17:03 7 C 6.43 g/m*3 7 C 0 km/h
2516 22-12-2008 23:29:03 6.8 C 6.42 g/m*3 6.8 C 0 km/h
2517 22-12-2008 23:41:03 6.9 C 6.54 g/m*3 6.9 C 0 km/h
2518 22-12-2008 23:53:03 6.9 C 6.54 g/m*3 6.9 C 0 km/h
2519 23-12-2008 00:05:03 6.8 C 6.5 g/m*3 6.8 C 0 km/h
2520 23-12-2008 00:17:03 6.4 C 6.26 g/m*3 6.4 C 0 km/h
2521 23-12-2008 00:29:03 6.8 C 6.5 g/m*3 6.8 C 0 km/h
2522 23-12-2008 00:41:03 7.1 C 6.4 g/m*3 7.1 C 0 km/h
2523 23-12-2008 00:53:03 7.2 C 6.36 g/m*3 7.2 C 0 km/h
2524 23-12-2008 01:05:03 7.2 C 6.28 g/m*3 7.2 C 0 km/h
2525 23-12-2008 01:17:03 7.2 C 6.2 g/m*3 7.2 C 0 km/h
Sensor: Nr:Datum:Temp:Abs-Feuchte:Windchill:Wind:
Aussen-T/F 2526 23-12-2008 01:29:03 7.2 C 6.2 g/m*3 7.2 C 0 km/h
2527 23-12-2008 01:41:03 7.1 C 6.16 g/m*3 7.1 C 0 km/h
2528 23-12-2008 01:53:03 6.9 C 6.24 g/m*3 6.9 C 0 km/h
2529 23-12-2008 02:05:03 6.9 C 6.24 g/m*3 6.9 C 0 km/h
2530 23-12-2008 02:17:03 6.7 C 6.23 g/m*3 6.7 C 0 km/h
2531 23-12-2008 02:29:03 6.7 C 6.31 g/m*3 6.7 C 0 km/h
2532 23-12-2008 02:41:04 6.7 C 6.31 g/m*3 6.7 C 0 km/h
2533 23-12-2008 02:53:04 6.4 C 6.18 g/m*3 6.4 C 0 km/h
2534 23-12-2008 03:05:04 6.3 C 6.22 g/m*3 6.3 C 0 km/h
2535 23-12-2008 03:17:04 6.3 C 6.29 g/m*3 6.3 C 0 km/h
2536 23-12-2008 03:29:04 6.2 C 6.25 g/m*3 6.2 C 0 km/h
2537 23-12-2008 03:41:04 6.1 C 6.21 g/m*3 6.1 C 0 km/h
2538 23-12-2008 03:53:04 6.1 C 6.21 g/m*3 6.1 C 0 km/h
2539 23-12-2008 04:05:04 6 C 6.17 g/m*3 6 C 0 km/h
2540 23-12-2008 04:17:04 5.7 C 6.12 g/m*3 5.7 C 0 km/h
2541 23-12-2008 04:29:04 5.6 C 6.15 g/m*3 5.6 C 0 km/h
2542 23-12-2008 04:41:04 5.6 C 6.15 g/m*3 5.6 C 0 km/h
2543 23-12-2008 04:53:04 5.4 C 6.14 g/m*3 5.4 C 0 km/h
2544 23-12-2008 05:05:04 5.3 C 6.1 g/m*3 5.3 C 0 km/h
2545 23-12-2008 05:17:04 5.2 C 6.06 g/m*3 5.2 C 0 km/h
2546 23-12-2008 05:29:04 5.1 C 6.02 g/m*3 5.1 C 0 km/h
2547 23-12-2008 05:41:04 4.7 C 5.86 g/m*3 4.7 C 0 km/h
2548 23-12-2008 05:53:04 4.4 C 5.81 g/m*3 4.4 C 0 km/h
2549 23-12-2008 06:05:04 4.2 C 5.73 g/m*3 4.2 C 0 km/h
2550 23-12-2008 06:17:04 4.6 C 5.96 g/m*3 4.6 C 0 km/h
Sensor: Nr:Datum:Temp:Abs-Feuchte:Windchill:Wind:
Aussen-T/F 2551 23-12-2008 06:29:04 4.9 C 6.14 g/m*3 4.9 C 0 km/h
2552 23-12-2008 06:41:04 4.8 C 6.04 g/m*3 4.8 C 0 km/h
2553 23-12-2008 06:53:05 4.7 C 6 g/m*3 4.7 C 0 km/h
2554 23-12-2008 07:05:05 5 C 6.12 g/m*3 5 C 0 km/h
2555 23-12-2008 07:17:02 5 C 6.12 g/m*3 5 C 0 km/h
2556 23-12-2008 07:29:02 4.9 C 6.08 g/m*3 4.9 C 0 km/h
2557 23-12-2008 07:41:01 5.4 C 6.28 g/m*3 5.4 C 0 km/h
2558 23-12-2008 07:53:01 5.3 C 6.17 g/m*3 5.3 C 0 km/h
2559 23-12-2008 08:05:01 5.3 C 6.1 g/m*3 5.3 C 0 km/h
2560 23-12-2008 08:17:01 5.1 C 5.95 g/m*3 5.1 C 0 km/h
2561 23-12-2008 08:29:01 4.9 C 5.94 g/m*3 4.9 C 0 km/h
2562 23-12-2008 08:41:01 5 C 5.91 g/m*3 5 C 0 km/h
2563 23-12-2008 08:53:01 5 C 5.91 g/m*3 5 C 0 km/h
2564 23-12-2008 09:05:01 5 C 5.91 g/m*3 5 C 0 km/h
2565 23-12-2008 09:17:00 4.9 C 5.94 g/m*3 4.9 C 0 km/h
2566 23-12-2008 09:29:00 4.9 C 5.94 g/m*3 4.9 C 0 km/h
2567 23-12-2008 09:41:01 4.9 C 5.94 g/m*3 4.9 C 0 km/h
2568 23-12-2008 09:53:00 4.7 C 5.8 g/m*3 4.7 C 0 km/h
2569 23-12-2008 10:05:00 4.9 C 5.94 g/m*3 4.9 C 0 km/h
2570 23-12-2008 10:16:59 4.9 C 5.94 g/m*3 4.9 C 0 km/h
2571 23-12-2008 10:28:59 5 C 5.84 g/m*3 5 C 0 km/h
2572 23-12-2008 10:41:00 5.2 C 5.92 g/m*3 5.2 C 0 km/h
2573 23-12-2008 10:53:59 5.5 C 5.97 g/m*3 5.5 C 0 km/h
2574 23-12-2008 11:05:59 5.6 C 5.94 g/m*3 5.6 C 0 km/h
2575 23-12-2008 11:17:00 5.7 C 5.91 g/m*3 5.7 C 0 km/h
Sensor: Nr:Datum:Temp:Abs-Feuchte:Windchill:Wind:
Aussen-T/F 2576 23-12-2008 11:29:00 5.9 C 5.98 g/m*3 5.9 C 0 km/h
2577 23-12-2008 11:41:59 6.1 C 5.92 g/m*3 6.1 C 0 km/h
2578 23-12-2008 11:53:59 6.2 C 5.88 g/m*3 6.2 C 0 km/h
2579 23-12-2008 12:05:59 6.3 C 5.85 g/m*3 6.3 C 0 km/h
2580 23-12-2008 12:17:59 6.5 C 5.85 g/m*3 6.5 C 0 km/h
2581 23-12-2008 12:29:59 6.7 C 5.85 g/m*3 6.7 C 0 km/h
2582 23-12-2008 12:41:59 6.9 C 5.85 g/m*3 6.9 C 0 km/h
2583 23-12-2008 12:53:59 7.1 C 5.85 g/m*3 7.1 C 0 km/h
2584 23-12-2008 13:05:59 7.4 C 5.88 g/m*3 7.4 C 0 km/h
2585 23-12-2008 13:17:58 7.4 C 5.88 g/m*3 7.4 C 0 km/h
2586 23-12-2008 13:29:58 7.4 C 5.81 g/m*3 7.4 C 0 km/h
2587 23-12-2008 13:41:58 7.5 C 5.84 g/m*3 7.5 C 0 km/h
2588 23-12-2008 13:53:58 7.6 C 5.88 g/m*3 7.6 C 0 km/h
2589 23-12-2008 14:05:58 7.7 C 5.84 g/m*3 7.7 C 0 km/h
2590 23-12-2008 14:17:57 7.6 C 5.72 g/m*3 7.6 C 0 km/h
2591 23-12-2008 14:29:57 7.6 C 5.64 g/m*3 7.6 C 0 km/h
2592 23-12-2008 14:41:58 7.4 C 5.49 g/m*3 7.4 C 0 km/h
2593 23-12-2008 14:53:57 7.3 C 5.45 g/m*3 7.3 C 0 km/h
2594 23-12-2008 15:05:57 7.4 C 5.49 g/m*3 7.4 C 0 km/h
2595 23-12-2008 15:17:58 7.5 C 5.44 g/m*3 7.5 C 0 km/h
2596 23-12-2008 15:29:58 7.5 C 5.44 g/m*3 7.5 C 0 km/h
2597 23-12-2008 15:41:57 7.5 C 5.28 g/m*3 7.5 C 0 km/h
2598 23-12-2008 15:53:57 7.3 C 5.21 g/m*3 7.3 C 0 km/h
2599 23-12-2008 16:05:57 7.1 C 5.3 g/m*3 7.1 C 0 km/h
2600 23-12-2008 16:17:57 7.1 C 5.38 g/m*3 7.1 C 0 km/h
Sensor: Nr:Datum:Temp:Abs-Feuchte:Windchill:Wind:
Aussen-T/F 2601 23-12-2008 16:29:57 7 C 5.42 g/m*3 7 C 0 km/h
2602 23-12-2008 16:41:57 6.9 C 5.47 g/m*3 6.9 C 0 km/h
2603 23-12-2008 16:53:56 6.9 C 5.39 g/m*3 6.9 C 0 km/h
2604 23-12-2008 17:05:56 6.8 C 5.43 g/m*3 6.8 C 0 km/h
2605 23-12-2008 17:17:56 6.8 C 5.43 g/m*3 6.8 C 0 km/h
2606 23-12-2008 17:29:56 6.7 C 5.47 g/m*3 6.7 C 0 km/h
2607 23-12-2008 17:41:56 6.6 C 5.44 g/m*3 6.6 C 0 km/h
2608 23-12-2008 17:53:55 6.5 C 5.47 g/m*3 6.5 C 0 km/h
2609 23-12-2008 18:05:56 6.5 C 5.47 g/m*3 6.5 C 0 km/h
2610 23-12-2008 18:17:56 6.6 C 5.51 g/m*3 6.6 C 0 km/h
2611 23-12-2008 18:29:56 6.6 C 5.59 g/m*3 6.6 C 0 km/h
2612 23-12-2008 18:41:55 6.5 C 5.55 g/m*3 6.5 C 0 km/h
2613 23-12-2008 18:53:56 6.6 C 5.59 g/m*3 6.6 C 0 km/h
2614 23-12-2008 19:05:55 6.5 C 5.55 g/m*3 6.5 C 0 km/h
2615 23-12-2008 19:17:55 6.5 C 5.55 g/m*3 6.5 C 0 km/h
2616 23-12-2008 19:29:55 6.5 C 5.62 g/m*3 6.5 C 0 km/h
2617 23-12-2008 19:41:54 6.5 C 5.62 g/m*3 6.5 C 0 km/h
2618 23-12-2008 19:53:55 6.5 C 5.62 g/m*3 6.5 C 0 km/h
2619 23-12-2008 20:05:55 6.5 C 5.7 g/m*3 6.5 C 0 km/h
2620 23-12-2008 20:17:54 6.5 C 5.7 g/m*3 6.5 C 0 km/h
2621 23-12-2008 20:29:54 6.5 C 5.7 g/m*3 6.5 C 0 km/h
2622 23-12-2008 20:41:55 6.4 C 5.74 g/m*3 6.4 C 0 km/h
2623 23-12-2008 20:53:54 6.5 C 5.77 g/m*3 6.5 C 0 km/h
2624 23-12-2008 21:05:54 6.4 C 5.74 g/m*3 6.4 C 0 km/h
2625 23-12-2008 21:17:54 6.4 C 5.74 g/m*3 6.4 C 0 km/h
Sensor: Nr:Datum:Temp:Abs-Feuchte:Windchill:Wind:
Aussen-T/F 2626 23-12-2008 21:29:54 6.3 C 5.77 g/m*3 6.3 C 0 km/h
2627 23-12-2008 21:41:54 6.3 C 5.77 g/m*3 6.3 C 0 km/h
2628 23-12-2008 21:53:53 6.1 C 5.7 g/m*3 6.1 C 0 km/h
2629 23-12-2008 22:05:54 6.1 C 5.7 g/m*3 6.1 C 0 km/h
2630 23-12-2008 22:17:54 6.2 C 5.66 g/m*3 6.2 C 0 km/h
2631 23-12-2008 22:29:54 6.2 C 5.59 g/m*3 6.2 C 0 km/h
2632 23-12-2008 22:41:53 6.2 C 5.59 g/m*3 6.2 C 0 km/h
2633 23-12-2008 22:53:53 6.2 C 5.59 g/m*3 6.2 C 0 km/h
2634 23-12-2008 23:05:53 6.1 C 5.55 g/m*3 6.1 C 0 km/h
2635 23-12-2008 23:17:53 6.2 C 5.44 g/m*3 6.2 C 0 km/h
2636 23-12-2008 23:29:53 6.2 C 5.44 g/m*3 6.2 C 0 km/h
2637 23-12-2008 23:41:52 6.2 C 5.44 g/m*3 6.2 C 0 km/h
2638 23-12-2008 23:53:53 6.1 C 5.41 g/m*3 6.1 C 0 km/h
2639 24-12-2008 00:05:53 6.1 C 5.41 g/m*3 6.1 C 0 km/h
2640 24-12-2008 00:17:53 6 C 5.37 g/m*3 6 C 0 km/h
2641 24-12-2008 00:29:53 6.1 C 5.41 g/m*3 6.1 C 0 km/h
2642 24-12-2008 00:41:52 6.1 C 5.33 g/m*3 6.1 C 0 km/h
2643 24-12-2008 00:53:53 6 C 5.37 g/m*3 6 C 0 km/h
2644 24-12-2008 01:05:52 6 C 5.37 g/m*3 6 C 0 km/h
2645 24-12-2008 01:17:52 5.8 C 5.37 g/m*3 5.8 C 0 km/h
2646 24-12-2008 01:29:53 5.5 C 5.34 g/m*3 5.5 C 0 km/h
2647 24-12-2008 01:41:51 5.3 C 5.34 g/m*3 5.3 C 0 km/h
2648 24-12-2008 01:53:52 5.2 C 5.3 g/m*3 5.2 C 0 km/h
2649 24-12-2008 02:05:51 5.3 C 5.41 g/m*3 5.3 C 0 km/h
2650 24-12-2008 02:17:51 5.2 C 5.44 g/m*3 5.2 C 0 km/h
Sensor: Nr:Datum:Temp:Abs-Feuchte:Windchill:Wind:
Aussen-T/F 2651 24-12-2008 02:29:51 5.3 C 5.48 g/m*3 5.3 C 0 km/h
2652 24-12-2008 02:41:52 5.1 C 5.4 g/m*3 5.1 C 0 km/h
2653 24-12-2008 02:54:52 4.9 C 5.47 g/m*3 4.9 C 0 km/h
2654 24-12-2008 03:06:52 4.7 C 5.4 g/m*3 4.7 C 0 km/h
2655 24-12-2008 03:18:53 4.5 C 5.39 g/m*3 4.5 C 0 km/h
2656 24-12-2008 03:30:52 4.1 C 5.18 g/m*3 4.1 C 0 km/h
2657 24-12-2008 03:42:52 3.7 C 5.17 g/m*3 3.7 C 0 km/h
2658 24-12-2008 03:54:52 3.5 C 5.1 g/m*3 3.5 C 0 km/h
2659 24-12-2008 04:06:52 3.3 C 5.1 g/m*3 3.3 C 0 km/h
2660 24-12-2008 04:18:52 3 C 4.99 g/m*3 3 C 0 km/h
2661 24-12-2008 04:30:52 2.9 C 5.08 g/m*3 2.9 C 0 km/h
2662 24-12-2008 04:42:52 2.7 C 5.01 g/m*3 2.7 C 0 km/h
2663 24-12-2008 04:54:52 2.5 C 4.94 g/m*3 2.5 C 0 km/h
2664 24-12-2008 05:06:51 2.3 C 4.93 g/m*3 2.3 C 0 km/h
2665 24-12-2008 05:18:51 2.3 C 4.93 g/m*3 2.3 C 0 km/h
2666 24-12-2008 05:30:51 2.1 C 4.92 g/m*3 2.1 C 0 km/h
2667 24-12-2008 05:42:51 2 C 4.89 g/m*3 2 C 0 km/h
2668 24-12-2008 05:54:50 2.3 C 5.05 g/m*3 2.3 C 0 km/h
2669 24-12-2008 06:06:51 2.8 C 5.34 g/m*3 2.8 C 0 km/h
2670 24-12-2008 06:18:51 2.9 C 5.37 g/m*3 2.9 C 0 km/h
2671 24-12-2008 06:30:50 2.8 C 5.28 g/m*3 2.8 C 0 km/h
2672 24-12-2008 06:42:50 2.7 C 5.24 g/m*3 2.7 C 0 km/h
2673 24-12-2008 06:54:51 2.8 C 5.22 g/m*3 2.8 C 0 km/h
2674 24-12-2008 07:06:50 2.9 C 5.26 g/m*3 2.9 C 0 km/h
2675 24-12-2008 07:18:50 3 C 5.29 g/m*3 3 C 0 km/h
Sensor: Nr:Datum:Temp:Abs-Feuchte:Windchill:Wind:
Aussen-T/F 2676 24-12-2008 07:30:50 3.3 C 5.4 g/m*3 3.3 C 0 km/h
2677 24-12-2008 07:42:50 3.3 C 5.4 g/m*3 3.3 C 0 km/h
2678 24-12-2008 07:54:50 3.2 C 5.36 g/m*3 3.2 C 0 km/h
2679 24-12-2008 08:06:50 3.2 C 5.36 g/m*3 3.2 C 0 km/h
2680 24-12-2008 08:18:49 3.3 C 5.4 g/m*3 3.3 C 0 km/h
2681 24-12-2008 08:30:50 3.5 C 5.47 g/m*3 3.5 C 0 km/h
2682 24-12-2008 08:42:50 3.6 C 5.51 g/m*3 3.6 C 0 km/h
2683 24-12-2008 08:54:49 3.5 C 5.47 g/m*3 3.5 C 0 km/h
2684 24-12-2008 09:06:49 3.5 C 5.47 g/m*3 3.5 C 0 km/h
2685 24-12-2008 09:18:49 3.4 C 5.44 g/m*3 3.4 C 0 km/h
2686 24-12-2008 09:30:49 3.4 C 5.44 g/m*3 3.4 C 0 km/h
2687 24-12-2008 09:42:49 3.5 C 5.53 g/m*3 3.5 C 0 km/h
2688 24-12-2008 09:54:48 3.6 C 5.51 g/m*3 3.6 C 0 km/h
2689 24-12-2008 10:06:49 3.6 C 5.51 g/m*3 3.6 C 0 km/h
2690 24-12-2008 10:18:49 3.7 C 5.55 g/m*3 3.7 C 0 km/h
2691 24-12-2008 10:30:48 3.9 C 5.68 g/m*3 3.9 C 0 km/h
2692 24-12-2008 10:42:48 4 C 5.66 g/m*3 4 C 0 km/h
2693 24-12-2008 10:54:49 4 C 5.66 g/m*3 4 C 0 km/h
2694 24-12-2008 11:06:48 4.1 C 5.76 g/m*3 4.1 C 0 km/h
2695 24-12-2008 11:18:48 4.1 C 5.76 g/m*3 4.1 C 0 km/h
2696 24-12-2008 11:30:47 4.2 C 5.8 g/m*3 4.2 C 0 km/h
2697 24-12-2008 11:42:47 4.3 C 5.77 g/m*3 4.3 C 0 km/h
2698 24-12-2008 11:54:48 4.3 C 5.77 g/m*3 4.3 C 0 km/h
2699 24-12-2008 12:06:47 4.4 C 5.75 g/m*3 4.4 C 0 km/h
2700 24-12-2008 12:18:47 4.5 C 5.72 g/m*3 4.5 C 0 km/h
Sensor: Nr:Datum:Temp:Abs-Feuchte:Windchill:Wind:
Aussen-T/F 2701 24-12-2008 12:30:48 4.8 C 5.77 g/m*3 4.8 C 0 km/h
2702 24-12-2008 12:42:48 5 C 5.71 g/m*3 5 C 0 km/h
2703 24-12-2008 12:54:47 5.3 C 5.68 g/m*3 5.3 C 0 km/h
2704 24-12-2008 13:06:47 5.6 C 5.66 g/m*3 5.6 C 0 km/h
2705 24-12-2008 13:18:47 5.5 C 5.55 g/m*3 5.5 C 0 km/h
2706 24-12-2008 13:30:47 5.3 C 5.48 g/m*3 5.3 C 0 km/h
2707 24-12-2008 13:42:47 5.3 C 5.48 g/m*3 5.3 C 0 km/h
2708 24-12-2008 13:54:46 5.2 C 5.44 g/m*3 5.2 C 0 km/h
2709 24-12-2008 14:06:47 5.2 C 5.44 g/m*3 5.2 C 0 km/h
2710 24-12-2008 14:18:47 5.2 C 5.44 g/m*3 5.2 C 0 km/h
2711 24-12-2008 14:30:46 5.3 C 5.48 g/m*3 5.3 C 0 km/h
2712 24-12-2008 14:42:46 5.3 C 5.48 g/m*3 5.3 C 0 km/h
2713 24-12-2008 14:54:46 5.2 C 5.44 g/m*3 5.2 C 0 km/h
2714 24-12-2008 15:06:46 5.2 C 5.44 g/m*3 5.2 C 0 km/h
2715 24-12-2008 15:18:46 5.1 C 5.47 g/m*3 5.1 C 0 km/h
2716 24-12-2008 15:30:45 4.9 C 5.6 g/m*3 4.9 C 0 km/h
2717 24-12-2008 15:42:45 4.9 C 5.74 g/m*3 4.9 C 0 km/h
2718 24-12-2008 15:54:46 5.1 C 5.88 g/m*3 5.1 C 0 km/h
2719 24-12-2008 16:06:45 5.3 C 6.1 g/m*3 5.3 C 0 km/h
2720 24-12-2008 16:18:45 5.3 C 6.17 g/m*3 5.3 C 0 km/h
2721 24-12-2008 16:30:45 5.4 C 6.21 g/m*3 5.4 C 0 km/h
2722 24-12-2008 16:42:45 5.4 C 6.21 g/m*3 5.4 C 0 km/h
2723 24-12-2008 16:54:45 5.3 C 6.17 g/m*3 5.3 C 0 km/h
2724 24-12-2008 17:06:45 5.2 C 6.13 g/m*3 5.2 C 0 km/h
2725 24-12-2008 17:18:44 5.2 C 6.13 g/m*3 5.2 C 0 km/h
Sensor: Nr:Datum:Temp:Abs-Feuchte:Windchill:Wind:
Aussen-T/F 2726 24-12-2008 17:30:45 5.1 C 6.02 g/m*3 5.1 C 0 km/h
2727 24-12-2008 17:42:45 5.2 C 5.99 g/m*3 5.2 C 0 km/h
2728 24-12-2008 17:54:44 5.2 C 5.85 g/m*3 5.2 C 0 km/h
2729 24-12-2008 18:06:44 5.3 C 5.82 g/m*3 5.3 C 0 km/h
2730 24-12-2008 18:18:45 5.3 C 5.82 g/m*3 5.3 C 0 km/h
2731 24-12-2008 18:30:44 5.3 C 5.82 g/m*3 5.3 C 0 km/h
2732 24-12-2008 18:42:44 5.3 C 5.82 g/m*3 5.3 C 0 km/h
2733 24-12-2008 18:54:44 5.3 C 5.82 g/m*3 5.3 C 0 km/h
2734 24-12-2008 19:06:44 5.2 C 5.85 g/m*3 5.2 C 0 km/h
2735 24-12-2008 19:18:44 5.2 C 5.92 g/m*3 5.2 C 0 km/h
2736 24-12-2008 19:30:43 5.2 C 5.92 g/m*3 5.2 C 0 km/h
2737 24-12-2008 19:42:43 5.2 C 5.92 g/m*3 5.2 C 0 km/h
2738 24-12-2008 19:54:44 5.2 C 5.92 g/m*3 5.2 C 0 km/h
2739 24-12-2008 20:06:43 5.3 C 5.96 g/m*3 5.3 C 0 km/h
2740 24-12-2008 20:18:43 5.2 C 5.92 g/m*3 5.2 C 0 km/h
2741 24-12-2008 20:30:43 5.2 C 5.99 g/m*3 5.2 C 0 km/h
2742 24-12-2008 20:42:43 5.2 C 6.06 g/m*3 5.2 C 0 km/h
2743 24-12-2008 20:54:43 5.2 C 6.06 g/m*3 5.2 C 0 km/h
2744 24-12-2008 21:06:43 5.2 C 6.13 g/m*3 5.2 C 0 km/h
2745 24-12-2008 21:18:42 5.2 C 6.13 g/m*3 5.2 C 0 km/h
2746 24-12-2008 21:30:42 5.2 C 6.13 g/m*3 5.2 C 0 km/h
2747 24-12-2008 21:42:42 5.2 C 6.13 g/m*3 5.2 C 0 km/h
2748 24-12-2008 21:54:43 5.3 C 6.17 g/m*3 5.3 C 0 km/h
2749 24-12-2008 22:06:42 5.3 C 6.17 g/m*3 5.3 C 0 km/h
2750 24-12-2008 22:18:42 5.3 C 6.17 g/m*3 5.3 C 0 km/h
Sensor: Nr:Datum:Temp:Abs-Feuchte:Windchill:Wind:
Aussen-T/F 2751 24-12-2008 22:30:42 5.3 C 6.17 g/m*3 5.3 C 0 km/h
2752 24-12-2008 22:42:42 5.3 C 6.17 g/m*3 5.3 C 0 km/h
2753 24-12-2008 22:54:42 5.3 C 6.17 g/m*3 5.3 C 0 km/h
2754 24-12-2008 23:06:41 5.3 C 6.1 g/m*3 5.3 C 0 km/h
2755 24-12-2008 23:18:42 5.3 C 6.1 g/m*3 5.3 C 0 km/h
2756 24-12-2008 23:30:42 5.3 C 6.1 g/m*3 5.3 C 0 km/h
2757 24-12-2008 23:42:42 5.4 C 6.07 g/m*3 5.4 C 0 km/h
2758 24-12-2008 23:54:41 5.4 C 6 g/m*3 5.4 C 0 km/h
2759 25-12-2008 00:06:42 5.4 C 5.86 g/m*3 5.4 C 0 km/h
2760 25-12-2008 00:18:41 5.3 C 5.82 g/m*3 5.3 C 0 km/h
2761 25-12-2008 00:30:41 5.2 C 5.78 g/m*3 5.2 C 0 km/h
2762 25-12-2008 00:42:41 5.2 C 5.78 g/m*3 5.2 C 0 km/h
2763 25-12-2008 00:54:41 5.2 C 5.78 g/m*3 5.2 C 0 km/h
2764 25-12-2008 01:06:40 5.1 C 5.75 g/m*3 5.1 C 0 km/h
2765 25-12-2008 01:18:41 5 C 5.71 g/m*3 5 C 0 km/h
2766 25-12-2008 01:30:40 5 C 5.64 g/m*3 5 C 0 km/h
2767 25-12-2008 01:42:40 5.1 C 5.47 g/m*3 5.1 C 0 km/h
2768 25-12-2008 01:54:40 5.2 C 5.37 g/m*3 5.2 C 0 km/h
2769 25-12-2008 02:06:40 5.3 C 5.41 g/m*3 5.3 C 0 km/h
2770 25-12-2008 02:18:40 4.7 C 5.26 g/m*3 4.7 C 0 km/h
2771 25-12-2008 02:30:40 4.8 C 5.43 g/m*3 4.8 C 0 km/h
2772 25-12-2008 02:42:40 4.9 C 5.54 g/m*3 4.9 C 0 km/h
2773 25-12-2008 02:55:41 5 C 5.5 g/m*3 5 C 0 km/h
2774 25-12-2008 03:07:41 5 C 5.57 g/m*3 5 C 0 km/h
2775 25-12-2008 03:19:41 4.8 C 5.5 g/m*3 4.8 C 0 km/h
Sensor: Nr:Datum:Temp:Abs-Feuchte:Windchill:Wind:
Aussen-T/F 2776 25-12-2008 03:31:41 4.5 C 5.46 g/m*3 4.5 C 0 km/h
2777 25-12-2008 03:43:41 4.3 C 5.38 g/m*3 4.3 C 0 km/h
2778 25-12-2008 03:55:41 4.2 C 5.41 g/m*3 4.2 C 0 km/h
2779 25-12-2008 04:07:40 4.4 C 5.55 g/m*3 4.4 C 0 km/h
2780 25-12-2008 04:19:40 4.5 C 5.59 g/m*3 4.5 C 0 km/h
2781 25-12-2008 04:31:41 4.6 C 5.62 g/m*3 4.6 C 0 km/h
2782 25-12-2008 04:43:41 4.6 C 5.62 g/m*3 4.6 C 0 km/h
2783 25-12-2008 04:55:40 4.6 C 5.56 g/m*3 4.6 C 0 km/h
2784 25-12-2008 05:07:40 4.6 C 5.56 g/m*3 4.6 C 0 km/h
2785 25-12-2008 05:19:40 4.6 C 5.56 g/m*3 4.6 C 0 km/h
2786 25-12-2008 05:31:40 4.6 C 5.56 g/m*3 4.6 C 0 km/h
2787 25-12-2008 05:43:40 4.7 C 5.6 g/m*3 4.7 C 0 km/h
2788 25-12-2008 05:55:40 4.7 C 5.53 g/m*3 4.7 C 0 km/h
2789 25-12-2008 06:07:40 4.7 C 5.53 g/m*3 4.7 C 0 km/h
2790 25-12-2008 06:19:39 4.7 C 5.53 g/m*3 4.7 C 0 km/h
2791 25-12-2008 06:31:39 4.7 C 5.53 g/m*3 4.7 C 0 km/h
2792 25-12-2008 06:43:39 4.7 C 5.46 g/m*3 4.7 C 0 km/h
2793 25-12-2008 06:55:39 4.7 C 5.46 g/m*3 4.7 C 0 km/h
2794 25-12-2008 07:07:39 4.8 C 5.5 g/m*3 4.8 C 0 km/h
2795 25-12-2008 07:19:38 4.8 C 5.43 g/m*3 4.8 C 0 km/h
2796 25-12-2008 07:31:39 4.8 C 5.43 g/m*3 4.8 C 0 km/h
2797 25-12-2008 07:43:39 4.8 C 5.43 g/m*3 4.8 C 0 km/h
2798 25-12-2008 07:55:38 4.8 C 5.43 g/m*3 4.8 C 0 km/h
2799 25-12-2008 08:07:38 4.7 C 5.4 g/m*3 4.7 C 0 km/h
2800 25-12-2008 08:19:39 4.7 C 5.4 g/m*3 4.7 C 0 km/h
Sensor: Nr:Datum:Temp:Abs-Feuchte:Windchill:Wind:
Aussen-T/F 2801 25-12-2008 08:31:38 4.7 C 5.4 g/m*3 4.7 C 0 km/h
2802 25-12-2008 08:43:38 4.8 C 5.43 g/m*3 4.8 C 0 km/h
2803 25-12-2008 08:55:38 4.8 C 5.43 g/m*3 4.8 C 0 km/h
2804 25-12-2008 09:07:38 4.8 C 5.43 g/m*3 4.8 C 0 km/h
2805 25-12-2008 09:24:38 5 C 5.44 g/m*3 5 C 0 km/h
2806 25-12-2008 09:36:37 5.1 C 5.47 g/m*3 5.1 C 0 km/h
2807 25-12-2008 09:48:38 5.3 C 5.48 g/m*3 5.3 C 0 km/h
2808 25-12-2008 10:00:37 5.4 C 5.58 g/m*3 5.4 C 0 km/h
2809 25-12-2008 10:12:37 5.7 C 5.62 g/m*3 5.7 C 0 km/h
2810 25-12-2008 10:24:37 5.8 C 5.59 g/m*3 5.8 C 0 km/h
2811 25-12-2008 10:36:37 6 C 5.52 g/m*3 6 C 0 km/h
2812 25-12-2008 10:48:37 6.2 C 5.44 g/m*3 6.2 C 0 km/h
2813 25-12-2008 11:00:36 6.3 C 5.4 g/m*3 6.3 C 0 km/h
2814 25-12-2008 11:12:36 6.3 C 5.33 g/m*3 6.3 C 0 km/h
2815 25-12-2008 11:25:37 6.3 C 5.26 g/m*3 6.3 C 0 km/h
2816 25-12-2008 11:37:36 6.4 C 5.07 g/m*3 6.4 C 0 km/h
2817 25-12-2008 11:49:37 6.9 C 4.93 g/m*3 6.9 C 0 km/h
2818 25-12-2008 12:01:36 7 C 4.8 g/m*3 7 C 0 km/h
2819 25-12-2008 12:13:36 7 C 4.8 g/m*3 7 C 0 km/h
2820 25-12-2008 12:25:36 6.9 C 4.85 g/m*3 6.9 C 0 km/h
2821 25-12-2008 12:37:36 7.1 C 4.76 g/m*3 7.1 C 0 km/h
2822 25-12-2008 12:49:36 7.1 C 4.6 g/m*3 7.1 C 0 km/h
2823 25-12-2008 13:01:35 7 C 4.65 g/m*3 7 C 0 km/h
2824 25-12-2008 13:13:35 7 C 4.65 g/m*3 7 C 0 km/h
2825 25-12-2008 13:25:36 6.9 C 4.7 g/m*3 6.9 C 0 km/h
Sensor: Nr:Datum:Temp:Abs-Feuchte:Windchill:Wind:
Aussen-T/F 2826 25-12-2008 13:37:35 7 C 4.57 g/m*3 7 C 0 km/h
2827 25-12-2008 13:49:35 7 C 4.49 g/m*3 7 C 0 km/h
2828 25-12-2008 14:01:35 7.1 C 4.37 g/m*3 7.1 C 0 km/h
2829 25-12-2008 14:13:35 7.1 C 4.52 g/m*3 7.1 C 0 km/h
2830 25-12-2008 14:25:35 7.1 C 4.37 g/m*3 7.1 C 0 km/h
2831 25-12-2008 14:37:35 7 C 4.26 g/m*3 7 C 0 km/h
2832 25-12-2008 14:49:35 7.1 C 4.21 g/m*3 7.1 C 0 km/h
2833 25-12-2008 15:01:35 7.2 C 4.24 g/m*3 7.2 C 0 km/h
2834 25-12-2008 15:13:35 7.1 C 4.29 g/m*3 7.1 C 0 km/h
2835 25-12-2008 15:25:35 7 C 4.26 g/m*3 7 C 0 km/h
2836 25-12-2008 15:37:34 6.9 C 4.39 g/m*3 6.9 C 0 km/h
2837 25-12-2008 15:49:34 6.6 C 4.45 g/m*3 6.6 C 0 km/h
2838 25-12-2008 16:01:34 6.1 C 4.24 g/m*3 6.1 C 0 km/h
2839 25-12-2008 16:13:34 5.9 C 4.33 g/m*3 5.9 C 0 km/h
2840 25-12-2008 16:25:34 5.6 C 4.31 g/m*3 5.6 C 0 km/h
2841 25-12-2008 16:37:34 5.1 C 4.24 g/m*3 5.1 C 0 km/h
2842 25-12-2008 16:49:33 4.8 C 4.29 g/m*3 4.8 C 0 km/h
2843 25-12-2008 17:01:34 4.7 C 4.26 g/m*3 4.7 C 0 km/h
2844 25-12-2008 17:13:34 4.5 C 4.14 g/m*3 4.5 C 0 km/h
2845 25-12-2008 17:25:33 4.2 C 4.12 g/m*3 4.2 C 0 km/h
2846 25-12-2008 17:37:34 4 C 4.07 g/m*3 4 C 0 km/h
2847 25-12-2008 17:49:34 3.7 C 3.99 g/m*3 3.7 C 0 km/h
2848 25-12-2008 18:01:33 3.5 C 3.87 g/m*3 3.5 C 0 km/h
2849 25-12-2008 18:13:34 3.3 C 3.76 g/m*3 3.3 C 0 km/h
2850 25-12-2008 18:25:33 3.1 C 3.47 g/m*3 3.1 C 0 km/h
Sensor: Nr:Datum:Temp:Abs-Feuchte:Windchill:Wind:
Aussen-T/F 2851 25-12-2008 18:37:33 3 C 3.33 g/m*3 3 C 0 km/h
2852 25-12-2008 18:49:33 2.7 C 3.38 g/m*3 2.7 C 0 km/h
2853 25-12-2008 19:01:32 2.4 C 3.31 g/m*3 2.4 C 0 km/h
2854 25-12-2008 19:13:32 2.2 C 3.27 g/m*3 2.2 C 0 km/h
2855 25-12-2008 19:25:33 1.8 C 3.18 g/m*3 1.8 C 0 km/h
2856 25-12-2008 19:37:32 1.5 C 3.12 g/m*3 1.5 C 0 km/h
2857 25-12-2008 19:49:32 1.3 C 3.07 g/m*3 1.3 C 0 km/h
2858 25-12-2008 20:01:32 1.1 C 3.08 g/m*3 1.1 C 0 km/h
2859 25-12-2008 20:13:32 1 C 3.11 g/m*3 1 C 0 km/h
2860 25-12-2008 20:25:31 1 C 3.06 g/m*3 1 C 0 km/h
2861 25-12-2008 20:37:32 1 C 3.06 g/m*3 1 C 0 km/h
2862 25-12-2008 20:49:32 1.1 C 3.08 g/m*3 1.1 C 0 km/h
2863 25-12-2008 21:01:32 1 C 3.01 g/m*3 1 C 0 km/h
2864 25-12-2008 21:13:32 1 C 3.01 g/m*3 1 C 0 km/h
2865 25-12-2008 21:25:31 0.9 C 2.99 g/m*3 0.9 C 0 km/h
2866 25-12-2008 21:37:31 0.8 C 2.97 g/m*3 0.8 C 0 km/h
2867 25-12-2008 21:49:31 0.7 C 2.9 g/m*3 0.7 C 0 km/h
2868 25-12-2008 22:01:31 0.6 C 2.88 g/m*3 0.6 C 0 km/h
2869 25-12-2008 22:13:31 0.6 C 2.88 g/m*3 0.6 C 0 km/h
2870 25-12-2008 22:25:31 0.5 C 2.86 g/m*3 0.5 C 0 km/h
2871 25-12-2008 22:37:31 0.6 C 2.93 g/m*3 0.6 C 0 km/h
2872 25-12-2008 22:49:30 0.7 C 2.9 g/m*3 0.7 C 0 km/h
2873 25-12-2008 23:01:30 0.5 C 2.86 g/m*3 0.5 C 0 km/h
2874 25-12-2008 23:13:30 0.3 C 2.82 g/m*3 0.3 C 0 km/h
2875 25-12-2008 23:25:30 0 C 2.81 g/m*3 0 C 0 km/h
Sensor: Nr:Datum:Temp:Abs-Feuchte:Windchill:Wind:
Aussen-T/F 2876 25-12-2008 23:37:30 -0.4 C 2.83 g/m*3 -0.4 C 0 km/h
2877 25-12-2008 23:49:29 -0.5 C 2.81 g/m*3 -0.5 C 0 km/h
2878 26-12-2008 00:01:30 -0.6 C 2.79 g/m*3 -0.6 C 0 km/h
2879 26-12-2008 00:13:30 -0.6 C 2.79 g/m*3 -0.6 C 0 km/h
2880 26-12-2008 00:25:30 -0.7 C 2.82 g/m*3 -0.7 C 0 km/h
2881 26-12-2008 00:37:29 -0.7 C 2.82 g/m*3 -0.7 C 0 km/h
2882 26-12-2008 00:49:30 -0.5 C 2.86 g/m*3 -0.5 C 0 km/h
2883 26-12-2008 01:01:29 -0.2 C 2.91 g/m*3 -0.2 C 0 km/h
2884 26-12-2008 01:13:29 0.2 C 2.95 g/m*3 0.2 C 0 km/h
2885 26-12-2008 01:25:29 0.4 C 2.94 g/m*3 0.4 C 0 km/h
2886 26-12-2008 01:37:29 0.5 C 2.91 g/m*3 0.5 C 0 km/h
2887 26-12-2008 01:49:29 0.5 C 2.86 g/m*3 0.5 C 0 km/h
2888 26-12-2008 02:01:28 0.5 C 2.81 g/m*3 0.5 C 0 km/h
2889 26-12-2008 02:13:28 0.4 C 2.84 g/m*3 0.4 C 0 km/h
2890 26-12-2008 02:25:29 0.2 C 2.8 g/m*3 0.2 C 0 km/h
2891 26-12-2008 02:37:29 0.2 C 2.75 g/m*3 0.2 C 0 km/h
2892 26-12-2008 02:50:01 0.2 C 2.7 g/m*3 0.2 C 0 km/h
2893 26-12-2008 03:02:01 0.1 C 2.68 g/m*3 0.1 C 0 km/h
2894 26-12-2008 03:14:01 -0.2 C 2.58 g/m*3 -0.2 C 0 km/h
2895 26-12-2008 03:26:01 -0.5 C 2.48 g/m*3 -0.5 C 0 km/h
2896 26-12-2008 03:38:02 -0.6 C 2.46 g/m*3 -0.6 C 0 km/h
2897 26-12-2008 03:50:02 -0.8 C 2.48 g/m*3 -0.8 C 0 km/h
2898 26-12-2008 04:02:01 -0.8 C 2.52 g/m*3 -0.8 C 0 km/h
2899 26-12-2008 04:14:01 -0.9 C 2.5 g/m*3 -0.9 C 0 km/h
2900 26-12-2008 04:26:01 -1 C 2.49 g/m*3 -1 C 0 km/h
Sensor: Nr:Datum:Temp:Abs-Feuchte:Windchill:Wind:
Aussen-T/F 2901 26-12-2008 04:38:02 -1 C 2.49 g/m*3 -1 C 0 km/h
2902 26-12-2008 04:50:01 -1.1 C 2.47 g/m*3 -1.1 C 0 km/h
2903 26-12-2008 05:02:01 -1.1 C 2.47 g/m*3 -1.1 C 0 km/h
2904 26-12-2008 05:14:01 -1.2 C 2.5 g/m*3 -1.2 C 0 km/h
2905 26-12-2008 05:26:01 -1.3 C 2.48 g/m*3 -1.3 C 0 km/h
2906 26-12-2008 05:38:01 -1.3 C 2.48 g/m*3 -1.3 C 0 km/h
2907 26-12-2008 05:50:01 -1.4 C 2.51 g/m*3 -1.4 C 0 km/h
2908 26-12-2008 06:02:01 -1.4 C 2.51 g/m*3 -1.4 C 0 km/h
2909 26-12-2008 06:14:01 -1.6 C 2.47 g/m*3 -1.6 C 0 km/h
2910 26-12-2008 06:26:01 -1.6 C 2.47 g/m*3 -1.6 C 0 km/h
2911 26-12-2008 06:38:01 -1.6 C 2.47 g/m*3 -1.6 C 0 km/h
2912 26-12-2008 06:50:01 -1.7 C 2.45 g/m*3 -1.7 C 0 km/h
2913 26-12-2008 07:02:01 -1.7 C 2.45 g/m*3 -1.7 C 0 km/h
2914 26-12-2008 07:14:01 -1.7 C 2.5 g/m*3 -1.7 C 0 km/h
2915 26-12-2008 07:26:02 -1.8 C 2.48 g/m*3 -1.8 C 0 km/h
2916 26-12-2008 07:38:01 -1.7 C 2.5 g/m*3 -1.7 C 0 km/h
2917 26-12-2008 07:50:02 -1.8 C 2.44 g/m*3 -1.8 C 0 km/h
2918 26-12-2008 08:02:01 -1.9 C 2.46 g/m*3 -1.9 C 0 km/h
2919 26-12-2008 08:14:01 -1.9 C 2.46 g/m*3 -1.9 C 0 km/h
2920 26-12-2008 08:26:01 -2 C 2.49 g/m*3 -2 C 0 km/h
2921 26-12-2008 08:38:01 -2 C 2.49 g/m*3 -2 C 0 km/h
2922 26-12-2008 08:50:01 -2 C 2.53 g/m*3 -2 C 0 km/h
2923 26-12-2008 09:02:02 -2 C 2.53 g/m*3 -2 C 0 km/h
2924 26-12-2008 09:14:02 -1.9 C 2.55 g/m*3 -1.9 C 0 km/h
2925 26-12-2008 09:26:01 -1.9 C 2.55 g/m*3 -1.9 C 0 km/h
Sensor: Nr:Datum:Temp:Abs-Feuchte:Windchill:Wind:
Aussen-T/F 2926 26-12-2008 09:38:02 -1.8 C 2.56 g/m*3 -1.8 C 0 km/h
2927 26-12-2008 09:50:01 -1.7 C 2.58 g/m*3 -1.7 C 0 km/h
2928 26-12-2008 10:02:02 -1.6 C 2.6 g/m*3 -1.6 C 0 km/h
2929 26-12-2008 10:14:02 -1.5 C 2.58 g/m*3 -1.5 C 0 km/h
2930 26-12-2008 10:26:01 -1.5 C 2.58 g/m*3 -1.5 C 0 km/h
2931 26-12-2008 10:38:02 -1.4 C 2.55 g/m*3 -1.4 C 0 km/h
2932 26-12-2008 10:50:01 -1.3 C 2.57 g/m*3 -1.3 C 0 km/h
2933 26-12-2008 11:02:02 -1.2 C 2.54 g/m*3 -1.2 C 0 km/h
2934 26-12-2008 11:14:02 -1 C 2.58 g/m*3 -1 C 0 km/h
2935 26-12-2008 11:26:01 -0.8 C 2.52 g/m*3 -0.8 C 0 km/h
2936 26-12-2008 11:38:01 -0.9 C 2.5 g/m*3 -0.9 C 0 km/h
2937 26-12-2008 11:50:01 -0.8 C 2.52 g/m*3 -0.8 C 0 km/h
2938 26-12-2008 12:02:01 -0.6 C 2.51 g/m*3 -0.6 C 0 km/h
2939 26-12-2008 12:14:01 -0.6 C 2.51 g/m*3 -0.6 C 0 km/h
2940 26-12-2008 12:26:01 -0.5 C 2.53 g/m*3 -0.5 C 0 km/h
2941 26-12-2008 12:38:01 -0.3 C 2.56 g/m*3 -0.3 C 0 km/h
2942 26-12-2008 12:50:01 -0.2 C 2.48 g/m*3 -0.2 C 0 km/h
2943 26-12-2008 13:02:01 0 C 2.52 g/m*3 0 C 0 km/h
2944 26-12-2008 13:14:01 0.1 C 2.54 g/m*3 0.1 C 0 km/h
2945 26-12-2008 13:26:02 0.2 C 2.55 g/m*3 0.2 C 0 km/h
2946 26-12-2008 13:38:01 0.4 C 2.54 g/m*3 0.4 C 0 km/h
2947 26-12-2008 13:50:02 0.3 C 2.57 g/m*3 0.3 C 0 km/h
2948 26-12-2008 14:02:01 0.4 C 2.54 g/m*3 0.4 C 0 km/h
2949 26-12-2008 14:14:01 0.4 C 2.54 g/m*3 0.4 C 0 km/h
2950 26-12-2008 14:26:02 0.5 C 2.56 g/m*3 0.5 C 0 km/h
Sensor: Nr:Datum:Temp:Abs-Feuchte:Windchill:Wind:
Aussen-T/F 2951 26-12-2008 14:38:01 0.5 C 2.56 g/m*3 0.5 C 0 km/h
2952 26-12-2008 14:50:01 0.5 C 2.56 g/m*3 0.5 C 0 km/h
2953 26-12-2008 15:02:01 0.6 C 2.52 g/m*3 0.6 C 0 km/h
2954 26-12-2008 15:14:01 0.6 C 2.52 g/m*3 0.6 C 0 km/h
2955 26-12-2008 15:26:01 0.5 C 2.56 g/m*3 0.5 C 0 km/h
2956 26-12-2008 15:38:02 0.6 C 2.58 g/m*3 0.6 C 0 km/h
2957 26-12-2008 15:50:01 0.3 C 2.57 g/m*3 0.3 C 0 km/h
2958 26-12-2008 16:02:02 0.2 C 2.6 g/m*3 0.2 C 0 km/h
2959 26-12-2008 16:14:02 -0.3 C 2.66 g/m*3 -0.3 C 0 km/h
2960 26-12-2008 16:26:01 -0.5 C 2.67 g/m*3 -0.5 C 0 km/h
2961 26-12-2008 16:38:01 -0.5 C 2.67 g/m*3 -0.5 C 0 km/h
2962 26-12-2008 16:50:01 -0.5 C 2.62 g/m*3 -0.5 C 0 km/h
2963 26-12-2008 17:02:01 -0.7 C 2.58 g/m*3 -0.7 C 0 km/h
2964 26-12-2008 17:14:01 -1 C 2.62 g/m*3 -1 C 0 km/h
2965 26-12-2008 17:26:01 -1.3 C 2.61 g/m*3 -1.3 C 0 km/h
2966 26-12-2008 17:38:01 -1.3 C 2.66 g/m*3 -1.3 C 0 km/h
2967 26-12-2008 17:50:01 -1.3 C 2.61 g/m*3 -1.3 C 0 km/h
2968 26-12-2008 18:02:01 -1.4 C 2.59 g/m*3 -1.4 C 0 km/h
2969 26-12-2008 18:14:01 -1.6 C 2.64 g/m*3 -1.6 C 0 km/h
2970 26-12-2008 18:26:02 -1.9 C 2.63 g/m*3 -1.9 C 0 km/h
2971 26-12-2008 18:38:01 -2 C 2.66 g/m*3 -2 C 0 km/h
2972 26-12-2008 18:50:02 -2.1 C 2.64 g/m*3 -2.1 C 0 km/h
2973 26-12-2008 19:02:01 -2.1 C 2.68 g/m*3 -2.1 C 0 km/h
2974 26-12-2008 19:14:01 -2 C 2.7 g/m*3 -2 C 0 km/h
2975 26-12-2008 19:26:01 -1.9 C 2.63 g/m*3 -1.9 C 0 km/h
Sensor: Nr:Datum:Temp:Abs-Feuchte:Windchill:Wind:
Aussen-T/F 2976 26-12-2008 19:38:01 -2.3 C 2.64 g/m*3 -2.3 C 0 km/h
2977 26-12-2008 19:50:01 -2.4 C 2.66 g/m*3 -2.4 C 0 km/h
2978 26-12-2008 20:02:02 -2.5 C 2.69 g/m*3 -2.5 C 0 km/h
2979 26-12-2008 20:14:02 -2.4 C 2.66 g/m*3 -2.4 C 0 km/h
2980 26-12-2008 20:26:01 -2.3 C 2.64 g/m*3 -2.3 C 0 km/h
2981 26-12-2008 20:38:02 -2.5 C 2.6 g/m*3 -2.5 C 0 km/h
2982 26-12-2008 20:50:01 -2.5 C 2.6 g/m*3 -2.5 C 0 km/h
2983 26-12-2008 21:02:02 -2.6 C 2.59 g/m*3 -2.6 C 0 km/h
2984 26-12-2008 21:14:02 -2.6 C 2.59 g/m*3 -2.6 C 0 km/h
2985 26-12-2008 21:26:01 -2.7 C 2.57 g/m*3 -2.7 C 0 km/h
2986 26-12-2008 21:38:02 -2.8 C 2.59 g/m*3 -2.8 C 0 km/h
2987 26-12-2008 21:50:01 -3 C 2.55 g/m*3 -3 C 0 km/h
2988 26-12-2008 22:02:02 -3 C 2.59 g/m*3 -3 C 0 km/h
2989 26-12-2008 22:14:02 -3.1 C 2.57 g/m*3 -3.1 C 0 km/h
2990 26-12-2008 22:26:01 -3.1 C 2.61 g/m*3 -3.1 C 0 km/h
2991 26-12-2008 22:38:01 -3.1 C 2.57 g/m*3 -3.1 C 0 km/h
2992 26-12-2008 22:50:01 -3.1 C 2.57 g/m*3 -3.1 C 0 km/h
2993 26-12-2008 23:02:01 -3.2 C 2.59 g/m*3 -3.2 C 0 km/h
2994 26-12-2008 23:14:01 -3.3 C 2.58 g/m*3 -3.3 C 0 km/h
2995 26-12-2008 23:26:02 -3.6 C 2.56 g/m*3 -3.6 C 0 km/h
2996 26-12-2008 23:38:01 -3.5 C 2.65 g/m*3 -3.5 C 0 km/h
2997 26-12-2008 23:50:02 -3.4 C 2.67 g/m*3 -3.4 C 0 km/h
2998 27-12-2008 00:02:01 -3.4 C 2.63 g/m*3 -3.4 C 0 km/h
2999 27-12-2008 00:14:01 -3.3 C 2.65 g/m*3 -3.3 C 0 km/h
3000 27-12-2008 00:26:02 -3.2 C 2.71 g/m*3 -3.2 C 0 km/h
Sensor: Nr:Datum:Temp:Abs-Feuchte:Windchill:Wind:
Aussen-T/F 3001 27-12-2008 00:38:01 -3.1 C 2.69 g/m*3 -3.1 C 0 km/h
3002 27-12-2008 00:50:02 -3.1 C 2.69 g/m*3 -3.1 C 0 km/h
3003 27-12-2008 01:02:01 -3.1 C 2.69 g/m*3 -3.1 C 0 km/h
3004 27-12-2008 01:14:01 -3 C 2.67 g/m*3 -3 C 0 km/h
3005 27-12-2008 01:26:02 -3.1 C 2.65 g/m*3 -3.1 C 0 km/h
3006 27-12-2008 01:38:01 -3 C 2.71 g/m*3 -3 C 0 km/h
3007 27-12-2008 01:50:02 -2.9 C 2.73 g/m*3 -2.9 C 0 km/h
3008 27-12-2008 02:02:01 -2.8 C 2.71 g/m*3 -2.8 C 0 km/h
3009 27-12-2008 02:14:01 -2.8 C 2.67 g/m*3 -2.8 C 0 km/h
3010 27-12-2008 02:26:01 -2.8 C 2.67 g/m*3 -2.8 C 0 km/h
3011 27-12-2008 02:38:02 -2.9 C 2.65 g/m*3 -2.9 C 0 km/h
3012 27-12-2008 02:50:19 -2.7 C 2.69 g/m*3 -2.7 C 0 km/h
3013 27-12-2008 03:02:19 -2.7 C 2.69 g/m*3 -2.7 C 0 km/h
3014 27-12-2008 03:14:18 -2.7 C 2.69 g/m*3 -2.7 C 0 km/h
3015 27-12-2008 03:26:18 -2.7 C 2.65 g/m*3 -2.7 C 0 km/h
3016 27-12-2008 03:38:18 -2.7 C 2.65 g/m*3 -2.7 C 0 km/h
3017 27-12-2008 03:50:19 -2.8 C 2.67 g/m*3 -2.8 C 0 km/h
3018 27-12-2008 04:02:18 -2.7 C 2.65 g/m*3 -2.7 C 0 km/h
3019 27-12-2008 04:14:18 -2.5 C 2.69 g/m*3 -2.5 C 0 km/h
3020 27-12-2008 04:26:18 -2.5 C 2.65 g/m*3 -2.5 C 0 km/h
3021 27-12-2008 04:38:18 -2.5 C 2.65 g/m*3 -2.5 C 0 km/h
3022 27-12-2008 04:50:18 -2.5 C 2.65 g/m*3 -2.5 C 0 km/h
3023 27-12-2008 05:02:18 -2.5 C 2.65 g/m*3 -2.5 C 0 km/h
3024 27-12-2008 05:14:17 -2.4 C 2.62 g/m*3 -2.4 C 0 km/h
3025 27-12-2008 05:26:17 -2.3 C 2.64 g/m*3 -2.3 C 0 km/h
Sensor: Nr:Datum:Temp:Abs-Feuchte:Windchill:Wind:
Aussen-T/F 3026 27-12-2008 05:38:18 -2.3 C 2.6 g/m*3 -2.3 C 0 km/h
3027 27-12-2008 05:50:17 -2.3 C 2.56 g/m*3 -2.3 C 0 km/h
3028 27-12-2008 06:02:18 -2.3 C 2.6 g/m*3 -2.3 C 0 km/h
3029 27-12-2008 06:14:17 -2.3 C 2.6 g/m*3 -2.3 C 0 km/h
3030 27-12-2008 06:26:17 -2.3 C 2.6 g/m*3 -2.3 C 0 km/h
3031 27-12-2008 06:38:17 -2.3 C 2.56 g/m*3 -2.3 C 0 km/h
3032 27-12-2008 06:50:16 -2.3 C 2.56 g/m*3 -2.3 C 0 km/h
3033 27-12-2008 07:02:17 -2.4 C 2.54 g/m*3 -2.4 C 0 km/h
3034 27-12-2008 07:14:16 -2.3 C 2.52 g/m*3 -2.3 C 0 km/h
3035 27-12-2008 07:26:16 -2.3 C 2.52 g/m*3 -2.3 C 0 km/h
3036 27-12-2008 07:38:16 -2.1 C 2.6 g/m*3 -2.1 C 0 km/h
3037 27-12-2008 07:50:16 -2.3 C 2.56 g/m*3 -2.3 C 0 km/h
3038 27-12-2008 08:02:16 -2.4 C 2.54 g/m*3 -2.4 C 0 km/h
3039 27-12-2008 08:14:16 -2.4 C 2.54 g/m*3 -2.4 C 0 km/h
3040 27-12-2008 08:26:16 -2.4 C 2.54 g/m*3 -2.4 C 0 km/h
3041 27-12-2008 08:38:16 -2.3 C 2.56 g/m*3 -2.3 C 0 km/h
3042 27-12-2008 08:50:16 -2.1 C 2.55 g/m*3 -2.1 C 0 km/h
3043 27-12-2008 09:02:15 -2.1 C 2.55 g/m*3 -2.1 C 0 km/h
3044 27-12-2008 09:14:15 -2 C 2.53 g/m*3 -2 C 0 km/h
3045 27-12-2008 09:26:16 -2 C 2.49 g/m*3 -2 C 0 km/h
3046 27-12-2008 09:38:15 -1.9 C 2.46 g/m*3 -1.9 C 0 km/h
3047 27-12-2008 09:50:16 -1.7 C 2.5 g/m*3 -1.7 C 0 km/h
3048 27-12-2008 10:02:16 -1.7 C 2.45 g/m*3 -1.7 C 0 km/h
3049 27-12-2008 10:14:14 -1.6 C 2.47 g/m*3 -1.6 C 0 km/h
3050 27-12-2008 10:26:14 -1.4 C 2.46 g/m*3 -1.4 C 0 km/h
Sensor: Nr:Datum:Temp:Abs-Feuchte:Windchill:Wind:
Aussen-T/F 3051 27-12-2008 10:38:15 -1.3 C 2.43 g/m*3 -1.3 C 0 km/h
3052 27-12-2008 10:50:14 -1.2 C 2.45 g/m*3 -1.2 C 0 km/h
3053 27-12-2008 11:02:15 -1 C 2.49 g/m*3 -1 C 0 km/h
3054 27-12-2008 11:14:14 -1 C 2.49 g/m*3 -1 C 0 km/h
3055 27-12-2008 11:26:14 -0.8 C 2.48 g/m*3 -0.8 C 0 km/h
3056 27-12-2008 11:38:15 -0.6 C 2.51 g/m*3 -0.6 C 0 km/h
3057 27-12-2008 11:50:14 -0.6 C 2.46 g/m*3 -0.6 C 0 km/h
3058 27-12-2008 12:02:14 -0.6 C 2.42 g/m*3 -0.6 C 0 km/h
3059 27-12-2008 12:14:14 -0.4 C 2.45 g/m*3 -0.4 C 0 km/h
3060 27-12-2008 12:26:14 -0.2 C 2.48 g/m*3 -0.2 C 0 km/h
3061 27-12-2008 12:38:13 0 C 2.47 g/m*3 0 C 0 km/h
3062 27-12-2008 12:50:14 0 C 2.47 g/m*3 0 C 0 km/h
3063 27-12-2008 13:02:13 -0.1 C 2.41 g/m*3 -0.1 C 0 km/h
3064 27-12-2008 13:14:13 -0.2 C 2.44 g/m*3 -0.2 C 0 km/h
3065 27-12-2008 13:26:13 -0.3 C 2.42 g/m*3 -0.3 C 0 km/h
3066 27-12-2008 13:38:13 -0.4 C 2.4 g/m*3 -0.4 C 0 km/h
3067 27-12-2008 13:50:13 -0.5 C 2.39 g/m*3 -0.5 C 0 km/h
3068 27-12-2008 14:02:13 -0.6 C 2.37 g/m*3 -0.6 C 0 km/h
3069 27-12-2008 14:14:12 -0.7 C 2.35 g/m*3 -0.7 C 0 km/h
3070 27-12-2008 14:26:12 -0.7 C 2.4 g/m*3 -0.7 C 0 km/h
3071 27-12-2008 14:38:13 -0.7 C 2.4 g/m*3 -0.7 C 0 km/h
3072 27-12-2008 14:50:12 -0.8 C 2.38 g/m*3 -0.8 C 0 km/h
3073 27-12-2008 15:02:12 -0.7 C 2.45 g/m*3 -0.7 C 0 km/h
3074 27-12-2008 15:14:12 -0.6 C 2.46 g/m*3 -0.6 C 0 km/h
3075 27-12-2008 15:26:12 -0.6 C 2.46 g/m*3 -0.6 C 0 km/h
Sensor: Nr:Datum:Temp:Abs-Feuchte:Windchill:Wind:
Aussen-T/F 3076 27-12-2008 15:38:12 -0.8 C 2.43 g/m*3 -0.8 C 0 km/h
3077 27-12-2008 15:50:11 -0.9 C 2.46 g/m*3 -0.9 C 0 km/h
3078 27-12-2008 16:02:12 -1 C 2.49 g/m*3 -1 C 0 km/h
3079 27-12-2008 16:14:12 -1.1 C 2.47 g/m*3 -1.1 C 0 km/h
3080 27-12-2008 16:26:12 -1.1 C 2.47 g/m*3 -1.1 C 0 km/h
3081 27-12-2008 16:38:11 -1.2 C 2.45 g/m*3 -1.2 C 0 km/h
3082 27-12-2008 16:50:12 -1.3 C 2.43 g/m*3 -1.3 C 0 km/h
3083 27-12-2008 17:02:11 -1.3 C 2.48 g/m*3 -1.3 C 0 km/h
3084 27-12-2008 17:14:11 -1.2 C 2.5 g/m*3 -1.2 C 0 km/h
3085 27-12-2008 17:26:11 -1.2 C 2.5 g/m*3 -1.2 C 0 km/h
3086 27-12-2008 17:38:11 -1.3 C 2.48 g/m*3 -1.3 C 0 km/h
3087 27-12-2008 17:50:37 -1.4 C 2.51 g/m*3 -1.4 C 0 km/h
3088 27-12-2008 18:02:37 -1.4 C 2.51 g/m*3 -1.4 C 0 km/h
3089 27-12-2008 18:14:38 -1.4 C 2.51 g/m*3 -1.4 C 0 km/h
3090 27-12-2008 18:26:38 -1.4 C 2.51 g/m*3 -1.4 C 0 km/h
3091 27-12-2008 18:38:38 -1.4 C 2.51 g/m*3 -1.4 C 0 km/h
3092 27-12-2008 18:50:38 -1.4 C 2.51 g/m*3 -1.4 C 0 km/h
3093 27-12-2008 19:02:38 -1.4 C 2.55 g/m*3 -1.4 C 0 km/h
3094 27-12-2008 19:14:38 -1.5 C 2.53 g/m*3 -1.5 C 0 km/h
3095 27-12-2008 19:26:02 -1.6 C 2.51 g/m*3 -1.6 C 0 km/h
3096 27-12-2008 19:38:01 -1.6 C 2.56 g/m*3 -1.6 C 0 km/h
3097 27-12-2008 19:50:01 -1.6 C 2.56 g/m*3 -1.6 C 0 km/h
3098 27-12-2008 20:02:01 -1.6 C 2.6 g/m*3 -1.6 C 0 km/h
3099 27-12-2008 20:14:01 -1.6 C 2.6 g/m*3 -1.6 C 0 km/h
3100 27-12-2008 20:26:00 -1.8 C 2.56 g/m*3 -1.8 C 0 km/h
Sensor: Nr:Datum:Temp:Abs-Feuchte:Windchill:Wind:
Aussen-T/F 3101 27-12-2008 20:38:00 -1.9 C 2.59 g/m*3 -1.9 C 0 km/h
3102 27-12-2008 20:50:00 -2 C 2.57 g/m*3 -2 C 0 km/h
3103 27-12-2008 21:02:00 -1.9 C 2.59 g/m*3 -1.9 C 0 km/h
3104 27-12-2008 21:14:00 -2 C 2.57 g/m*3 -2 C 0 km/h
3105 27-12-2008 21:26:00 -2.1 C 2.6 g/m*3 -2.1 C 0 km/h
3106 27-12-2008 21:38:00 -2.2 C 2.62 g/m*3 -2.2 C 0 km/h
3107 27-12-2008 21:50:00 -2.2 C 2.58 g/m*3 -2.2 C 0 km/h
3108 27-12-2008 22:02:59 -2.3 C 2.6 g/m*3 -2.3 C 0 km/h
3109 27-12-2008 22:14:00 -2.4 C 2.58 g/m*3 -2.4 C 0 km/h
3110 27-12-2008 22:26:00 -2.5 C 2.56 g/m*3 -2.5 C 0 km/h
3111 27-12-2008 22:38:59 -2.7 C 2.57 g/m*3 -2.7 C 0 km/h
3112 27-12-2008 22:50:59 -2.8 C 2.59 g/m*3 -2.8 C 0 km/h
3113 27-12-2008 23:02:00 -2.9 C 2.57 g/m*3 -2.9 C 0 km/h
3114 27-12-2008 23:14:00 -3 C 2.55 g/m*3 -3 C 0 km/h
3115 27-12-2008 23:26:59 -3.1 C 2.57 g/m*3 -3.1 C 0 km/h
3116 27-12-2008 23:38:59 -3.2 C 2.56 g/m*3 -3.2 C 0 km/h
3117 27-12-2008 23:50:59 -3.3 C 2.58 g/m*3 -3.3 C 0 km/h
3118 28-12-2008 00:02:59 -3.2 C 2.59 g/m*3 -3.2 C 0 km/h
3119 28-12-2008 00:14:59 -3.2 C 2.59 g/m*3 -3.2 C 0 km/h
3120 28-12-2008 00:26:59 -3.1 C 2.57 g/m*3 -3.1 C 0 km/h
3121 28-12-2008 00:38:58 -3.1 C 2.57 g/m*3 -3.1 C 0 km/h
3122 28-12-2008 00:50:59 -3 C 2.55 g/m*3 -3 C 0 km/h
3123 28-12-2008 01:02:58 -3 C 2.55 g/m*3 -3 C 0 km/h
3124 28-12-2008 01:14:58 -3.1 C 2.54 g/m*3 -3.1 C 0 km/h
3125 28-12-2008 01:26:58 -3.1 C 2.54 g/m*3 -3.1 C 0 km/h
Sensor: Nr:Datum:Temp:Abs-Feuchte:Windchill:Wind:
Aussen-T/F 3126 28-12-2008 01:38:57 -3.1 C 2.54 g/m*3 -3.1 C 0 km/h
3127 28-12-2008 01:50:58 -3.4 C 2.48 g/m*3 -3.4 C 0 km/h
3128 28-12-2008 02:02:57 -3.5 C 2.5 g/m*3 -3.5 C 0 km/h
3129 28-12-2008 02:14:57 -3.7 C 2.47 g/m*3 -3.7 C 0 km/h
3130 28-12-2008 02:26:57 -3.7 C 2.5 g/m*3 -3.7 C 0 km/h
3131 28-12-2008 02:38:57 -3.5 C 2.54 g/m*3 -3.5 C 0 km/h
3132 28-12-2008 02:51:58 -3.4 C 2.56 g/m*3 -3.4 C 0 km/h
3133 28-12-2008 03:03:58 -3.7 C 2.5 g/m*3 -3.7 C 0 km/h
3134 28-12-2008 03:15:58 -3.6 C 2.56 g/m*3 -3.6 C 0 km/h
3135 28-12-2008 03:27:58 -3.5 C 2.58 g/m*3 -3.5 C 0 km/h
3136 28-12-2008 03:39:58 -3.3 C 2.61 g/m*3 -3.3 C 0 km/h
3137 28-12-2008 03:51:58 -3.3 C 2.58 g/m*3 -3.3 C 0 km/h
3138 28-12-2008 04:03:58 -3.1 C 2.57 g/m*3 -3.1 C 0 km/h
3139 28-12-2008 04:15:58 -3.1 C 2.54 g/m*3 -3.1 C 0 km/h
3140 28-12-2008 04:27:58 -3 C 2.55 g/m*3 -3 C 0 km/h
3141 28-12-2008 04:39:58 -2.8 C 2.55 g/m*3 -2.8 C 0 km/h
3142 28-12-2008 04:51:58 -2.6 C 2.55 g/m*3 -2.6 C 0 km/h
3143 28-12-2008 05:03:57 -2.6 C 2.51 g/m*3 -2.6 C 0 km/h
3144 28-12-2008 05:15:57 -2.5 C 2.52 g/m*3 -2.5 C 0 km/h
3145 28-12-2008 05:27:57 -2.4 C 2.5 g/m*3 -2.4 C 0 km/h
3146 28-12-2008 05:39:57 -2.4 C 2.5 g/m*3 -2.4 C 0 km/h
3147 28-12-2008 05:51:56 -2.5 C 2.48 g/m*3 -2.5 C 0 km/h
3148 28-12-2008 06:03:57 -2.5 C 2.48 g/m*3 -2.5 C 0 km/h
3149 28-12-2008 06:15:57 -2.7 C 2.45 g/m*3 -2.7 C 0 km/h
3150 28-12-2008 06:27:57 -2.7 C 2.45 g/m*3 -2.7 C 0 km/h
Sensor: Nr:Datum:Temp:Abs-Feuchte:Windchill:Wind:
Aussen-T/F 3151 28-12-2008 06:39:56 -2.8 C 2.47 g/m*3 -2.8 C 0 km/h
3152 28-12-2008 06:51:57 -2.7 C 2.45 g/m*3 -2.7 C 0 km/h
3153 28-12-2008 07:03:56 -2.5 C 2.48 g/m*3 -2.5 C 0 km/h
3154 28-12-2008 07:15:56 -2.7 C 2.45 g/m*3 -2.7 C 0 km/h
3155 28-12-2008 07:27:56 -2.8 C 2.43 g/m*3 -2.8 C 0 km/h
3156 28-12-2008 07:39:56 -3.1 C 2.38 g/m*3 -3.1 C 0 km/h
3157 28-12-2008 07:51:56 -3.5 C 2.35 g/m*3 -3.5 C 0 km/h
3158 28-12-2008 08:03:55 -3.7 C 2.43 g/m*3 -3.7 C 0 km/h
3159 28-12-2008 08:15:55 -4 C 2.38 g/m*3 -4 C 0 km/h
3160 28-12-2008 08:27:55 -4.1 C 2.43 g/m*3 -4.1 C 0 km/h
3161 28-12-2008 08:39:55 -4.2 C 2.45 g/m*3 -4.2 C 0 km/h
3162 28-12-2008 08:51:55 -4.3 C 2.43 g/m*3 -4.3 C 0 km/h
3163 28-12-2008 09:03:55 -4.2 C 2.49 g/m*3 -4.2 C 0 km/h
3164 28-12-2008 09:15:55 -4.2 C 2.49 g/m*3 -4.2 C 0 km/h
3165 28-12-2008 09:27:55 -4.1 C 2.51 g/m*3 -4.1 C 0 km/h
3166 28-12-2008 09:39:55 -4.1 C 2.51 g/m*3 -4.1 C 0 km/h
3167 28-12-2008 09:51:54 -3.9 C 2.54 g/m*3 -3.9 C 0 km/h
3168 28-12-2008 10:03:55 -3.5 C 2.58 g/m*3 -3.5 C 0 km/h
3169 28-12-2008 10:15:54 -3.2 C 2.56 g/m*3 -3.2 C 0 km/h
3170 28-12-2008 10:27:54 -2.9 C 2.53 g/m*3 -2.9 C 0 km/h
3171 28-12-2008 10:39:54 -2.8 C 2.51 g/m*3 -2.8 C 0 km/h
3172 28-12-2008 10:51:54 -2.7 C 2.49 g/m*3 -2.7 C 0 km/h
3173 28-12-2008 11:03:54 -2.7 C 2.49 g/m*3 -2.7 C 0 km/h
3174 28-12-2008 11:15:54 -2.5 C 2.48 g/m*3 -2.5 C 0 km/h
3175 28-12-2008 11:27:54 -2.4 C 2.5 g/m*3 -2.4 C 0 km/h
Sensor: Nr:Datum:Temp:Abs-Feuchte:Windchill:Wind:
Aussen-T/F 3176 28-12-2008 11:39:53 -2.4 C 2.5 g/m*3 -2.4 C 0 km/h
3177 28-12-2008 11:51:54 -2 C 2.53 g/m*3 -2 C 0 km/h
3178 28-12-2008 12:03:53 -2 C 2.53 g/m*3 -2 C 0 km/h
3179 28-12-2008 12:15:53 -1.9 C 2.5 g/m*3 -1.9 C 0 km/h
3180 28-12-2008 12:27:53 -1.8 C 2.48 g/m*3 -1.8 C 0 km/h
3181 28-12-2008 12:39:53 -1.7 C 2.5 g/m*3 -1.7 C 0 km/h
3182 28-12-2008 12:51:53 -1.4 C 2.51 g/m*3 -1.4 C 0 km/h
3183 28-12-2008 13:03:52 -1.4 C 2.51 g/m*3 -1.4 C 0 km/h
3184 28-12-2008 13:15:53 -1.3 C 2.48 g/m*3 -1.3 C 0 km/h
3185 28-12-2008 13:27:53 -1.3 C 2.48 g/m*3 -1.3 C 0 km/h
3186 28-12-2008 13:39:53 -1.2 C 2.5 g/m*3 -1.2 C 0 km/h
3187 28-12-2008 13:51:52 -1.1 C 2.51 g/m*3 -1.1 C 0 km/h
3188 28-12-2008 14:03:53 -1.1 C 2.47 g/m*3 -1.1 C 0 km/h
3189 28-12-2008 14:15:52 -1.1 C 2.47 g/m*3 -1.1 C 0 km/h
3190 28-12-2008 14:27:52 -1.1 C 2.51 g/m*3 -1.1 C 0 km/h
3191 28-12-2008 14:39:52 -1.2 C 2.5 g/m*3 -1.2 C 0 km/h
3192 28-12-2008 14:51:52 -1.5 C 2.53 g/m*3 -1.5 C 0 km/h
3193 28-12-2008 15:03:52 -1.4 C 2.55 g/m*3 -1.4 C 0 km/h
3194 28-12-2008 15:15:51 -1.4 C 2.51 g/m*3 -1.4 C 0 km/h
3195 28-12-2008 15:27:51 -1.3 C 2.52 g/m*3 -1.3 C 0 km/h
3196 28-12-2008 15:39:51 -1.2 C 2.54 g/m*3 -1.2 C 0 km/h
3197 28-12-2008 15:51:51 -1.3 C 2.52 g/m*3 -1.3 C 0 km/h
3198 28-12-2008 16:03:51 -1.6 C 2.51 g/m*3 -1.6 C 0 km/h
3199 28-12-2008 16:15:51 -1.6 C 2.47 g/m*3 -1.6 C 0 km/h
3200 28-12-2008 16:27:51 -1.9 C 2.46 g/m*3 -1.9 C 0 km/h
Sensor: Nr:Datum:Temp:Abs-Feuchte:Windchill:Wind:
Aussen-T/F 3201 28-12-2008 16:39:51 -2.4 C 2.42 g/m*3 -2.4 C 0 km/h
3202 28-12-2008 16:51:51 -2.2 C 2.49 g/m*3 -2.2 C 0 km/h
3203 28-12-2008 17:03:50 -2.5 C 2.48 g/m*3 -2.5 C 0 km/h
3204 28-12-2008 17:15:51 -2.7 C 2.49 g/m*3 -2.7 C 0 km/h
3205 28-12-2008 17:27:51 -2.8 C 2.51 g/m*3 -2.8 C 0 km/h
3206 28-12-2008 17:39:50 -2.9 C 2.53 g/m*3 -2.9 C 0 km/h
3207 28-12-2008 17:51:50 -3.1 C 2.54 g/m*3 -3.1 C 0 km/h
3208 28-12-2008 18:03:50 -3.2 C 2.52 g/m*3 -3.2 C 0 km/h
3209 28-12-2008 18:15:50 -3.3 C 2.54 g/m*3 -3.3 C 0 km/h
3210 28-12-2008 18:27:50 -3.3 C 2.58 g/m*3 -3.3 C 0 km/h
3211 28-12-2008 18:39:50 -3.3 C 2.58 g/m*3 -3.3 C 0 km/h
3212 28-12-2008 18:51:49 -3.3 C 2.58 g/m*3 -3.3 C 0 km/h
3213 28-12-2008 19:03:50 -3.5 C 2.54 g/m*3 -3.5 C 0 km/h
3214 28-12-2008 19:15:50 -3.5 C 2.58 g/m*3 -3.5 C 0 km/h
3215 28-12-2008 19:27:50 -3.4 C 2.6 g/m*3 -3.4 C 0 km/h
3216 28-12-2008 19:39:49 -3.6 C 2.56 g/m*3 -3.6 C 0 km/h
3217 28-12-2008 19:51:49 -3.4 C 2.6 g/m*3 -3.4 C 0 km/h
3218 28-12-2008 20:03:49 -3.5 C 2.58 g/m*3 -3.5 C 0 km/h
3219 28-12-2008 20:15:49 -3.7 C 2.58 g/m*3 -3.7 C 0 km/h
3220 28-12-2008 20:27:49 -3.9 C 2.54 g/m*3 -3.9 C 0 km/h
3221 28-12-2008 20:39:48 -4 C 2.56 g/m*3 -4 C 0 km/h
3222 28-12-2008 20:51:49 -3.9 C 2.62 g/m*3 -3.9 C 0 km/h
3223 28-12-2008 21:03:48 -4 C 2.6 g/m*3 -4 C 0 km/h
3224 28-12-2008 21:15:48 -4.1 C 2.58 g/m*3 -4.1 C 0 km/h
3225 28-12-2008 21:27:48 -4.3 C 2.54 g/m*3 -4.3 C 0 km/h
Sensor: Nr:Datum:Temp:Abs-Feuchte:Windchill:Wind:
Aussen-T/F 3226 28-12-2008 21:39:48 -4.4 C 2.56 g/m*3 -4.4 C 0 km/h
3227 28-12-2008 21:51:48 -4.5 C 2.58 g/m*3 -4.5 C 0 km/h
3228 28-12-2008 22:03:47 -4.5 C 2.61 g/m*3 -4.5 C 0 km/h
3229 28-12-2008 22:15:47 -4.6 C 2.59 g/m*3 -4.6 C 0 km/h
3230 28-12-2008 22:27:47 -4.6 C 2.59 g/m*3 -4.6 C 0 km/h
3231 28-12-2008 22:39:48 -4.8 C 2.59 g/m*3 -4.8 C 0 km/h
3232 28-12-2008 22:51:47 -4.8 C 2.59 g/m*3 -4.8 C 0 km/h
3233 28-12-2008 23:03:47 -4.8 C 2.59 g/m*3 -4.8 C 0 km/h
3234 28-12-2008 23:15:47 -5.1 C 2.54 g/m*3 -5.1 C 0 km/h
3235 28-12-2008 23:27:47 -5.2 C 2.55 g/m*3 -5.2 C 0 km/h
3236 28-12-2008 23:39:47 -5 C 2.59 g/m*3 -5 C 0 km/h
3237 28-12-2008 23:51:46 -5.2 C 2.58 g/m*3 -5.2 C 0 km/h
3238 29-12-2008 00:03:47 -5.2 C 2.58 g/m*3 -5.2 C 0 km/h
3239 29-12-2008 00:15:46 -5.3 C 2.57 g/m*3 -5.3 C 0 km/h
3240 29-12-2008 00:27:46 -5.2 C 2.58 g/m*3 -5.2 C 0 km/h
3241 29-12-2008 00:39:46 -5.3 C 2.57 g/m*3 -5.3 C 0 km/h
3242 29-12-2008 00:51:46 -5.3 C 2.57 g/m*3 -5.3 C 0 km/h
3243 29-12-2008 01:03:46 -5.5 C 2.53 g/m*3 -5.5 C 0 km/h
3244 29-12-2008 01:15:45 -5.5 C 2.53 g/m*3 -5.5 C 0 km/h
3245 29-12-2008 01:27:45 -5.6 C 2.54 g/m*3 -5.6 C 0 km/h
3246 29-12-2008 01:39:46 -5.7 C 2.52 g/m*3 -5.7 C 0 km/h
3247 29-12-2008 01:51:45 -5.8 C 2.51 g/m*3 -5.8 C 0 km/h
3248 29-12-2008 02:03:45 -5.7 C 2.56 g/m*3 -5.7 C 0 km/h
3249 29-12-2008 02:15:46 -5.7 C 2.56 g/m*3 -5.7 C 0 km/h
3250